<?xml version="1.0" encoding="UTF-8" standalone="no" ?>
<gpx xmlns="http://www.topografix.com/GPX/1/1" creator="MapSource 6.16.3" version="1.1" xmlns:xsi="http://www.w3.org/2001/XMLSchema-instance" xsi:schemaLocation="http://www.topografix.com/GPX/1/1 http://www.topografix.com/GPX/1/1/gpx.xsd">

  <metadata>
    <link href="http://www.garmin.com">
      <text>Garmin International</text>
    </link>
    <time>2016-09-17T12:25:30Z</time>
    <bounds maxlat="45.526978969573975" maxlon="9.001986980438232" minlat="45.511271953582764" minlon="8.965380191802979"/>
  </metadata>

  <wpt lat="45.525033362209797" lon="8.999133361503482">
    <name>PARTENZA</name>
    <cmt>Via Delle Tre Campane</cmt>
    <desc>Via Delle Tre Campane</desc>
    <sym>Trail Head</sym>
    <extensions>
      <gpxx:WaypointExtension xmlns:gpxx="http://www.garmin.com/xmlschemas/GpxExtensions/v3">
        <gpxx:DisplayMode>SymbolAndName</gpxx:DisplayMode>
      </gpxx:WaypointExtension>
    </extensions>
  </wpt>

  <trk>
    <name>1 giro</name>
    <trkseg>
      <trkpt lat="45.525026321411133" lon="8.999133110046387">
        <ele>152.50634765625</ele>
        <time>2008-05-18T08:04:09Z</time>
      </trkpt>
      <trkpt lat="45.525026321411133" lon="8.999133110046387">
        <ele>156.8321533203125</ele>
        <time>2008-05-18T08:05:17Z</time>
      </trkpt>
      <trkpt lat="45.525176525115967" lon="8.998939990997315">
        <ele>157.3128662109375</ele>
        <time>2008-05-18T08:05:25Z</time>
      </trkpt>
      <trkpt lat="45.525412559509277" lon="8.998639583587647">
        <ele>157.3128662109375</ele>
        <time>2008-05-18T08:05:32Z</time>
      </trkpt>
      <trkpt lat="45.52558422088623" lon="8.998425006866455">
        <ele>157.3128662109375</ele>
        <time>2008-05-18T08:05:36Z</time>
      </trkpt>
      <trkpt lat="45.52584171295166" lon="8.998317718505859">
        <ele>157.3128662109375</ele>
        <time>2008-05-18T08:05:41Z</time>
      </trkpt>
      <trkpt lat="45.526120662689209" lon="8.998489379882813">
        <ele>156.3515625</ele>
        <time>2008-05-18T08:05:46Z</time>
      </trkpt>
      <trkpt lat="45.526185035705566" lon="8.998789787292481">
        <ele>156.3515625</ele>
        <time>2008-05-18T08:05:50Z</time>
      </trkpt>
      <trkpt lat="45.526120662689209" lon="8.999111652374268">
        <ele>155.8709716796875</ele>
        <time>2008-05-18T08:05:54Z</time>
      </trkpt>
      <trkpt lat="45.526034832000732" lon="8.999240398406982">
        <ele>155.8709716796875</ele>
        <time>2008-05-18T08:05:56Z</time>
      </trkpt>
      <trkpt lat="45.525455474853516" lon="8.999905586242676">
        <ele>155.3902587890625</ele>
        <time>2008-05-18T08:06:08Z</time>
      </trkpt>
      <trkpt lat="45.525155067443848" lon="8.999948501586914">
        <ele>155.3902587890625</ele>
        <time>2008-05-18T08:06:13Z</time>
      </trkpt>
      <trkpt lat="45.524961948394775" lon="8.999755382537842">
        <ele>155.3902587890625</ele>
        <time>2008-05-18T08:06:17Z</time>
      </trkpt>
      <trkpt lat="45.524640083312988" lon="8.999240398406982">
        <ele>154.9095458984375</ele>
        <time>2008-05-18T08:06:25Z</time>
      </trkpt>
      <trkpt lat="45.524446964263916" lon="8.999283313751221">
        <ele>154.9095458984375</ele>
        <time>2008-05-18T08:06:29Z</time>
      </trkpt>
      <trkpt lat="45.523953437805176" lon="9.000034332275391">
        <ele>154.428955078125</ele>
        <time>2008-05-18T08:06:39Z</time>
      </trkpt>
      <trkpt lat="45.523416996002197" lon="9.000785350799561">
        <ele>151.064208984375</ele>
        <time>2008-05-18T08:06:48Z</time>
      </trkpt>
      <trkpt lat="45.523266792297363" lon="9.000957012176514">
        <ele>150.10302734375</ele>
        <time>2008-05-18T08:06:50Z</time>
      </trkpt>
      <trkpt lat="45.522944927215576" lon="9.000999927520752">
        <ele>150.10302734375</ele>
        <time>2008-05-18T08:06:54Z</time>
      </trkpt>
      <trkpt lat="45.522730350494385" lon="9.000828266143799">
        <ele>148.6610107421875</ele>
        <time>2008-05-18T08:06:57Z</time>
      </trkpt>
      <trkpt lat="45.521957874298096" lon="8.999969959259033">
        <ele>148.180419921875</ele>
        <time>2008-05-18T08:07:08Z</time>
      </trkpt>
      <trkpt lat="45.521571636199951" lon="8.99956226348877">
        <ele>151.544921875</ele>
        <time>2008-05-18T08:07:15Z</time>
      </trkpt>
      <trkpt lat="45.521378517150879" lon="8.999326229095459">
        <ele>151.544921875</ele>
        <time>2008-05-18T08:07:19Z</time>
      </trkpt>
      <trkpt lat="45.521206855773926" lon="8.998789787292481">
        <ele>152.0257568359375</ele>
        <time>2008-05-18T08:07:25Z</time>
      </trkpt>
      <trkpt lat="45.520906448364258" lon="8.997652530670166">
        <ele>153.4676513671875</ele>
        <time>2008-05-18T08:07:37Z</time>
      </trkpt>
      <trkpt lat="45.520756244659424" lon="8.997116088867188">
        <ele>153.9483642578125</ele>
        <time>2008-05-18T08:07:43Z</time>
      </trkpt>
      <trkpt lat="45.520799160003662" lon="8.996665477752686">
        <ele>154.428955078125</ele>
        <time>2008-05-18T08:07:48Z</time>
      </trkpt>
      <trkpt lat="45.520927906036377" lon="8.996450901031494">
        <ele>154.428955078125</ele>
        <time>2008-05-18T08:07:51Z</time>
      </trkpt>
      <trkpt lat="45.521571636199951" lon="8.995978832244873">
        <ele>154.9095458984375</ele>
        <time>2008-05-18T08:08:02Z</time>
      </trkpt>
      <trkpt lat="45.522215366363525" lon="8.995506763458252">
        <ele>155.8709716796875</ele>
        <time>2008-05-18T08:08:13Z</time>
      </trkpt>
      <trkpt lat="45.522429943084717" lon="8.995356559753418">
        <ele>155.8709716796875</ele>
        <time>2008-05-18T08:08:17Z</time>
      </trkpt>
      <trkpt lat="45.522558689117432" lon="8.995120525360107">
        <ele>155.8709716796875</ele>
        <time>2008-05-18T08:08:21Z</time>
      </trkpt>
      <trkpt lat="45.522429943084717" lon="8.994841575622559">
        <ele>155.8709716796875</ele>
        <time>2008-05-18T08:08:26Z</time>
      </trkpt>
      <trkpt lat="45.522408485412598" lon="8.994777202606201">
        <ele>155.8709716796875</ele>
        <time>2008-05-18T08:08:27Z</time>
      </trkpt>
      <trkpt lat="45.522086620330811" lon="8.994154930114746">
        <ele>155.8709716796875</ele>
        <time>2008-05-18T08:08:37Z</time>
      </trkpt>
      <trkpt lat="45.52159309387207" lon="8.993253707885742">
        <ele>156.3515625</ele>
        <time>2008-05-18T08:08:51Z</time>
      </trkpt>
      <trkpt lat="45.521228313446045" lon="8.992738723754883">
        <ele>156.3515625</ele>
        <time>2008-05-18T08:09:01Z</time>
      </trkpt>
      <trkpt lat="45.520777702331543" lon="8.992266654968262">
        <ele>155.3902587890625</ele>
        <time>2008-05-18T08:09:12Z</time>
      </trkpt>
      <trkpt lat="45.520391464233398" lon="8.991644382476807">
        <ele>154.9095458984375</ele>
        <time>2008-05-18T08:09:24Z</time>
      </trkpt>
      <trkpt lat="45.520176887512207" lon="8.990914821624756">
        <ele>155.3902587890625</ele>
        <time>2008-05-18T08:09:34Z</time>
      </trkpt>
      <trkpt lat="45.519940853118896" lon="8.990206718444824">
        <ele>155.3902587890625</ele>
        <time>2008-05-18T08:09:44Z</time>
      </trkpt>
      <trkpt lat="45.519618988037109" lon="8.989648818969727">
        <ele>154.9095458984375</ele>
        <time>2008-05-18T08:09:53Z</time>
      </trkpt>
      <trkpt lat="45.519254207611084" lon="8.989112377166748">
        <ele>155.3902587890625</ele>
        <time>2008-05-18T08:10:03Z</time>
      </trkpt>
      <trkpt lat="45.518996715545654" lon="8.988704681396484">
        <ele>154.9095458984375</ele>
        <time>2008-05-18T08:10:11Z</time>
      </trkpt>
      <trkpt lat="45.518739223480225" lon="8.988168239593506">
        <ele>154.428955078125</ele>
        <time>2008-05-18T08:10:21Z</time>
      </trkpt>
      <trkpt lat="45.518567562103271" lon="8.987524509429932">
        <ele>153.9483642578125</ele>
        <time>2008-05-18T08:10:31Z</time>
      </trkpt>
      <trkpt lat="45.518267154693604" lon="8.986794948577881">
        <ele>153.9483642578125</ele>
        <time>2008-05-18T08:10:44Z</time>
      </trkpt>
      <trkpt lat="45.518181324005127" lon="8.986537456512451">
        <ele>153.9483642578125</ele>
        <time>2008-05-18T08:10:49Z</time>
      </trkpt>
      <trkpt lat="45.518245697021484" lon="8.986408710479736">
        <ele>153.9483642578125</ele>
        <time>2008-05-18T08:10:52Z</time>
      </trkpt>
      <trkpt lat="45.518374443054199" lon="8.986151218414307">
        <ele>153.9483642578125</ele>
        <time>2008-05-18T08:10:57Z</time>
      </trkpt>
      <trkpt lat="45.518374443054199" lon="8.986086845397949">
        <ele>153.9483642578125</ele>
        <time>2008-05-18T08:10:58Z</time>
      </trkpt>
      <trkpt lat="45.518374443054199" lon="8.98582935333252">
        <ele>154.9095458984375</ele>
        <time>2008-05-18T08:11:03Z</time>
      </trkpt>
      <trkpt lat="45.518481731414795" lon="8.985593318939209">
        <ele>154.9095458984375</ele>
        <time>2008-05-18T08:11:08Z</time>
      </trkpt>
      <trkpt lat="45.518417358398437" lon="8.985528945922852">
        <ele>154.9095458984375</ele>
        <time>2008-05-18T08:11:10Z</time>
      </trkpt>
      <trkpt lat="45.518245697021484" lon="8.985378742218018">
        <ele>154.428955078125</ele>
        <time>2008-05-18T08:11:14Z</time>
      </trkpt>
      <trkpt lat="45.517795085906982" lon="8.984735012054443">
        <ele>153.9483642578125</ele>
        <time>2008-05-18T08:11:24Z</time>
      </trkpt>
      <trkpt lat="45.517323017120361" lon="8.984048366546631">
        <ele>152.9869384765625</ele>
        <time>2008-05-18T08:11:34Z</time>
      </trkpt>
      <trkpt lat="45.517044067382813" lon="8.983683586120606">
        <ele>152.9869384765625</ele>
        <time>2008-05-18T08:11:40Z</time>
      </trkpt>
      <trkpt lat="45.517001152038574" lon="8.983340263366699">
        <ele>152.9869384765625</ele>
        <time>2008-05-18T08:11:44Z</time>
      </trkpt>
      <trkpt lat="45.517086982727051" lon="8.983104228973389">
        <ele>153.4676513671875</ele>
        <time>2008-05-18T08:11:47Z</time>
      </trkpt>
      <trkpt lat="45.517494678497314" lon="8.982524871826172">
        <ele>153.4676513671875</ele>
        <time>2008-05-18T08:11:56Z</time>
      </trkpt>
      <trkpt lat="45.518009662628174" lon="8.981881141662598">
        <ele>153.4676513671875</ele>
        <time>2008-05-18T08:12:06Z</time>
      </trkpt>
      <trkpt lat="45.518224239349365" lon="8.981902599334717">
        <ele>152.9869384765625</ele>
        <time>2008-05-18T08:12:10Z</time>
      </trkpt>
      <trkpt lat="45.51835298538208" lon="8.982095718383789">
        <ele>153.4676513671875</ele>
        <time>2008-05-18T08:12:13Z</time>
      </trkpt>
      <trkpt lat="45.518589019775391" lon="8.982224464416504">
        <ele>155.3902587890625</ele>
        <time>2008-05-18T08:12:18Z</time>
      </trkpt>
      <trkpt lat="45.519146919250488" lon="8.981645107269287">
        <ele>154.9095458984375</ele>
        <time>2008-05-18T08:12:28Z</time>
      </trkpt>
      <trkpt lat="45.519683361053467" lon="8.981173038482666">
        <ele>154.9095458984375</ele>
        <time>2008-05-18T08:12:38Z</time>
      </trkpt>
      <trkpt lat="45.519833564758301" lon="8.981215953826904">
        <ele>154.428955078125</ele>
        <time>2008-05-18T08:12:42Z</time>
      </trkpt>
      <trkpt lat="45.519897937774658" lon="8.981301784515381">
        <ele>153.9483642578125</ele>
        <time>2008-05-18T08:12:44Z</time>
      </trkpt>
      <trkpt lat="45.52011251449585" lon="8.981387615203857">
        <ele>153.9483642578125</ele>
        <time>2008-05-18T08:12:48Z</time>
      </trkpt>
      <trkpt lat="45.520155429840088" lon="8.981366157531738">
        <ele>154.428955078125</ele>
        <time>2008-05-18T08:12:49Z</time>
      </trkpt>
      <trkpt lat="45.520563125610352" lon="8.981022834777832">
        <ele>154.9095458984375</ele>
        <time>2008-05-18T08:12:57Z</time>
      </trkpt>
      <trkpt lat="45.520820617675781" lon="8.980808258056641">
        <ele>154.9095458984375</ele>
        <time>2008-05-18T08:13:02Z</time>
      </trkpt>
      <trkpt lat="45.521013736724854" lon="8.980979919433594">
        <ele>154.9095458984375</ele>
        <time>2008-05-18T08:13:09Z</time>
      </trkpt>
      <trkpt lat="45.521163940429688" lon="8.981151580810547">
        <ele>153.9483642578125</ele>
        <time>2008-05-18T08:13:16Z</time>
      </trkpt>
      <trkpt lat="45.521421432495117" lon="8.981237411499023">
        <ele>153.4676513671875</ele>
        <time>2008-05-18T08:13:25Z</time>
      </trkpt>
      <trkpt lat="45.521764755249023" lon="8.981194496154785">
        <ele>152.9869384765625</ele>
        <time>2008-05-18T08:13:34Z</time>
      </trkpt>
      <trkpt lat="45.522215366363525" lon="8.981258869171143">
        <ele>152.9869384765625</ele>
        <time>2008-05-18T08:13:45Z</time>
      </trkpt>
      <trkpt lat="45.522966384887695" lon="8.981773853302002">
        <ele>152.9869384765625</ele>
        <time>2008-05-18T08:13:54Z</time>
      </trkpt>
      <trkpt lat="45.523180961608887" lon="8.982009887695313">
        <ele>153.4676513671875</ele>
        <time>2008-05-18T08:14:00Z</time>
      </trkpt>
      <trkpt lat="45.523459911346436" lon="8.982481956481934">
        <ele>152.50634765625</ele>
        <time>2008-05-18T08:14:09Z</time>
      </trkpt>
      <trkpt lat="45.523481369018555" lon="8.982546329498291">
        <ele>152.50634765625</ele>
        <time>2008-05-18T08:14:10Z</time>
      </trkpt>
      <trkpt lat="45.52361011505127" lon="8.982675075531006">
        <ele>152.50634765625</ele>
        <time>2008-05-18T08:14:14Z</time>
      </trkpt>
      <trkpt lat="45.523910522460938" lon="8.98256778717041">
        <ele>150.5836181640625</ele>
        <time>2008-05-18T08:14:22Z</time>
      </trkpt>
      <trkpt lat="45.524060726165771" lon="8.982846736907959">
        <ele>151.064208984375</ele>
        <time>2008-05-18T08:14:28Z</time>
      </trkpt>
      <trkpt lat="45.52410364151001" lon="8.982975482940674">
        <ele>150.5836181640625</ele>
        <time>2008-05-18T08:14:31Z</time>
      </trkpt>
      <trkpt lat="45.524232387542725" lon="8.98306131362915">
        <ele>151.064208984375</ele>
        <time>2008-05-18T08:14:35Z</time>
      </trkpt>
      <trkpt lat="45.524640083312988" lon="8.982760906219482">
        <ele>151.064208984375</ele>
        <time>2008-05-18T08:14:43Z</time>
      </trkpt>
      <trkpt lat="45.525369644165039" lon="8.982245922088623">
        <ele>151.544921875</ele>
        <time>2008-05-18T08:14:59Z</time>
      </trkpt>
      <trkpt lat="45.525670051574707" lon="8.982031345367432">
        <ele>151.064208984375</ele>
        <time>2008-05-18T08:15:06Z</time>
      </trkpt>
      <trkpt lat="45.525798797607422" lon="8.981945514678955">
        <ele>151.064208984375</ele>
        <time>2008-05-18T08:15:09Z</time>
      </trkpt>
      <trkpt lat="45.525863170623779" lon="8.981730937957764">
        <ele>152.0257568359375</ele>
        <time>2008-05-18T08:15:13Z</time>
      </trkpt>
      <trkpt lat="45.52584171295166" lon="8.981666564941406">
        <ele>152.50634765625</ele>
        <time>2008-05-18T08:15:14Z</time>
      </trkpt>
      <trkpt lat="45.52558422088623" lon="8.980979919433594">
        <ele>152.9869384765625</ele>
        <time>2008-05-18T08:15:24Z</time>
      </trkpt>
      <trkpt lat="45.525283813476562" lon="8.980271816253662">
        <ele>153.9483642578125</ele>
        <time>2008-05-18T08:15:34Z</time>
      </trkpt>
      <trkpt lat="45.525026321411133" lon="8.979520797729492">
        <ele>151.544921875</ele>
        <time>2008-05-18T08:15:45Z</time>
      </trkpt>
      <trkpt lat="45.524618625640869" lon="8.978512287139893">
        <ele>152.50634765625</ele>
        <time>2008-05-18T08:16:00Z</time>
      </trkpt>
      <trkpt lat="45.524489879608154" lon="8.978104591369629">
        <ele>152.9869384765625</ele>
        <time>2008-05-18T08:16:06Z</time>
      </trkpt>
      <trkpt lat="45.524511337280273" lon="8.977890014648438">
        <ele>152.9869384765625</ele>
        <time>2008-05-18T08:16:11Z</time>
      </trkpt>
      <trkpt lat="45.524532794952393" lon="8.977847099304199">
        <ele>153.4676513671875</ele>
        <time>2008-05-18T08:16:12Z</time>
      </trkpt>
      <trkpt lat="45.524768829345703" lon="8.977546691894531">
        <ele>153.9483642578125</ele>
        <time>2008-05-18T08:16:21Z</time>
      </trkpt>
      <trkpt lat="45.525197982788086" lon="8.977181911468506">
        <ele>155.8709716796875</ele>
        <time>2008-05-18T08:16:32Z</time>
      </trkpt>
      <trkpt lat="45.525691509246826" lon="8.976817131042481">
        <ele>158.274169921875</ele>
        <time>2008-05-18T08:16:43Z</time>
      </trkpt>
      <trkpt lat="45.526227951049805" lon="8.976387977600098">
        <ele>158.7547607421875</ele>
        <time>2008-05-18T08:16:56Z</time>
      </trkpt>
      <trkpt lat="45.526635646820068" lon="8.975915908813477">
        <ele>158.7547607421875</ele>
        <time>2008-05-18T08:17:09Z</time>
      </trkpt>
      <trkpt lat="45.526978969573975" lon="8.975486755371094">
        <ele>159.7161865234375</ele>
        <time>2008-05-18T08:17:20Z</time>
      </trkpt>
      <trkpt lat="45.526893138885498" lon="8.97533655166626">
        <ele>158.7547607421875</ele>
        <time>2008-05-18T08:17:26Z</time>
      </trkpt>
      <trkpt lat="45.526678562164307" lon="8.975036144256592">
        <ele>158.7547607421875</ele>
        <time>2008-05-18T08:17:32Z</time>
      </trkpt>
      <trkpt lat="45.5263352394104" lon="8.974499702453613">
        <ele>158.7547607421875</ele>
        <time>2008-05-18T08:17:43Z</time>
      </trkpt>
      <trkpt lat="45.52609920501709" lon="8.974649906158447">
        <ele>158.274169921875</ele>
        <time>2008-05-18T08:17:51Z</time>
      </trkpt>
      <trkpt lat="45.525648593902588" lon="8.975014686584473">
        <ele>157.7935791015625</ele>
        <time>2008-05-18T08:18:04Z</time>
      </trkpt>
      <trkpt lat="45.525262355804443" lon="8.97533655166626">
        <ele>158.7547607421875</ele>
        <time>2008-05-18T08:18:16Z</time>
      </trkpt>
      <trkpt lat="45.524811744689941" lon="8.975765705108643">
        <ele>160.1968994140625</ele>
        <time>2008-05-18T08:18:28Z</time>
      </trkpt>
      <trkpt lat="45.524275302886963" lon="8.976237773895264">
        <ele>159.7161865234375</ele>
        <time>2008-05-18T08:18:41Z</time>
      </trkpt>
      <trkpt lat="45.523824691772461" lon="8.976602554321289">
        <ele>158.7547607421875</ele>
        <time>2008-05-18T08:18:52Z</time>
      </trkpt>
      <trkpt lat="45.523395538330078" lon="8.976988792419434">
        <ele>158.274169921875</ele>
        <time>2008-05-18T08:19:03Z</time>
      </trkpt>
      <trkpt lat="45.5228590965271" lon="8.977460861206055">
        <ele>158.7547607421875</ele>
        <time>2008-05-18T08:19:16Z</time>
      </trkpt>
      <trkpt lat="45.522129535675049" lon="8.97808313369751">
        <ele>159.7161865234375</ele>
        <time>2008-05-18T08:19:34Z</time>
      </trkpt>
      <trkpt lat="45.52135705947876" lon="8.978726863861084">
        <ele>157.3128662109375</ele>
        <time>2008-05-18T08:19:53Z</time>
      </trkpt>
      <trkpt lat="45.520777702331543" lon="8.979306221008301">
        <ele>157.3128662109375</ele>
        <time>2008-05-18T08:20:07Z</time>
      </trkpt>
      <trkpt lat="45.52009105682373" lon="8.979842662811279">
        <ele>156.3515625</ele>
        <time>2008-05-18T08:20:20Z</time>
      </trkpt>
      <trkpt lat="45.519447326660156" lon="8.980464935302734">
        <ele>159.2354736328125</ele>
        <time>2008-05-18T08:20:32Z</time>
      </trkpt>
      <trkpt lat="45.518674850463867" lon="8.981344699859619">
        <ele>159.2354736328125</ele>
        <time>2008-05-18T08:20:47Z</time>
      </trkpt>
      <trkpt lat="45.518224239349365" lon="8.981859683990479">
        <ele>158.7547607421875</ele>
        <time>2008-05-18T08:20:56Z</time>
      </trkpt>
      <trkpt lat="45.518052577972412" lon="8.981709480285645">
        <ele>158.7547607421875</ele>
        <time>2008-05-18T08:21:02Z</time>
      </trkpt>
      <trkpt lat="45.51785945892334" lon="8.981301784515381">
        <ele>156.8321533203125</ele>
        <time>2008-05-18T08:21:09Z</time>
      </trkpt>
      <trkpt lat="45.517494678497314" lon="8.980550765991211">
        <ele>156.8321533203125</ele>
        <time>2008-05-18T08:21:20Z</time>
      </trkpt>
      <trkpt lat="45.51710844039917" lon="8.979671001434326">
        <ele>156.3515625</ele>
        <time>2008-05-18T08:21:33Z</time>
      </trkpt>
      <trkpt lat="45.516743659973145" lon="8.978898525238037">
        <ele>155.3902587890625</ele>
        <time>2008-05-18T08:21:45Z</time>
      </trkpt>
      <trkpt lat="45.516314506530762" lon="8.977975845336914">
        <ele>153.4676513671875</ele>
        <time>2008-05-18T08:21:58Z</time>
      </trkpt>
      <trkpt lat="45.515756607055664" lon="8.976709842681885">
        <ele>151.064208984375</ele>
        <time>2008-05-18T08:22:16Z</time>
      </trkpt>
      <trkpt lat="45.515327453613281" lon="8.975808620452881">
        <ele>150.5836181640625</ele>
        <time>2008-05-18T08:22:30Z</time>
      </trkpt>
      <trkpt lat="45.514898300170898" lon="8.974800109863281">
        <ele>150.5836181640625</ele>
        <time>2008-05-18T08:22:45Z</time>
      </trkpt>
      <trkpt lat="45.514404773712158" lon="8.973684310913086">
        <ele>150.5836181640625</ele>
        <time>2008-05-18T08:23:02Z</time>
      </trkpt>
      <trkpt lat="45.514082908630371" lon="8.972890377044678">
        <ele>150.5836181640625</ele>
        <time>2008-05-18T08:23:14Z</time>
      </trkpt>
      <trkpt lat="45.513718128204346" lon="8.972053527832031">
        <ele>151.064208984375</ele>
        <time>2008-05-18T08:23:27Z</time>
      </trkpt>
      <trkpt lat="45.513632297515869" lon="8.971860408782959">
        <ele>151.064208984375</ele>
        <time>2008-05-18T08:23:30Z</time>
      </trkpt>
      <trkpt lat="45.513675212860107" lon="8.971710205078125">
        <ele>152.0257568359375</ele>
        <time>2008-05-18T08:23:34Z</time>
      </trkpt>
      <trkpt lat="45.514447689056396" lon="8.971667289733887">
        <ele>152.50634765625</ele>
        <time>2008-05-18T08:23:57Z</time>
      </trkpt>
      <trkpt lat="45.514962673187256" lon="8.971624374389648">
        <ele>152.9869384765625</ele>
        <time>2008-05-18T08:24:08Z</time>
      </trkpt>
      <trkpt lat="45.515477657318115" lon="8.971388339996338">
        <ele>152.50634765625</ele>
        <time>2008-05-18T08:24:18Z</time>
      </trkpt>
      <trkpt lat="45.516142845153809" lon="8.970787525177002">
        <ele>153.4676513671875</ele>
        <time>2008-05-18T08:24:33Z</time>
      </trkpt>
      <trkpt lat="45.516722202301025" lon="8.970186710357666">
        <ele>154.428955078125</ele>
        <time>2008-05-18T08:24:46Z</time>
      </trkpt>
      <trkpt lat="45.517237186431885" lon="8.969650268554688">
        <ele>154.428955078125</ele>
        <time>2008-05-18T08:24:58Z</time>
      </trkpt>
      <trkpt lat="45.517301559448242" lon="8.969478607177734">
        <ele>155.3902587890625</ele>
        <time>2008-05-18T08:25:01Z</time>
      </trkpt>
      <trkpt lat="45.517215728759766" lon="8.969285488128662">
        <ele>155.3902587890625</ele>
        <time>2008-05-18T08:25:04Z</time>
      </trkpt>
      <trkpt lat="45.51710844039917" lon="8.969049453735352">
        <ele>154.9095458984375</ele>
        <time>2008-05-18T08:25:08Z</time>
      </trkpt>
      <trkpt lat="45.517022609710693" lon="8.968791961669922">
        <ele>154.9095458984375</ele>
        <time>2008-05-18T08:25:12Z</time>
      </trkpt>
      <trkpt lat="45.516765117645264" lon="8.968212604522705">
        <ele>153.9483642578125</ele>
        <time>2008-05-18T08:25:21Z</time>
      </trkpt>
      <trkpt lat="45.516357421875" lon="8.967268466949463">
        <ele>155.3902587890625</ele>
        <time>2008-05-18T08:25:35Z</time>
      </trkpt>
      <trkpt lat="45.516121387481689" lon="8.966667652130127">
        <ele>155.8709716796875</ele>
        <time>2008-05-18T08:25:46Z</time>
      </trkpt>
      <trkpt lat="45.515799522399902" lon="8.966023921966553">
        <ele>155.3902587890625</ele>
        <time>2008-05-18T08:25:58Z</time>
      </trkpt>
      <trkpt lat="45.515477657318115" lon="8.965401649475098">
        <ele>155.3902587890625</ele>
        <time>2008-05-18T08:26:10Z</time>
      </trkpt>
      <trkpt lat="45.515241622924805" lon="8.965551853179932">
        <ele>155.8709716796875</ele>
        <time>2008-05-18T08:26:17Z</time>
      </trkpt>
      <trkpt lat="45.51485538482666" lon="8.965938091278076">
        <ele>155.3902587890625</ele>
        <time>2008-05-18T08:26:28Z</time>
      </trkpt>
      <trkpt lat="45.514426231384277" lon="8.966324329376221">
        <ele>156.3515625</ele>
        <time>2008-05-18T08:26:40Z</time>
      </trkpt>
      <trkpt lat="45.514168739318848" lon="8.966538906097412">
        <ele>157.7935791015625</ele>
        <time>2008-05-18T08:26:49Z</time>
      </trkpt>
      <trkpt lat="45.513932704925537" lon="8.966732025146484">
        <ele>156.8321533203125</ele>
        <time>2008-05-18T08:26:56Z</time>
      </trkpt>
      <trkpt lat="45.513396263122559" lon="8.967225551605225">
        <ele>153.4676513671875</ele>
        <time>2008-05-18T08:27:11Z</time>
      </trkpt>
      <trkpt lat="45.513074398040771" lon="8.967611789703369">
        <ele>153.4676513671875</ele>
        <time>2008-05-18T08:27:22Z</time>
      </trkpt>
      <trkpt lat="45.513052940368652" lon="8.967654705047607">
        <ele>153.9483642578125</ele>
        <time>2008-05-18T08:27:23Z</time>
      </trkpt>
      <trkpt lat="45.51260232925415" lon="8.968105316162109">
        <ele>153.4676513671875</ele>
        <time>2008-05-18T08:27:37Z</time>
      </trkpt>
      <trkpt lat="45.512216091156006" lon="8.968405723571777">
        <ele>154.9095458984375</ele>
        <time>2008-05-18T08:27:49Z</time>
      </trkpt>
      <trkpt lat="45.512237548828125" lon="8.968513011932373">
        <ele>154.9095458984375</ele>
        <time>2008-05-18T08:27:54Z</time>
      </trkpt>
      <trkpt lat="45.51236629486084" lon="8.968770503997803">
        <ele>153.9483642578125</ele>
        <time>2008-05-18T08:28:01Z</time>
      </trkpt>
      <trkpt lat="45.512645244598389" lon="8.9693284034729">
        <ele>153.9483642578125</ele>
        <time>2008-05-18T08:28:12Z</time>
      </trkpt>
      <trkpt lat="45.512902736663818" lon="8.969929218292236">
        <ele>153.4676513671875</ele>
        <time>2008-05-18T08:28:23Z</time>
      </trkpt>
      <trkpt lat="45.513203144073486" lon="8.970615863800049">
        <ele>153.4676513671875</ele>
        <time>2008-05-18T08:28:35Z</time>
      </trkpt>
      <trkpt lat="45.513546466827393" lon="8.971431255340576">
        <ele>152.9869384765625</ele>
        <time>2008-05-18T08:28:50Z</time>
      </trkpt>
      <trkpt lat="45.513653755187988" lon="8.971774578094482">
        <ele>151.064208984375</ele>
        <time>2008-05-18T08:28:57Z</time>
      </trkpt>
      <trkpt lat="45.513267517089844" lon="8.971860408782959">
        <ele>148.6610107421875</ele>
        <time>2008-05-18T08:29:07Z</time>
      </trkpt>
      <trkpt lat="45.512816905975342" lon="8.971860408782959">
        <ele>149.622314453125</ele>
        <time>2008-05-18T08:29:17Z</time>
      </trkpt>
      <trkpt lat="45.512387752532959" lon="8.971903324127197">
        <ele>150.10302734375</ele>
        <time>2008-05-18T08:29:25Z</time>
      </trkpt>
      <trkpt lat="45.512237548828125" lon="8.971967697143555">
        <ele>151.064208984375</ele>
        <time>2008-05-18T08:29:28Z</time>
      </trkpt>
      <trkpt lat="45.512173175811768" lon="8.972010612487793">
        <ele>151.064208984375</ele>
        <time>2008-05-18T08:29:30Z</time>
      </trkpt>
      <trkpt lat="45.512151718139648" lon="8.972225189208984">
        <ele>151.064208984375</ele>
        <time>2008-05-18T08:29:34Z</time>
      </trkpt>
      <trkpt lat="45.512430667877197" lon="8.972933292388916">
        <ele>151.544921875</ele>
        <time>2008-05-18T08:29:47Z</time>
      </trkpt>
      <trkpt lat="45.512452125549316" lon="8.972997665405273">
        <ele>151.544921875</ele>
        <time>2008-05-18T08:29:48Z</time>
      </trkpt>
      <trkpt lat="45.512430667877197" lon="8.973276615142822">
        <ele>152.0257568359375</ele>
        <time>2008-05-18T08:29:53Z</time>
      </trkpt>
      <trkpt lat="45.512344837188721" lon="8.973362445831299">
        <ele>151.064208984375</ele>
        <time>2008-05-18T08:29:55Z</time>
      </trkpt>
      <trkpt lat="45.511915683746338" lon="8.973641395568848">
        <ele>150.5836181640625</ele>
        <time>2008-05-18T08:30:03Z</time>
      </trkpt>
      <trkpt lat="45.5118727684021" lon="8.973855972290039">
        <ele>150.5836181640625</ele>
        <time>2008-05-18T08:30:07Z</time>
      </trkpt>
      <trkpt lat="45.511894226074219" lon="8.973898887634277">
        <ele>150.5836181640625</ele>
        <time>2008-05-18T08:30:08Z</time>
      </trkpt>
      <trkpt lat="45.512151718139648" lon="8.974714279174805">
        <ele>150.5836181640625</ele>
        <time>2008-05-18T08:30:22Z</time>
      </trkpt>
      <trkpt lat="45.512409210205078" lon="8.975529670715332">
        <ele>150.10302734375</ele>
        <time>2008-05-18T08:30:36Z</time>
      </trkpt>
      <trkpt lat="45.512666702270508" lon="8.97632360458374">
        <ele>149.622314453125</ele>
        <time>2008-05-18T08:30:50Z</time>
      </trkpt>
      <trkpt lat="45.513052940368652" lon="8.977396488189697">
        <ele>149.1416015625</ele>
        <time>2008-05-18T08:31:09Z</time>
      </trkpt>
      <trkpt lat="45.513160228729248" lon="8.97782564163208">
        <ele>148.6610107421875</ele>
        <time>2008-05-18T08:31:18Z</time>
      </trkpt>
      <trkpt lat="45.513095855712891" lon="8.977890014648438">
        <ele>148.180419921875</ele>
        <time>2008-05-18T08:31:22Z</time>
      </trkpt>
      <trkpt lat="45.512731075286865" lon="8.978211879730225">
        <ele>149.622314453125</ele>
        <time>2008-05-18T08:31:33Z</time>
      </trkpt>
      <trkpt lat="45.51236629486084" lon="8.978533744812012">
        <ele>150.5836181640625</ele>
        <time>2008-05-18T08:31:44Z</time>
      </trkpt>
      <trkpt lat="45.512044429779053" lon="8.978812694549561">
        <ele>150.10302734375</ele>
        <time>2008-05-18T08:31:54Z</time>
      </trkpt>
      <trkpt lat="45.511722564697266" lon="8.979113101959229">
        <ele>150.5836181640625</ele>
        <time>2008-05-18T08:32:05Z</time>
      </trkpt>
      <trkpt lat="45.511465072631836" lon="8.97932767868042">
        <ele>150.5836181640625</ele>
        <time>2008-05-18T08:32:14Z</time>
      </trkpt>
      <trkpt lat="45.511271953582764" lon="8.979499340057373">
        <ele>149.622314453125</ele>
        <time>2008-05-18T08:32:21Z</time>
      </trkpt>
      <trkpt lat="45.511465072631836" lon="8.980121612548828">
        <ele>150.5836181640625</ele>
        <time>2008-05-18T08:32:35Z</time>
      </trkpt>
      <trkpt lat="45.511636734008789" lon="8.98057222366333">
        <ele>150.5836181640625</ele>
        <time>2008-05-18T08:32:44Z</time>
      </trkpt>
      <trkpt lat="45.512065887451172" lon="8.981430530548096">
        <ele>151.064208984375</ele>
        <time>2008-05-18T08:33:01Z</time>
      </trkpt>
      <trkpt lat="45.512323379516602" lon="8.981966972351074">
        <ele>151.544921875</ele>
        <time>2008-05-18T08:33:11Z</time>
      </trkpt>
      <trkpt lat="45.512645244598389" lon="8.982653617858887">
        <ele>151.064208984375</ele>
        <time>2008-05-18T08:33:25Z</time>
      </trkpt>
      <trkpt lat="45.512688159942627" lon="8.983104228973389">
        <ele>151.544921875</ele>
        <time>2008-05-18T08:33:34Z</time>
      </trkpt>
      <trkpt lat="45.512838363647461" lon="8.98381233215332">
        <ele>151.064208984375</ele>
        <time>2008-05-18T08:33:48Z</time>
      </trkpt>
      <trkpt lat="45.513052940368652" lon="8.984541893005371">
        <ele>150.5836181640625</ele>
        <time>2008-05-18T08:34:02Z</time>
      </trkpt>
      <trkpt lat="45.513396263122559" lon="8.985464572906494">
        <ele>150.5836181640625</ele>
        <time>2008-05-18T08:34:21Z</time>
      </trkpt>
      <trkpt lat="45.51361083984375" lon="8.985979557037354">
        <ele>150.10302734375</ele>
        <time>2008-05-18T08:34:32Z</time>
      </trkpt>
      <trkpt lat="45.514168739318848" lon="8.986301422119141">
        <ele>149.622314453125</ele>
        <time>2008-05-18T08:34:46Z</time>
      </trkpt>
      <trkpt lat="45.514082908630371" lon="8.986515998840332">
        <ele>151.064208984375</ele>
        <time>2008-05-18T08:34:50Z</time>
      </trkpt>
      <trkpt lat="45.513675212860107" lon="8.986902236938477">
        <ele>152.0257568359375</ele>
        <time>2008-05-18T08:35:00Z</time>
      </trkpt>
      <trkpt lat="45.512838363647461" lon="8.987631797790527">
        <ele>151.544921875</ele>
        <time>2008-05-18T08:35:18Z</time>
      </trkpt>
      <trkpt lat="45.512216091156006" lon="8.988168239593506">
        <ele>149.1416015625</ele>
        <time>2008-05-18T08:35:29Z</time>
      </trkpt>
      <trkpt lat="45.511808395385742" lon="8.98857593536377">
        <ele>149.1416015625</ele>
        <time>2008-05-18T08:35:37Z</time>
      </trkpt>
      <trkpt lat="45.511679649353027" lon="8.988876342773438">
        <ele>149.622314453125</ele>
        <time>2008-05-18T08:35:42Z</time>
      </trkpt>
      <trkpt lat="45.511786937713623" lon="8.989112377166748">
        <ele>149.622314453125</ele>
        <time>2008-05-18T08:35:46Z</time>
      </trkpt>
      <trkpt lat="45.512065887451172" lon="8.989734649658203">
        <ele>149.622314453125</ele>
        <time>2008-05-18T08:35:56Z</time>
      </trkpt>
      <trkpt lat="45.512301921844482" lon="8.990271091461182">
        <ele>149.622314453125</ele>
        <time>2008-05-18T08:36:05Z</time>
      </trkpt>
      <trkpt lat="45.512516498565674" lon="8.990786075592041">
        <ele>150.10302734375</ele>
        <time>2008-05-18T08:36:15Z</time>
      </trkpt>
      <trkpt lat="45.512731075286865" lon="8.991343975067139">
        <ele>150.10302734375</ele>
        <time>2008-05-18T08:36:26Z</time>
      </trkpt>
      <trkpt lat="45.512988567352295" lon="8.991987705230713">
        <ele>150.10302734375</ele>
        <time>2008-05-18T08:36:37Z</time>
      </trkpt>
      <trkpt lat="45.513052940368652" lon="8.992159366607666">
        <ele>150.10302734375</ele>
        <time>2008-05-18T08:36:40Z</time>
      </trkpt>
      <trkpt lat="45.513310432434082" lon="8.9923095703125">
        <ele>149.622314453125</ele>
        <time>2008-05-18T08:36:47Z</time>
      </trkpt>
      <trkpt lat="45.513482093811035" lon="8.992502689361572">
        <ele>149.622314453125</ele>
        <time>2008-05-18T08:36:53Z</time>
      </trkpt>
      <trkpt lat="45.513632297515869" lon="8.992910385131836">
        <ele>149.1416015625</ele>
        <time>2008-05-18T08:37:02Z</time>
      </trkpt>
      <trkpt lat="45.513803958892822" lon="8.993875980377197">
        <ele>149.1416015625</ele>
        <time>2008-05-18T08:37:19Z</time>
      </trkpt>
      <trkpt lat="45.513932704925537" lon="8.994541168212891">
        <ele>148.6610107421875</ele>
        <time>2008-05-18T08:37:32Z</time>
      </trkpt>
      <trkpt lat="45.514233112335205" lon="8.994991779327393">
        <ele>148.6610107421875</ele>
        <time>2008-05-18T08:37:46Z</time>
      </trkpt>
      <trkpt lat="45.514962673187256" lon="8.994584083557129">
        <ele>148.6610107421875</ele>
        <time>2008-05-18T08:37:55Z</time>
      </trkpt>
      <trkpt lat="45.515735149383545" lon="8.994498252868652">
        <ele>148.6610107421875</ele>
        <time>2008-05-18T08:38:14Z</time>
      </trkpt>
      <trkpt lat="45.516142845153809" lon="8.994283676147461">
        <ele>149.1416015625</ele>
        <time>2008-05-18T08:38:24Z</time>
      </trkpt>
      <trkpt lat="45.516743659973145" lon="8.99406909942627">
        <ele>149.622314453125</ele>
        <time>2008-05-18T08:38:39Z</time>
      </trkpt>
      <trkpt lat="45.517022609710693" lon="8.993897438049316">
        <ele>149.622314453125</ele>
        <time>2008-05-18T08:38:48Z</time>
      </trkpt>
      <trkpt lat="45.517086982727051" lon="8.993961811065674">
        <ele>149.622314453125</ele>
        <time>2008-05-18T08:38:50Z</time>
      </trkpt>
      <trkpt lat="45.517301559448242" lon="8.99381160736084">
        <ele>150.10302734375</ele>
        <time>2008-05-18T08:38:58Z</time>
      </trkpt>
      <trkpt lat="45.517644882202148" lon="8.993468284606934">
        <ele>151.064208984375</ele>
        <time>2008-05-18T08:39:08Z</time>
      </trkpt>
      <trkpt lat="45.517880916595459" lon="8.993189334869385">
        <ele>151.544921875</ele>
        <time>2008-05-18T08:39:15Z</time>
      </trkpt>
      <trkpt lat="45.518031120300293" lon="8.993275165557861">
        <ele>151.544921875</ele>
        <time>2008-05-18T08:39:20Z</time>
      </trkpt>
      <trkpt lat="45.518310070037842" lon="8.993725776672363">
        <ele>152.9869384765625</ele>
        <time>2008-05-18T08:39:32Z</time>
      </trkpt>
      <trkpt lat="45.518653392791748" lon="8.994219303131104">
        <ele>153.4676513671875</ele>
        <time>2008-05-18T08:39:46Z</time>
      </trkpt>
      <trkpt lat="45.518889427185059" lon="8.994519710540772">
        <ele>153.4676513671875</ele>
        <time>2008-05-18T08:39:55Z</time>
      </trkpt>
      <trkpt lat="45.519168376922607" lon="8.994948863983154">
        <ele>152.50634765625</ele>
        <time>2008-05-18T08:40:05Z</time>
      </trkpt>
      <trkpt lat="45.519382953643799" lon="8.994927406311035">
        <ele>152.50634765625</ele>
        <time>2008-05-18T08:40:10Z</time>
      </trkpt>
      <trkpt lat="45.519554615020752" lon="8.994884490966797">
        <ele>152.50634765625</ele>
        <time>2008-05-18T08:40:14Z</time>
      </trkpt>
      <trkpt lat="45.519683361053467" lon="8.995013236999512">
        <ele>152.50634765625</ele>
        <time>2008-05-18T08:40:18Z</time>
      </trkpt>
      <trkpt lat="45.52011251449585" lon="8.995721340179443">
        <ele>152.0257568359375</ele>
        <time>2008-05-18T08:40:34Z</time>
      </trkpt>
      <trkpt lat="45.520176887512207" lon="8.99580717086792">
        <ele>152.0257568359375</ele>
        <time>2008-05-18T08:40:36Z</time>
      </trkpt>
      <trkpt lat="45.520284175872803" lon="8.995978832244873">
        <ele>152.50634765625</ele>
        <time>2008-05-18T08:40:40Z</time>
      </trkpt>
      <trkpt lat="45.520412921905518" lon="8.996279239654541">
        <ele>152.50634765625</ele>
        <time>2008-05-18T08:40:46Z</time>
      </trkpt>
      <trkpt lat="45.520455837249756" lon="8.996601104736328">
        <ele>152.9869384765625</ele>
        <time>2008-05-18T08:40:51Z</time>
      </trkpt>
      <trkpt lat="45.520520210266113" lon="8.996837139129639">
        <ele>152.9869384765625</ele>
        <time>2008-05-18T08:40:55Z</time>
      </trkpt>
      <trkpt lat="45.520584583282471" lon="8.996922969818115">
        <ele>153.4676513671875</ele>
        <time>2008-05-18T08:40:57Z</time>
      </trkpt>
      <trkpt lat="45.520756244659424" lon="8.997459411621094">
        <ele>153.9483642578125</ele>
        <time>2008-05-18T08:41:05Z</time>
      </trkpt>
      <trkpt lat="45.520992279052734" lon="8.99829626083374">
        <ele>153.9483642578125</ele>
        <time>2008-05-18T08:41:15Z</time>
      </trkpt>
      <trkpt lat="45.521271228790283" lon="8.999218940734863">
        <ele>153.9483642578125</ele>
        <time>2008-05-18T08:41:26Z</time>
      </trkpt>
      <trkpt lat="45.521550178527832" lon="8.999691009521484">
        <ele>153.9483642578125</ele>
        <time>2008-05-18T08:41:33Z</time>
      </trkpt>
      <trkpt lat="45.521957874298096" lon="9.000141620635986">
        <ele>150.5836181640625</ele>
        <time>2008-05-18T08:41:40Z</time>
      </trkpt>
      <trkpt lat="45.522558689117432" lon="9.000763893127441">
        <ele>146.2578125</ele>
        <time>2008-05-18T08:41:48Z</time>
      </trkpt>
      <trkpt lat="45.52283763885498" lon="9.001085758209229">
        <ele>148.180419921875</ele>
        <time>2008-05-18T08:41:53Z</time>
      </trkpt>
      <trkpt lat="45.522923469543457" lon="9.001193046569824">
        <ele>148.6610107421875</ele>
        <time>2008-05-18T08:41:55Z</time>
      </trkpt>
      <trkpt lat="45.522923469543457" lon="9.001493453979492">
        <ele>149.1416015625</ele>
        <time>2008-05-18T08:41:59Z</time>
      </trkpt>
      <trkpt lat="45.522730350494385" lon="9.001686573028565">
        <ele>149.622314453125</ele>
        <time>2008-05-18T08:42:03Z</time>
      </trkpt>
      <trkpt lat="45.522322654724121" lon="9.001986980438232">
        <ele>152.0257568359375</ele>
        <time>2008-05-18T08:42:12Z</time>
      </trkpt>
      <trkpt lat="45.522258281707764" lon="9.001922607421875">
        <ele>152.0257568359375</ele>
        <time>2008-05-18T08:42:16Z</time>
      </trkpt>
      <trkpt lat="45.52234411239624" lon="9.001858234405518">
        <ele>152.50634765625</ele>
        <time>2008-05-18T08:42:20Z</time>
      </trkpt>
      <trkpt lat="45.522537231445313" lon="9.001643657684326">
        <ele>152.50634765625</ele>
        <time>2008-05-18T08:42:24Z</time>
      </trkpt>
      <trkpt lat="45.522558689117432" lon="9.001386165618897">
        <ele>151.064208984375</ele>
        <time>2008-05-18T08:42:28Z</time>
      </trkpt>
      <trkpt lat="45.522515773773193" lon="9.001343250274658">
        <ele>151.064208984375</ele>
        <time>2008-05-18T08:42:29Z</time>
      </trkpt>
      <trkpt lat="45.522472858428955" lon="9.000957012176514">
        <ele>152.0257568359375</ele>
        <time>2008-05-18T08:42:34Z</time>
      </trkpt>
      <trkpt lat="45.522558689117432" lon="9.00080680847168">
        <ele>152.0257568359375</ele>
        <time>2008-05-18T08:42:36Z</time>
      </trkpt>
      <trkpt lat="45.522923469543457" lon="9.000205993652344">
        <ele>151.544921875</ele>
        <time>2008-05-18T08:42:45Z</time>
      </trkpt>
      <trkpt lat="45.523309707641602" lon="8.999862670898438">
        <ele>152.0257568359375</ele>
        <time>2008-05-18T08:42:53Z</time>
      </trkpt>
      <trkpt lat="45.523374080657959" lon="8.999841213226318">
        <ele>152.0257568359375</ele>
        <time>2008-05-18T08:42:54Z</time>
      </trkpt>
      <trkpt lat="45.523996353149414" lon="8.999519348144531">
        <ele>153.9483642578125</ele>
        <time>2008-05-18T08:43:06Z</time>
      </trkpt>
      <trkpt lat="45.52410364151001" lon="8.999433517456055">
        <ele>153.9483642578125</ele>
        <time>2008-05-18T08:43:08Z</time>
      </trkpt>
      <trkpt lat="45.52459716796875" lon="8.998939990997315">
        <ele>153.4676513671875</ele>
        <time>2008-05-18T08:43:19Z</time>
      </trkpt>
      <trkpt lat="45.524682998657227" lon="8.998854160308838">
        <ele>153.4676513671875</ele>
        <time>2008-05-18T08:43:21Z</time>
      </trkpt>
      <trkpt lat="45.524919033050537" lon="8.998661041259766">
        <ele>153.9483642578125</ele>
        <time>2008-05-18T08:43:26Z</time>
      </trkpt>
      <trkpt lat="45.525155067443848" lon="8.998339176177979">
        <ele>154.428955078125</ele>
        <time>2008-05-18T08:43:32Z</time>
      </trkpt>
      <trkpt lat="45.525519847869873" lon="8.997888565063477">
        <ele>154.428955078125</ele>
        <time>2008-05-18T08:43:41Z</time>
      </trkpt>
      <trkpt lat="45.525734424591064" lon="8.997867107391357">
        <ele>154.428955078125</ele>
        <time>2008-05-18T08:43:46Z</time>
      </trkpt>
      <trkpt lat="45.525820255279541" lon="8.998124599456787">
        <ele>154.428955078125</ele>
        <time>2008-05-18T08:43:50Z</time>
      </trkpt>
      <trkpt lat="45.525734424591064" lon="8.998253345489502">
        <ele>154.9095458984375</ele>
        <time>2008-05-18T08:43:53Z</time>
      </trkpt>
      <trkpt lat="45.525326728820801" lon="8.998703956604004">
        <ele>154.9095458984375</ele>
        <time>2008-05-18T08:44:02Z</time>
      </trkpt>
    </trkseg>
  </trk>

  <trk>
    <name>2 giro</name>
    <trkseg>
      <trkpt lat="45.525026321411133" lon="8.999068737030029">
        <ele>155.3902587890625</ele>
        <time>2008-05-18T08:44:09Z</time>
      </trkpt>
      <trkpt lat="45.524919033050537" lon="8.999412059783936">
        <ele>155.8709716796875</ele>
        <time>2008-05-18T08:44:14Z</time>
      </trkpt>
      <trkpt lat="45.524897575378418" lon="8.99954080581665">
        <ele>155.8709716796875</ele>
        <time>2008-05-18T08:44:16Z</time>
      </trkpt>
      <trkpt lat="45.524768829345703" lon="8.999454975128174">
        <ele>155.3902587890625</ele>
        <time>2008-05-18T08:44:20Z</time>
      </trkpt>
      <trkpt lat="45.524575710296631" lon="8.999218940734863">
        <ele>153.9483642578125</ele>
        <time>2008-05-18T08:44:25Z</time>
      </trkpt>
      <trkpt lat="45.524425506591797" lon="8.999326229095459">
        <ele>153.9483642578125</ele>
        <time>2008-05-18T08:44:28Z</time>
      </trkpt>
      <trkpt lat="45.524017810821533" lon="9.000012874603272">
        <ele>154.428955078125</ele>
        <time>2008-05-18T08:44:38Z</time>
      </trkpt>
      <trkpt lat="45.523545742034912" lon="9.000678062438965">
        <ele>152.9869384765625</ele>
        <time>2008-05-18T08:44:48Z</time>
      </trkpt>
      <trkpt lat="45.523266792297363" lon="9.001021385192871">
        <ele>151.064208984375</ele>
        <time>2008-05-18T08:44:53Z</time>
      </trkpt>
      <trkpt lat="45.522944927215576" lon="9.00104284286499">
        <ele>150.5836181640625</ele>
        <time>2008-05-18T08:44:57Z</time>
      </trkpt>
      <trkpt lat="45.522751808166504" lon="9.000892639160156">
        <ele>149.1416015625</ele>
        <time>2008-05-18T08:45:00Z</time>
      </trkpt>
      <trkpt lat="45.522129535675049" lon="9.000205993652344">
        <ele>145.777099609375</ele>
        <time>2008-05-18T08:45:09Z</time>
      </trkpt>
      <trkpt lat="45.521700382232666" lon="8.999755382537842">
        <ele>150.5836181640625</ele>
        <time>2008-05-18T08:45:16Z</time>
      </trkpt>
      <trkpt lat="45.521378517150879" lon="8.999369144439697">
        <ele>152.0257568359375</ele>
        <time>2008-05-18T08:45:23Z</time>
      </trkpt>
      <trkpt lat="45.521249771118164" lon="8.998939990997315">
        <ele>152.9869384765625</ele>
        <time>2008-05-18T08:45:28Z</time>
      </trkpt>
      <trkpt lat="45.520992279052734" lon="8.998038768768311">
        <ele>153.4676513671875</ele>
        <time>2008-05-18T08:45:38Z</time>
      </trkpt>
      <trkpt lat="45.520756244659424" lon="8.997094631195068">
        <ele>154.428955078125</ele>
        <time>2008-05-18T08:45:49Z</time>
      </trkpt>
      <trkpt lat="45.520734786987305" lon="8.997008800506592">
        <ele>154.428955078125</ele>
        <time>2008-05-18T08:45:50Z</time>
      </trkpt>
      <trkpt lat="45.520820617675781" lon="8.996601104736328">
        <ele>154.428955078125</ele>
        <time>2008-05-18T08:45:55Z</time>
      </trkpt>
      <trkpt lat="45.521013736724854" lon="8.996365070343018">
        <ele>153.9483642578125</ele>
        <time>2008-05-18T08:45:59Z</time>
      </trkpt>
      <trkpt lat="45.521678924560547" lon="8.995893001556397">
        <ele>154.428955078125</ele>
        <time>2008-05-18T08:46:11Z</time>
      </trkpt>
      <trkpt lat="45.521764755249023" lon="8.995785713195801">
        <ele>154.428955078125</ele>
        <time>2008-05-18T08:46:13Z</time>
      </trkpt>
      <trkpt lat="45.52234411239624" lon="8.995378017425537">
        <ele>154.428955078125</ele>
        <time>2008-05-18T08:46:24Z</time>
      </trkpt>
      <trkpt lat="45.522451400756836" lon="8.995292186737061">
        <ele>154.428955078125</ele>
        <time>2008-05-18T08:46:26Z</time>
      </trkpt>
      <trkpt lat="45.522558689117432" lon="8.995099067687988">
        <ele>154.428955078125</ele>
        <time>2008-05-18T08:46:30Z</time>
      </trkpt>
      <trkpt lat="45.522472858428955" lon="8.994863033294678">
        <ele>154.428955078125</ele>
        <time>2008-05-18T08:46:34Z</time>
      </trkpt>
      <trkpt lat="45.522000789642334" lon="8.994026184082031">
        <ele>155.3902587890625</ele>
        <time>2008-05-18T08:46:46Z</time>
      </trkpt>
      <trkpt lat="45.521550178527832" lon="8.993167877197266">
        <ele>154.428955078125</ele>
        <time>2008-05-18T08:46:59Z</time>
      </trkpt>
      <trkpt lat="45.521121025085449" lon="8.992652893066406">
        <ele>155.3902587890625</ele>
        <time>2008-05-18T08:47:09Z</time>
      </trkpt>
      <trkpt lat="45.52060604095459" lon="8.99205207824707">
        <ele>156.3515625</ele>
        <time>2008-05-18T08:47:22Z</time>
      </trkpt>
      <trkpt lat="45.520305633544922" lon="8.991429805755615">
        <ele>156.8321533203125</ele>
        <time>2008-05-18T08:47:33Z</time>
      </trkpt>
      <trkpt lat="45.519940853118896" lon="8.990335464477539">
        <ele>157.7935791015625</ele>
        <time>2008-05-18T08:47:50Z</time>
      </trkpt>
      <trkpt lat="45.519897937774658" lon="8.990120887756348">
        <ele>157.7935791015625</ele>
        <time>2008-05-18T08:47:53Z</time>
      </trkpt>
      <trkpt lat="45.51959753036499" lon="8.989605903625488">
        <ele>157.3128662109375</ele>
        <time>2008-05-18T08:48:02Z</time>
      </trkpt>
      <trkpt lat="45.519254207611084" lon="8.98906946182251">
        <ele>157.3128662109375</ele>
        <time>2008-05-18T08:48:12Z</time>
      </trkpt>
      <trkpt lat="45.518953800201416" lon="8.988597393035889">
        <ele>157.7935791015625</ele>
        <time>2008-05-18T08:48:21Z</time>
      </trkpt>
      <trkpt lat="45.518803596496582" lon="8.988232612609863">
        <ele>157.7935791015625</ele>
        <time>2008-05-18T08:48:27Z</time>
      </trkpt>
      <trkpt lat="45.518631935119629" lon="8.987545967102051">
        <ele>157.3128662109375</ele>
        <time>2008-05-18T08:48:38Z</time>
      </trkpt>
      <trkpt lat="45.51835298538208" lon="8.986880779266357">
        <ele>156.8321533203125</ele>
        <time>2008-05-18T08:48:50Z</time>
      </trkpt>
      <trkpt lat="45.518202781677246" lon="8.986451625823975">
        <ele>156.8321533203125</ele>
        <time>2008-05-18T08:48:58Z</time>
      </trkpt>
      <trkpt lat="45.518288612365723" lon="8.986301422119141">
        <ele>157.3128662109375</ele>
        <time>2008-05-18T08:49:02Z</time>
      </trkpt>
      <trkpt lat="45.518331527709961" lon="8.98606538772583">
        <ele>157.7935791015625</ele>
        <time>2008-05-18T08:49:06Z</time>
      </trkpt>
      <trkpt lat="45.518310070037842" lon="8.985872268676758">
        <ele>158.274169921875</ele>
        <time>2008-05-18T08:49:10Z</time>
      </trkpt>
      <trkpt lat="45.518310070037842" lon="8.985850811004639">
        <ele>158.274169921875</ele>
        <time>2008-05-18T08:49:11Z</time>
      </trkpt>
      <trkpt lat="45.518438816070557" lon="8.985722064971924">
        <ele>158.274169921875</ele>
        <time>2008-05-18T08:49:15Z</time>
      </trkpt>
      <trkpt lat="45.518417358398437" lon="8.985528945922852">
        <ele>159.7161865234375</ele>
        <time>2008-05-18T08:49:19Z</time>
      </trkpt>
      <trkpt lat="45.518331527709961" lon="8.985464572906494">
        <ele>159.2354736328125</ele>
        <time>2008-05-18T08:49:21Z</time>
      </trkpt>
      <trkpt lat="45.518245697021484" lon="8.985378742218018">
        <ele>159.2354736328125</ele>
        <time>2008-05-18T08:49:23Z</time>
      </trkpt>
      <trkpt lat="45.517838001251221" lon="8.98482084274292">
        <ele>158.274169921875</ele>
        <time>2008-05-18T08:49:33Z</time>
      </trkpt>
      <trkpt lat="45.517473220825195" lon="8.984241485595703">
        <ele>156.8321533203125</ele>
        <time>2008-05-18T08:49:43Z</time>
      </trkpt>
      <trkpt lat="45.517151355743408" lon="8.98381233215332">
        <ele>155.8709716796875</ele>
        <time>2008-05-18T08:49:51Z</time>
      </trkpt>
      <trkpt lat="45.517065525054932" lon="8.983726501464844">
        <ele>155.8709716796875</ele>
        <time>2008-05-18T08:49:53Z</time>
      </trkpt>
      <trkpt lat="45.516979694366455" lon="8.983426094055176">
        <ele>155.8709716796875</ele>
        <time>2008-05-18T08:49:57Z</time>
      </trkpt>
      <trkpt lat="45.517065525054932" lon="8.98308277130127">
        <ele>155.8709716796875</ele>
        <time>2008-05-18T08:50:01Z</time>
      </trkpt>
      <trkpt lat="45.517151355743408" lon="8.982932567596436">
        <ele>156.3515625</ele>
        <time>2008-05-18T08:50:03Z</time>
      </trkpt>
      <trkpt lat="45.517988204956055" lon="8.981945514678955">
        <ele>157.3128662109375</ele>
        <time>2008-05-18T08:50:20Z</time>
      </trkpt>
      <trkpt lat="45.518031120300293" lon="8.981881141662598">
        <ele>156.8321533203125</ele>
        <time>2008-05-18T08:50:21Z</time>
      </trkpt>
      <trkpt lat="45.518267154693604" lon="8.981902599334717">
        <ele>157.3128662109375</ele>
        <time>2008-05-18T08:50:25Z</time>
      </trkpt>
      <trkpt lat="45.51835298538208" lon="8.982052803039551">
        <ele>156.8321533203125</ele>
        <time>2008-05-18T08:50:27Z</time>
      </trkpt>
      <trkpt lat="45.518503189086914" lon="8.982245922088623">
        <ele>156.8321533203125</ele>
        <time>2008-05-18T08:50:31Z</time>
      </trkpt>
      <trkpt lat="45.518889427185059" lon="8.981988430023193">
        <ele>156.8321533203125</ele>
        <time>2008-05-18T08:50:38Z</time>
      </trkpt>
      <trkpt lat="45.519468784332275" lon="8.981387615203857">
        <ele>156.3515625</ele>
        <time>2008-05-18T08:50:50Z</time>
      </trkpt>
      <trkpt lat="45.519704818725586" lon="8.981151580810547">
        <ele>158.7547607421875</ele>
        <time>2008-05-18T08:50:55Z</time>
      </trkpt>
      <trkpt lat="45.519919395446777" lon="8.981344699859619">
        <ele>157.7935791015625</ele>
        <time>2008-05-18T08:51:01Z</time>
      </trkpt>
      <trkpt lat="45.52011251449585" lon="8.981409072875977">
        <ele>157.3128662109375</ele>
        <time>2008-05-18T08:51:05Z</time>
      </trkpt>
      <trkpt lat="45.520133972167969" lon="8.981387615203857">
        <ele>157.3128662109375</ele>
        <time>2008-05-18T08:51:06Z</time>
      </trkpt>
      <trkpt lat="45.520648956298828" lon="8.980937004089356">
        <ele>156.3515625</ele>
        <time>2008-05-18T08:51:17Z</time>
      </trkpt>
      <trkpt lat="45.5208420753479" lon="8.980808258056641">
        <ele>156.3515625</ele>
        <time>2008-05-18T08:51:21Z</time>
      </trkpt>
      <trkpt lat="45.520927906036377" lon="8.980808258056641">
        <ele>156.3515625</ele>
        <time>2008-05-18T08:51:23Z</time>
      </trkpt>
      <trkpt lat="45.521056652069092" lon="8.981044292449951">
        <ele>155.3902587890625</ele>
        <time>2008-05-18T08:51:28Z</time>
      </trkpt>
      <trkpt lat="45.521206855773926" lon="8.981130123138428">
        <ele>155.3902587890625</ele>
        <time>2008-05-18T08:51:33Z</time>
      </trkpt>
      <trkpt lat="45.521421432495117" lon="8.981001377105713">
        <ele>155.3902587890625</ele>
        <time>2008-05-18T08:51:38Z</time>
      </trkpt>
      <trkpt lat="45.521571636199951" lon="8.980915546417236">
        <ele>155.3902587890625</ele>
        <time>2008-05-18T08:51:41Z</time>
      </trkpt>
      <trkpt lat="45.521807670593262" lon="8.98082971572876">
        <ele>155.3902587890625</ele>
        <time>2008-05-18T08:51:46Z</time>
      </trkpt>
      <trkpt lat="45.522623062133789" lon="8.980915546417236">
        <ele>153.4676513671875</ele>
        <time>2008-05-18T08:52:06Z</time>
      </trkpt>
      <trkpt lat="45.522708892822266" lon="8.981044292449951">
        <ele>153.4676513671875</ele>
        <time>2008-05-18T08:52:10Z</time>
      </trkpt>
      <trkpt lat="45.523009300231934" lon="8.9813232421875">
        <ele>153.4676513671875</ele>
        <time>2008-05-18T08:52:16Z</time>
      </trkpt>
      <trkpt lat="45.523159503936768" lon="8.981451988220215">
        <ele>153.4676513671875</ele>
        <time>2008-05-18T08:52:19Z</time>
      </trkpt>
      <trkpt lat="45.523395538330078" lon="8.981881141662598">
        <ele>153.9483642578125</ele>
        <time>2008-05-18T08:52:27Z</time>
      </trkpt>
      <trkpt lat="45.52361011505127" lon="8.982353210449219">
        <ele>154.9095458984375</ele>
        <time>2008-05-18T08:52:35Z</time>
      </trkpt>
      <trkpt lat="45.523717403411865" lon="8.982353210449219">
        <ele>154.9095458984375</ele>
        <time>2008-05-18T08:52:38Z</time>
      </trkpt>
      <trkpt lat="45.523781776428223" lon="8.982288837432861">
        <ele>155.3902587890625</ele>
        <time>2008-05-18T08:52:40Z</time>
      </trkpt>
      <trkpt lat="45.52384614944458" lon="8.982288837432861">
        <ele>155.3902587890625</ele>
        <time>2008-05-18T08:52:42Z</time>
      </trkpt>
      <trkpt lat="45.523931980133057" lon="8.982481956481934">
        <ele>155.3902587890625</ele>
        <time>2008-05-18T08:52:46Z</time>
      </trkpt>
      <trkpt lat="45.524060726165771" lon="8.982653617858887">
        <ele>155.3902587890625</ele>
        <time>2008-05-18T08:52:50Z</time>
      </trkpt>
      <trkpt lat="45.524361133575439" lon="8.983018398284912">
        <ele>154.9095458984375</ele>
        <time>2008-05-18T08:52:59Z</time>
      </trkpt>
      <trkpt lat="45.524446964263916" lon="8.983018398284912">
        <ele>154.428955078125</ele>
        <time>2008-05-18T08:53:01Z</time>
      </trkpt>
      <trkpt lat="45.52459716796875" lon="8.982911109924316">
        <ele>154.428955078125</ele>
        <time>2008-05-18T08:53:04Z</time>
      </trkpt>
      <trkpt lat="45.525004863739014" lon="8.982589244842529">
        <ele>153.9483642578125</ele>
        <time>2008-05-18T08:53:14Z</time>
      </trkpt>
      <trkpt lat="45.525455474853516" lon="8.982203006744385">
        <ele>154.428955078125</ele>
        <time>2008-05-18T08:53:25Z</time>
      </trkpt>
      <trkpt lat="45.525863170623779" lon="8.981859683990479">
        <ele>154.9095458984375</ele>
        <time>2008-05-18T08:53:36Z</time>
      </trkpt>
      <trkpt lat="45.525798797607422" lon="8.981623649597168">
        <ele>154.9095458984375</ele>
        <time>2008-05-18T08:53:40Z</time>
      </trkpt>
      <trkpt lat="45.525541305541992" lon="8.980958461761475">
        <ele>155.3902587890625</ele>
        <time>2008-05-18T08:53:50Z</time>
      </trkpt>
      <trkpt lat="45.525240898132324" lon="8.980207443237305">
        <ele>155.8709716796875</ele>
        <time>2008-05-18T08:54:01Z</time>
      </trkpt>
      <trkpt lat="45.524897575378418" lon="8.979220390319824">
        <ele>159.7161865234375</ele>
        <time>2008-05-18T08:54:15Z</time>
      </trkpt>
      <trkpt lat="45.524575710296631" lon="8.978362083435059">
        <ele>158.7547607421875</ele>
        <time>2008-05-18T08:54:28Z</time>
      </trkpt>
      <trkpt lat="45.524446964263916" lon="8.978040218353272">
        <ele>158.274169921875</ele>
        <time>2008-05-18T08:54:33Z</time>
      </trkpt>
      <trkpt lat="45.524489879608154" lon="8.977847099304199">
        <ele>158.274169921875</ele>
        <time>2008-05-18T08:54:37Z</time>
      </trkpt>
      <trkpt lat="45.524747371673584" lon="8.977632522583008">
        <ele>157.3128662109375</ele>
        <time>2008-05-18T08:54:44Z</time>
      </trkpt>
      <trkpt lat="45.525391101837158" lon="8.977096080780029">
        <ele>157.3128662109375</ele>
        <time>2008-05-18T08:54:59Z</time>
      </trkpt>
      <trkpt lat="45.525991916656494" lon="8.976624011993408">
        <ele>157.3128662109375</ele>
        <time>2008-05-18T08:55:13Z</time>
      </trkpt>
      <trkpt lat="45.526077747344971" lon="8.976559638977051">
        <ele>157.3128662109375</ele>
        <time>2008-05-18T08:55:15Z</time>
      </trkpt>
      <trkpt lat="45.526399612426758" lon="8.976216316223145">
        <ele>157.3128662109375</ele>
        <time>2008-05-18T08:55:25Z</time>
      </trkpt>
      <trkpt lat="45.526742935180664" lon="8.975787162780762">
        <ele>157.3128662109375</ele>
        <time>2008-05-18T08:55:37Z</time>
      </trkpt>
      <trkpt lat="45.526914596557617" lon="8.97559404373169">
        <ele>157.3128662109375</ele>
        <time>2008-05-18T08:55:43Z</time>
      </trkpt>
      <trkpt lat="45.526914596557617" lon="8.975443840026856">
        <ele>157.7935791015625</ele>
        <time>2008-05-18T08:55:47Z</time>
      </trkpt>
      <trkpt lat="45.526700019836426" lon="8.975143432617188">
        <ele>158.274169921875</ele>
        <time>2008-05-18T08:55:55Z</time>
      </trkpt>
      <trkpt lat="45.526292324066162" lon="8.974521160125732">
        <ele>158.274169921875</ele>
        <time>2008-05-18T08:56:10Z</time>
      </trkpt>
      <trkpt lat="45.526227951049805" lon="8.974478244781494">
        <ele>158.274169921875</ele>
        <time>2008-05-18T08:56:12Z</time>
      </trkpt>
      <trkpt lat="45.526013374328613" lon="8.974692821502686">
        <ele>158.7547607421875</ele>
        <time>2008-05-18T08:56:19Z</time>
      </trkpt>
      <trkpt lat="45.525648593902588" lon="8.975036144256592">
        <ele>158.7547607421875</ele>
        <time>2008-05-18T08:56:30Z</time>
      </trkpt>
      <trkpt lat="45.52534818649292" lon="8.975315093994141">
        <ele>160.677490234375</ele>
        <time>2008-05-18T08:56:39Z</time>
      </trkpt>
      <trkpt lat="45.524919033050537" lon="8.975701332092285">
        <ele>161.158203125</ele>
        <time>2008-05-18T08:56:50Z</time>
      </trkpt>
      <trkpt lat="45.524554252624512" lon="8.976044654846191">
        <ele>160.677490234375</ele>
        <time>2008-05-18T08:57:00Z</time>
      </trkpt>
      <trkpt lat="45.524168014526367" lon="8.976366519927979">
        <ele>158.7547607421875</ele>
        <time>2008-05-18T08:57:10Z</time>
      </trkpt>
      <trkpt lat="45.523781776428223" lon="8.976709842681885">
        <ele>157.7935791015625</ele>
        <time>2008-05-18T08:57:20Z</time>
      </trkpt>
      <trkpt lat="45.523331165313721" lon="8.977096080780029">
        <ele>158.274169921875</ele>
        <time>2008-05-18T08:57:30Z</time>
      </trkpt>
      <trkpt lat="45.52283763885498" lon="8.977546691894531">
        <ele>157.3128662109375</ele>
        <time>2008-05-18T08:57:41Z</time>
      </trkpt>
      <trkpt lat="45.522322654724121" lon="8.978018760681152">
        <ele>158.274169921875</ele>
        <time>2008-05-18T08:57:53Z</time>
      </trkpt>
      <trkpt lat="45.521743297576904" lon="8.978512287139893">
        <ele>155.8709716796875</ele>
        <time>2008-05-18T08:58:06Z</time>
      </trkpt>
      <trkpt lat="45.521228313446045" lon="8.978877067565918">
        <ele>152.9869384765625</ele>
        <time>2008-05-18T08:58:19Z</time>
      </trkpt>
      <trkpt lat="45.520777702331543" lon="8.979263305664063">
        <ele>152.9869384765625</ele>
        <time>2008-05-18T08:58:31Z</time>
      </trkpt>
      <trkpt lat="45.520412921905518" lon="8.97958517074585">
        <ele>152.9869384765625</ele>
        <time>2008-05-18T08:58:39Z</time>
      </trkpt>
      <trkpt lat="45.519769191741943" lon="8.980014324188232">
        <ele>152.9869384765625</ele>
        <time>2008-05-18T08:58:52Z</time>
      </trkpt>
      <trkpt lat="45.519275665283203" lon="8.980507850646973">
        <ele>153.9483642578125</ele>
        <time>2008-05-18T08:59:03Z</time>
      </trkpt>
      <trkpt lat="45.518674850463867" lon="8.981237411499023">
        <ele>152.9869384765625</ele>
        <time>2008-05-18T08:59:17Z</time>
      </trkpt>
      <trkpt lat="45.518267154693604" lon="8.981709480285645">
        <ele>153.9483642578125</ele>
        <time>2008-05-18T08:59:26Z</time>
      </trkpt>
      <trkpt lat="45.518074035644531" lon="8.981623649597168">
        <ele>153.4676513671875</ele>
        <time>2008-05-18T08:59:32Z</time>
      </trkpt>
      <trkpt lat="45.51785945892334" lon="8.981173038482666">
        <ele>153.4676513671875</ele>
        <time>2008-05-18T08:59:40Z</time>
      </trkpt>
      <trkpt lat="45.517580509185791" lon="8.980550765991211">
        <ele>154.428955078125</ele>
        <time>2008-05-18T08:59:51Z</time>
      </trkpt>
      <trkpt lat="45.51710844039917" lon="8.97958517074585">
        <ele>155.3902587890625</ele>
        <time>2008-05-18T09:00:09Z</time>
      </trkpt>
      <trkpt lat="45.516700744628906" lon="8.978726863861084">
        <ele>154.9095458984375</ele>
        <time>2008-05-18T09:00:25Z</time>
      </trkpt>
      <trkpt lat="45.516271591186523" lon="8.977868556976318">
        <ele>155.3902587890625</ele>
        <time>2008-05-18T09:00:39Z</time>
      </trkpt>
      <trkpt lat="45.51586389541626" lon="8.976924419403076">
        <ele>155.3902587890625</ele>
        <time>2008-05-18T09:00:54Z</time>
      </trkpt>
      <trkpt lat="45.515563488006592" lon="8.976280689239502">
        <ele>156.8321533203125</ele>
        <time>2008-05-18T09:01:05Z</time>
      </trkpt>
      <trkpt lat="45.515499114990234" lon="8.976173400878906">
        <ele>156.3515625</ele>
        <time>2008-05-18T09:01:07Z</time>
      </trkpt>
      <trkpt lat="45.515177249908447" lon="8.975400924682617">
        <ele>157.3128662109375</ele>
        <time>2008-05-18T09:01:20Z</time>
      </trkpt>
      <trkpt lat="45.514876842498779" lon="8.974735736846924">
        <ele>158.7547607421875</ele>
        <time>2008-05-18T09:01:32Z</time>
      </trkpt>
      <trkpt lat="45.514469146728516" lon="8.973855972290039">
        <ele>156.3515625</ele>
        <time>2008-05-18T09:01:47Z</time>
      </trkpt>
      <trkpt lat="45.514082908630371" lon="8.972890377044678">
        <ele>155.3902587890625</ele>
        <time>2008-05-18T09:02:02Z</time>
      </trkpt>
      <trkpt lat="45.513782501220703" lon="8.97207498550415">
        <ele>154.9095458984375</ele>
        <time>2008-05-18T09:02:15Z</time>
      </trkpt>
      <trkpt lat="45.513632297515869" lon="8.971796035766602">
        <ele>153.9483642578125</ele>
        <time>2008-05-18T09:02:20Z</time>
      </trkpt>
      <trkpt lat="45.513696670532227" lon="8.971624374389648">
        <ele>153.9483642578125</ele>
        <time>2008-05-18T09:02:24Z</time>
      </trkpt>
      <trkpt lat="45.513975620269775" lon="8.971538543701172">
        <ele>153.4676513671875</ele>
        <time>2008-05-18T09:02:31Z</time>
      </trkpt>
      <trkpt lat="45.514233112335205" lon="8.971538543701172">
        <ele>153.9483642578125</ele>
        <time>2008-05-18T09:02:37Z</time>
      </trkpt>
      <trkpt lat="45.514447689056396" lon="8.971495628356934">
        <ele>154.9095458984375</ele>
        <time>2008-05-18T09:02:42Z</time>
      </trkpt>
      <trkpt lat="45.51459789276123" lon="8.971452713012695">
        <ele>155.3902587890625</ele>
        <time>2008-05-18T09:02:45Z</time>
      </trkpt>
      <trkpt lat="45.514812469482422" lon="8.971431255340576">
        <ele>154.428955078125</ele>
        <time>2008-05-18T09:02:50Z</time>
      </trkpt>
      <trkpt lat="45.51485538482666" lon="8.971431255340576">
        <ele>154.428955078125</ele>
        <time>2008-05-18T09:02:51Z</time>
      </trkpt>
      <trkpt lat="45.515177249908447" lon="8.971366882324219">
        <ele>153.9483642578125</ele>
        <time>2008-05-18T09:02:57Z</time>
      </trkpt>
      <trkpt lat="45.515477657318115" lon="8.971173763275147">
        <ele>154.9095458984375</ele>
        <time>2008-05-18T09:03:04Z</time>
      </trkpt>
      <trkpt lat="45.515627861022949" lon="8.971045017242432">
        <ele>154.428955078125</ele>
        <time>2008-05-18T09:03:08Z</time>
      </trkpt>
      <trkpt lat="45.516185760498047" lon="8.970680236816406">
        <ele>149.1416015625</ele>
        <time>2008-05-18T09:03:22Z</time>
      </trkpt>
      <trkpt lat="45.516700744628906" lon="8.970165252685547">
        <ele>148.6610107421875</ele>
        <time>2008-05-18T09:03:35Z</time>
      </trkpt>
      <trkpt lat="45.517172813415527" lon="8.969693183898926">
        <ele>146.7384033203125</ele>
        <time>2008-05-18T09:03:47Z</time>
      </trkpt>
      <trkpt lat="45.517301559448242" lon="8.96958589553833">
        <ele>146.2578125</ele>
        <time>2008-05-18T09:03:50Z</time>
      </trkpt>
      <trkpt lat="45.517280101776123" lon="8.969306945800781">
        <ele>146.7384033203125</ele>
        <time>2008-05-18T09:03:55Z</time>
      </trkpt>
      <trkpt lat="45.517215728759766" lon="8.969135284423828">
        <ele>147.69970703125</ele>
        <time>2008-05-18T09:03:58Z</time>
      </trkpt>
      <trkpt lat="45.517151355743408" lon="8.969027996063232">
        <ele>148.180419921875</ele>
        <time>2008-05-18T09:04:00Z</time>
      </trkpt>
      <trkpt lat="45.517065525054932" lon="8.968791961669922">
        <ele>149.1416015625</ele>
        <time>2008-05-18T09:04:04Z</time>
      </trkpt>
      <trkpt lat="45.516786575317383" lon="8.968191146850586">
        <ele>150.10302734375</ele>
        <time>2008-05-18T09:04:14Z</time>
      </trkpt>
      <trkpt lat="45.516357421875" lon="8.967139720916748">
        <ele>151.064208984375</ele>
        <time>2008-05-18T09:04:31Z</time>
      </trkpt>
      <trkpt lat="45.516078472137451" lon="8.966495990753174">
        <ele>152.0257568359375</ele>
        <time>2008-05-18T09:04:43Z</time>
      </trkpt>
      <trkpt lat="45.515756607055664" lon="8.965916633605957">
        <ele>151.064208984375</ele>
        <time>2008-05-18T09:04:54Z</time>
      </trkpt>
      <trkpt lat="45.515477657318115" lon="8.965380191802979">
        <ele>151.544921875</ele>
        <time>2008-05-18T09:05:06Z</time>
      </trkpt>
      <trkpt lat="45.515305995941162" lon="8.965466022491455">
        <ele>152.50634765625</ele>
        <time>2008-05-18T09:05:12Z</time>
      </trkpt>
      <trkpt lat="45.514876842498779" lon="8.965895175933838">
        <ele>151.544921875</ele>
        <time>2008-05-18T09:05:24Z</time>
      </trkpt>
      <trkpt lat="45.514576435089111" lon="8.966174125671387">
        <ele>150.5836181640625</ele>
        <time>2008-05-18T09:05:34Z</time>
      </trkpt>
      <trkpt lat="45.514297485351563" lon="8.966410160064697">
        <ele>151.064208984375</ele>
        <time>2008-05-18T09:05:44Z</time>
      </trkpt>
      <trkpt lat="45.513932704925537" lon="8.966753482818604">
        <ele>150.10302734375</ele>
        <time>2008-05-18T09:05:56Z</time>
      </trkpt>
      <trkpt lat="45.513546466827393" lon="8.96709680557251">
        <ele>151.544921875</ele>
        <time>2008-05-18T09:06:08Z</time>
      </trkpt>
      <trkpt lat="45.513224601745605" lon="8.967461585998535">
        <ele>149.622314453125</ele>
        <time>2008-05-18T09:06:20Z</time>
      </trkpt>
      <trkpt lat="45.513010025024414" lon="8.967783451080322">
        <ele>149.1416015625</ele>
        <time>2008-05-18T09:06:28Z</time>
      </trkpt>
      <trkpt lat="45.51260232925415" lon="8.968169689178467">
        <ele>150.10302734375</ele>
        <time>2008-05-18T09:06:41Z</time>
      </trkpt>
      <trkpt lat="45.512216091156006" lon="8.968491554260254">
        <ele>150.10302734375</ele>
        <time>2008-05-18T09:06:53Z</time>
      </trkpt>
      <trkpt lat="45.512323379516602" lon="8.968706130981445">
        <ele>151.064208984375</ele>
        <time>2008-05-18T09:06:59Z</time>
      </trkpt>
      <trkpt lat="45.512473583221436" lon="8.969027996063232">
        <ele>151.064208984375</ele>
        <time>2008-05-18T09:07:07Z</time>
      </trkpt>
      <trkpt lat="45.512645244598389" lon="8.969414234161377">
        <ele>151.064208984375</ele>
        <time>2008-05-18T09:07:16Z</time>
      </trkpt>
      <trkpt lat="45.51285982131958" lon="8.96984338760376">
        <ele>150.5836181640625</ele>
        <time>2008-05-18T09:07:27Z</time>
      </trkpt>
      <trkpt lat="45.513074398040771" lon="8.9703369140625">
        <ele>151.064208984375</ele>
        <time>2008-05-18T09:07:39Z</time>
      </trkpt>
      <trkpt lat="45.513224601745605" lon="8.970680236816406">
        <ele>151.544921875</ele>
        <time>2008-05-18T09:07:47Z</time>
      </trkpt>
      <trkpt lat="45.513439178466797" lon="8.971259593963623">
        <ele>151.544921875</ele>
        <time>2008-05-18T09:08:00Z</time>
      </trkpt>
      <trkpt lat="45.513632297515869" lon="8.971710205078125">
        <ele>152.0257568359375</ele>
        <time>2008-05-18T09:08:11Z</time>
      </trkpt>
      <trkpt lat="45.513632297515869" lon="8.971817493438721">
        <ele>151.064208984375</ele>
        <time>2008-05-18T09:08:15Z</time>
      </trkpt>
      <trkpt lat="45.513439178466797" lon="8.97183895111084">
        <ele>149.622314453125</ele>
        <time>2008-05-18T09:08:21Z</time>
      </trkpt>
      <trkpt lat="45.513224601745605" lon="8.971796035766602">
        <ele>148.6610107421875</ele>
        <time>2008-05-18T09:08:26Z</time>
      </trkpt>
      <trkpt lat="45.512795448303223" lon="8.971753120422363">
        <ele>148.180419921875</ele>
        <time>2008-05-18T09:08:37Z</time>
      </trkpt>
      <trkpt lat="45.512409210205078" lon="8.971774578094482">
        <ele>148.180419921875</ele>
        <time>2008-05-18T09:08:48Z</time>
      </trkpt>
      <trkpt lat="45.512216091156006" lon="8.97183895111084">
        <ele>148.6610107421875</ele>
        <time>2008-05-18T09:08:53Z</time>
      </trkpt>
      <trkpt lat="45.51210880279541" lon="8.97207498550415">
        <ele>149.1416015625</ele>
        <time>2008-05-18T09:08:58Z</time>
      </trkpt>
      <trkpt lat="45.51210880279541" lon="8.972182273864746">
        <ele>149.1416015625</ele>
        <time>2008-05-18T09:09:00Z</time>
      </trkpt>
      <trkpt lat="45.512344837188721" lon="8.972761631011963">
        <ele>149.1416015625</ele>
        <time>2008-05-18T09:09:10Z</time>
      </trkpt>
      <trkpt lat="45.512409210205078" lon="8.972997665405273">
        <ele>148.6610107421875</ele>
        <time>2008-05-18T09:09:14Z</time>
      </trkpt>
      <trkpt lat="45.512344837188721" lon="8.973233699798584">
        <ele>148.6610107421875</ele>
        <time>2008-05-18T09:09:18Z</time>
      </trkpt>
      <trkpt lat="45.511894226074219" lon="8.97357702255249">
        <ele>149.1416015625</ele>
        <time>2008-05-18T09:09:27Z</time>
      </trkpt>
      <trkpt lat="45.511765480041504" lon="8.973748683929443">
        <ele>148.6610107421875</ele>
        <time>2008-05-18T09:09:31Z</time>
      </trkpt>
      <trkpt lat="45.511808395385742" lon="8.973855972290039">
        <ele>149.1416015625</ele>
        <time>2008-05-18T09:09:33Z</time>
      </trkpt>
      <trkpt lat="45.511980056762695" lon="8.974306583404541">
        <ele>149.622314453125</ele>
        <time>2008-05-18T09:09:41Z</time>
      </trkpt>
      <trkpt lat="45.512237548828125" lon="8.97507905960083">
        <ele>149.622314453125</ele>
        <time>2008-05-18T09:09:54Z</time>
      </trkpt>
      <trkpt lat="45.512452125549316" lon="8.975722789764404">
        <ele>149.622314453125</ele>
        <time>2008-05-18T09:10:06Z</time>
      </trkpt>
      <trkpt lat="45.51260232925415" lon="8.976194858551025">
        <ele>149.622314453125</ele>
        <time>2008-05-18T09:10:16Z</time>
      </trkpt>
      <trkpt lat="45.512795448303223" lon="8.976795673370361">
        <ele>149.1416015625</ele>
        <time>2008-05-18T09:10:27Z</time>
      </trkpt>
      <trkpt lat="45.512988567352295" lon="8.97733211517334">
        <ele>149.622314453125</ele>
        <time>2008-05-18T09:10:37Z</time>
      </trkpt>
      <trkpt lat="45.513138771057129" lon="8.977804183959961">
        <ele>149.1416015625</ele>
        <time>2008-05-18T09:10:47Z</time>
      </trkpt>
      <trkpt lat="45.513052940368652" lon="8.977911472320557">
        <ele>149.1416015625</ele>
        <time>2008-05-18T09:10:52Z</time>
      </trkpt>
      <trkpt lat="45.512645244598389" lon="8.978276252746582">
        <ele>149.1416015625</ele>
        <time>2008-05-18T09:11:04Z</time>
      </trkpt>
      <trkpt lat="45.512280464172363" lon="8.97857666015625">
        <ele>149.1416015625</ele>
        <time>2008-05-18T09:11:15Z</time>
      </trkpt>
      <trkpt lat="45.5118727684021" lon="8.978941440582275">
        <ele>148.6610107421875</ele>
        <time>2008-05-18T09:11:27Z</time>
      </trkpt>
      <trkpt lat="45.511507987976074" lon="8.979284763336182">
        <ele>148.180419921875</ele>
        <time>2008-05-18T09:11:38Z</time>
      </trkpt>
      <trkpt lat="45.51135778427124" lon="8.979413509368897">
        <ele>148.180419921875</ele>
        <time>2008-05-18T09:11:43Z</time>
      </trkpt>
      <trkpt lat="45.511400699615479" lon="8.97958517074585">
        <ele>147.69970703125</ele>
        <time>2008-05-18T09:11:49Z</time>
      </trkpt>
      <trkpt lat="45.511572360992432" lon="8.979885578155518">
        <ele>148.6610107421875</ele>
        <time>2008-05-18T09:11:56Z</time>
      </trkpt>
      <trkpt lat="45.511636734008789" lon="8.980100154876709">
        <ele>148.180419921875</ele>
        <time>2008-05-18T09:12:00Z</time>
      </trkpt>
      <trkpt lat="45.511808395385742" lon="8.980550765991211">
        <ele>147.69970703125</ele>
        <time>2008-05-18T09:12:09Z</time>
      </trkpt>
      <trkpt lat="45.511958599090576" lon="8.980872631072998">
        <ele>148.180419921875</ele>
        <time>2008-05-18T09:12:16Z</time>
      </trkpt>
      <trkpt lat="45.512151718139648" lon="8.981344699859619">
        <ele>148.180419921875</ele>
        <time>2008-05-18T09:12:25Z</time>
      </trkpt>
      <trkpt lat="45.51236629486084" lon="8.981838226318359">
        <ele>148.180419921875</ele>
        <time>2008-05-18T09:12:34Z</time>
      </trkpt>
      <trkpt lat="45.512580871582031" lon="8.9823317527771">
        <ele>148.180419921875</ele>
        <time>2008-05-18T09:12:44Z</time>
      </trkpt>
      <trkpt lat="45.512709617614746" lon="8.982782363891602">
        <ele>150.10302734375</ele>
        <time>2008-05-18T09:12:53Z</time>
      </trkpt>
      <trkpt lat="45.512773990631104" lon="8.983232975006104">
        <ele>150.10302734375</ele>
        <time>2008-05-18T09:13:02Z</time>
      </trkpt>
      <trkpt lat="45.512945652008057" lon="8.983705043792725">
        <ele>149.622314453125</ele>
        <time>2008-05-18T09:13:11Z</time>
      </trkpt>
      <trkpt lat="45.513095855712891" lon="8.984198570251465">
        <ele>149.622314453125</ele>
        <time>2008-05-18T09:13:20Z</time>
      </trkpt>
      <trkpt lat="45.513331890106201" lon="8.984735012054443">
        <ele>150.10302734375</ele>
        <time>2008-05-18T09:13:30Z</time>
      </trkpt>
      <trkpt lat="45.513546466827393" lon="8.985228538513184">
        <ele>150.10302734375</ele>
        <time>2008-05-18T09:13:40Z</time>
      </trkpt>
      <trkpt lat="45.513825416564941" lon="8.985679149627686">
        <ele>150.10302734375</ele>
        <time>2008-05-18T09:13:52Z</time>
      </trkpt>
      <trkpt lat="45.514018535614014" lon="8.985915184020996">
        <ele>150.10302734375</ele>
        <time>2008-05-18T09:14:01Z</time>
      </trkpt>
      <trkpt lat="45.514168739318848" lon="8.986237049102783">
        <ele>149.622314453125</ele>
        <time>2008-05-18T09:14:09Z</time>
      </trkpt>
      <trkpt lat="45.514211654663086" lon="8.986344337463379">
        <ele>149.622314453125</ele>
        <time>2008-05-18T09:14:12Z</time>
      </trkpt>
      <trkpt lat="45.51410436630249" lon="8.986515998840332">
        <ele>150.10302734375</ele>
        <time>2008-05-18T09:14:16Z</time>
      </trkpt>
      <trkpt lat="45.513632297515869" lon="8.986966609954834">
        <ele>149.1416015625</ele>
        <time>2008-05-18T09:14:27Z</time>
      </trkpt>
      <trkpt lat="45.51311731338501" lon="8.987374305725098">
        <ele>148.6610107421875</ele>
        <time>2008-05-18T09:14:38Z</time>
      </trkpt>
      <trkpt lat="45.512580871582031" lon="8.987846374511719">
        <ele>149.1416015625</ele>
        <time>2008-05-18T09:14:48Z</time>
      </trkpt>
      <trkpt lat="45.512044429779053" lon="8.988339900970459">
        <ele>148.6610107421875</ele>
        <time>2008-05-18T09:14:58Z</time>
      </trkpt>
      <trkpt lat="45.511722564697266" lon="8.988640308380127">
        <ele>148.6610107421875</ele>
        <time>2008-05-18T09:15:04Z</time>
      </trkpt>
      <trkpt lat="45.511701107025146" lon="8.988919258117676">
        <ele>149.1416015625</ele>
        <time>2008-05-18T09:15:08Z</time>
      </trkpt>
      <trkpt lat="45.511722564697266" lon="8.988983631134033">
        <ele>149.1416015625</ele>
        <time>2008-05-18T09:15:09Z</time>
      </trkpt>
      <trkpt lat="45.512022972106934" lon="8.989627361297607">
        <ele>150.10302734375</ele>
        <time>2008-05-18T09:15:20Z</time>
      </trkpt>
      <trkpt lat="45.512280464172363" lon="8.990206718444824">
        <ele>149.622314453125</ele>
        <time>2008-05-18T09:15:30Z</time>
      </trkpt>
      <trkpt lat="45.512452125549316" lon="8.990635871887207">
        <ele>150.10302734375</ele>
        <time>2008-05-18T09:15:39Z</time>
      </trkpt>
      <trkpt lat="45.51260232925415" lon="8.991043567657471">
        <ele>150.10302734375</ele>
        <time>2008-05-18T09:15:47Z</time>
      </trkpt>
      <trkpt lat="45.512816905975342" lon="8.99155855178833">
        <ele>149.622314453125</ele>
        <time>2008-05-18T09:15:57Z</time>
      </trkpt>
      <trkpt lat="45.513031482696533" lon="8.992094993591309">
        <ele>149.622314453125</ele>
        <time>2008-05-18T09:16:07Z</time>
      </trkpt>
      <trkpt lat="45.513138771057129" lon="8.992180824279785">
        <ele>149.622314453125</ele>
        <time>2008-05-18T09:16:10Z</time>
      </trkpt>
      <trkpt lat="45.513374805450439" lon="8.992266654968262">
        <ele>148.6610107421875</ele>
        <time>2008-05-18T09:16:17Z</time>
      </trkpt>
      <trkpt lat="45.513696670532227" lon="8.992910385131836">
        <ele>149.622314453125</ele>
        <time>2008-05-18T09:16:31Z</time>
      </trkpt>
      <trkpt lat="45.513825416564941" lon="8.99355411529541">
        <ele>149.622314453125</ele>
        <time>2008-05-18T09:16:43Z</time>
      </trkpt>
      <trkpt lat="45.513911247253418" lon="8.99430513381958">
        <ele>150.10302734375</ele>
        <time>2008-05-18T09:16:57Z</time>
      </trkpt>
      <trkpt lat="45.513911247253418" lon="8.994369506835938">
        <ele>150.10302734375</ele>
        <time>2008-05-18T09:16:58Z</time>
      </trkpt>
      <trkpt lat="45.514082908630371" lon="8.994390964508057">
        <ele>149.622314453125</ele>
        <time>2008-05-18T09:17:04Z</time>
      </trkpt>
      <trkpt lat="45.514340400695801" lon="8.994369506835938">
        <ele>149.622314453125</ele>
        <time>2008-05-18T09:17:11Z</time>
      </trkpt>
      <trkpt lat="45.515155792236328" lon="8.994412422180176">
        <ele>148.6610107421875</ele>
        <time>2008-05-18T09:17:29Z</time>
      </trkpt>
      <trkpt lat="45.515241622924805" lon="8.994455337524414">
        <ele>147.69970703125</ele>
        <time>2008-05-18T09:17:32Z</time>
      </trkpt>
      <trkpt lat="45.51537036895752" lon="8.994498252868652">
        <ele>145.777099609375</ele>
        <time>2008-05-18T09:17:36Z</time>
      </trkpt>
      <trkpt lat="45.515456199645996" lon="8.994541168212891">
        <ele>145.29638671875</ele>
        <time>2008-05-18T09:17:38Z</time>
      </trkpt>
      <trkpt lat="45.515542030334473" lon="8.99456262588501">
        <ele>144.8157958984375</ele>
        <time>2008-05-18T09:17:40Z</time>
      </trkpt>
      <trkpt lat="45.515649318695068" lon="8.99456262588501">
        <ele>144.8157958984375</ele>
        <time>2008-05-18T09:17:42Z</time>
      </trkpt>
      <trkpt lat="45.516293048858643" lon="8.994348049163818">
        <ele>144.8157958984375</ele>
        <time>2008-05-18T09:17:54Z</time>
      </trkpt>
      <trkpt lat="45.516808032989502" lon="8.994112014770508">
        <ele>146.7384033203125</ele>
        <time>2008-05-18T09:18:05Z</time>
      </trkpt>
      <trkpt lat="45.517451763153076" lon="8.993682861328125">
        <ele>145.777099609375</ele>
        <time>2008-05-18T09:18:21Z</time>
      </trkpt>
      <trkpt lat="45.517795085906982" lon="8.993382453918457">
        <ele>145.29638671875</ele>
        <time>2008-05-18T09:18:31Z</time>
      </trkpt>
      <trkpt lat="45.518052577972412" lon="8.993124961853027">
        <ele>146.2578125</ele>
        <time>2008-05-18T09:18:39Z</time>
      </trkpt>
      <trkpt lat="45.518202781677246" lon="8.993339538574219">
        <ele>146.7384033203125</ele>
        <time>2008-05-18T09:18:45Z</time>
      </trkpt>
      <trkpt lat="45.518417358398437" lon="8.993747234344482">
        <ele>147.69970703125</ele>
        <time>2008-05-18T09:18:55Z</time>
      </trkpt>
      <trkpt lat="45.518653392791748" lon="8.99406909942627">
        <ele>147.69970703125</ele>
        <time>2008-05-18T09:19:03Z</time>
      </trkpt>
      <trkpt lat="45.518825054168701" lon="8.994176387786865">
        <ele>148.6610107421875</ele>
        <time>2008-05-18T09:19:08Z</time>
      </trkpt>
      <trkpt lat="45.518932342529297" lon="8.994348049163818">
        <ele>149.622314453125</ele>
        <time>2008-05-18T09:19:12Z</time>
      </trkpt>
      <trkpt lat="45.519168376922607" lon="8.994841575622559">
        <ele>149.622314453125</ele>
        <time>2008-05-18T09:19:22Z</time>
      </trkpt>
      <trkpt lat="45.519404411315918" lon="8.994927406311035">
        <ele>150.10302734375</ele>
        <time>2008-05-18T09:19:28Z</time>
      </trkpt>
      <trkpt lat="45.519490242004395" lon="8.994905948638916">
        <ele>150.5836181640625</ele>
        <time>2008-05-18T09:19:30Z</time>
      </trkpt>
      <trkpt lat="45.51959753036499" lon="8.994863033294678">
        <ele>150.5836181640625</ele>
        <time>2008-05-18T09:19:33Z</time>
      </trkpt>
      <trkpt lat="45.519812107086182" lon="8.99505615234375">
        <ele>151.064208984375</ele>
        <time>2008-05-18T09:19:39Z</time>
      </trkpt>
      <trkpt lat="45.520026683807373" lon="8.995463848114014">
        <ele>151.064208984375</ele>
        <time>2008-05-18T09:19:48Z</time>
      </trkpt>
      <trkpt lat="45.520284175872803" lon="8.995914459228516">
        <ele>151.544921875</ele>
        <time>2008-05-18T09:19:58Z</time>
      </trkpt>
      <trkpt lat="45.520391464233398" lon="8.996107578277588">
        <ele>151.544921875</ele>
        <time>2008-05-18T09:20:02Z</time>
      </trkpt>
      <trkpt lat="45.520455837249756" lon="8.996279239654541">
        <ele>151.544921875</ele>
        <time>2008-05-18T09:20:05Z</time>
      </trkpt>
      <trkpt lat="45.520477294921875" lon="8.996601104736328">
        <ele>152.0257568359375</ele>
        <time>2008-05-18T09:20:10Z</time>
      </trkpt>
      <trkpt lat="45.52060604095459" lon="8.996880054473877">
        <ele>152.50634765625</ele>
        <time>2008-05-18T09:20:15Z</time>
      </trkpt>
      <trkpt lat="45.520691871643066" lon="8.997073173522949">
        <ele>152.50634765625</ele>
        <time>2008-05-18T09:20:18Z</time>
      </trkpt>
      <trkpt lat="45.520884990692139" lon="8.997802734375">
        <ele>152.0257568359375</ele>
        <time>2008-05-18T09:20:28Z</time>
      </trkpt>
      <trkpt lat="45.521056652069092" lon="8.998467922210693">
        <ele>151.544921875</ele>
        <time>2008-05-18T09:20:36Z</time>
      </trkpt>
      <trkpt lat="45.521292686462402" lon="8.999261856079102">
        <ele>151.064208984375</ele>
        <time>2008-05-18T09:20:46Z</time>
      </trkpt>
      <trkpt lat="45.521399974822998" lon="8.999476432800293">
        <ele>151.064208984375</ele>
        <time>2008-05-18T09:20:49Z</time>
      </trkpt>
      <trkpt lat="45.521872043609619" lon="9.000034332275391">
        <ele>148.6610107421875</ele>
        <time>2008-05-18T09:20:59Z</time>
      </trkpt>
      <trkpt lat="45.522387027740479" lon="9.000592231750488">
        <ele>144.335205078125</ele>
        <time>2008-05-18T09:21:07Z</time>
      </trkpt>
      <trkpt lat="45.522816181182861" lon="9.00104284286499">
        <ele>144.8157958984375</ele>
        <time>2008-05-18T09:21:14Z</time>
      </trkpt>
      <trkpt lat="45.5228590965271" lon="9.001107215881348">
        <ele>145.29638671875</ele>
        <time>2008-05-18T09:21:15Z</time>
      </trkpt>
      <trkpt lat="45.522944927215576" lon="9.001429080963135">
        <ele>146.2578125</ele>
        <time>2008-05-18T09:21:20Z</time>
      </trkpt>
      <trkpt lat="45.522794723510742" lon="9.001643657684326">
        <ele>147.218994140625</ele>
        <time>2008-05-18T09:21:24Z</time>
      </trkpt>
      <trkpt lat="45.52234411239624" lon="9.001965522766113">
        <ele>149.1416015625</ele>
        <time>2008-05-18T09:21:33Z</time>
      </trkpt>
      <trkpt lat="45.522236824035645" lon="9.001922607421875">
        <ele>149.622314453125</ele>
        <time>2008-05-18T09:21:36Z</time>
      </trkpt>
      <trkpt lat="45.522258281707764" lon="9.001901149749756">
        <ele>149.622314453125</ele>
        <time>2008-05-18T09:21:37Z</time>
      </trkpt>
      <trkpt lat="45.522580146789551" lon="9.00155782699585">
        <ele>150.10302734375</ele>
        <time>2008-05-18T09:21:46Z</time>
      </trkpt>
      <trkpt lat="45.522623062133789" lon="9.001364707946777">
        <ele>150.10302734375</ele>
        <time>2008-05-18T09:21:49Z</time>
      </trkpt>
      <trkpt lat="45.522515773773193" lon="9.001128673553467">
        <ele>150.5836181640625</ele>
        <time>2008-05-18T09:21:53Z</time>
      </trkpt>
      <trkpt lat="45.522494316101074" lon="9.000871181488037">
        <ele>151.064208984375</ele>
        <time>2008-05-18T09:21:57Z</time>
      </trkpt>
      <trkpt lat="45.522558689117432" lon="9.000742435455322">
        <ele>151.064208984375</ele>
        <time>2008-05-18T09:21:59Z</time>
      </trkpt>
      <trkpt lat="45.5228590965271" lon="9.000270366668701">
        <ele>151.544921875</ele>
        <time>2008-05-18T09:22:07Z</time>
      </trkpt>
      <trkpt lat="45.522923469543457" lon="9.000141620635986">
        <ele>152.0257568359375</ele>
        <time>2008-05-18T09:22:09Z</time>
      </trkpt>
      <trkpt lat="45.523138046264648" lon="8.999905586242676">
        <ele>151.544921875</ele>
        <time>2008-05-18T09:22:14Z</time>
      </trkpt>
      <trkpt lat="45.523717403411865" lon="8.999648094177246">
        <ele>151.544921875</ele>
        <time>2008-05-18T09:22:25Z</time>
      </trkpt>
      <trkpt lat="45.524210929870605" lon="8.99930477142334">
        <ele>151.544921875</ele>
        <time>2008-05-18T09:22:35Z</time>
      </trkpt>
      <trkpt lat="45.524682998657227" lon="8.998832702636719">
        <ele>152.50634765625</ele>
        <time>2008-05-18T09:22:45Z</time>
      </trkpt>
      <trkpt lat="45.524725914001465" lon="8.998789787292481">
        <ele>152.50634765625</ele>
        <time>2008-05-18T09:22:46Z</time>
      </trkpt>
      <trkpt lat="45.525112152099609" lon="8.998467922210693">
        <ele>153.4676513671875</ele>
        <time>2008-05-18T09:22:54Z</time>
      </trkpt>
      <trkpt lat="45.525369644165039" lon="8.998146057128906">
        <ele>153.4676513671875</ele>
        <time>2008-05-18T09:22:58Z</time>
      </trkpt>
      <trkpt lat="45.525476932525635" lon="8.997974395751953">
        <ele>153.4676513671875</ele>
        <time>2008-05-18T09:23:00Z</time>
      </trkpt>
      <trkpt lat="45.525712966918945" lon="8.997867107391357">
        <ele>153.4676513671875</ele>
        <time>2008-05-18T09:23:04Z</time>
      </trkpt>
      <trkpt lat="45.525820255279541" lon="8.99806022644043">
        <ele>153.4676513671875</ele>
        <time>2008-05-18T09:23:07Z</time>
      </trkpt>
      <trkpt lat="45.525777339935303" lon="8.998231887817383">
        <ele>153.9483642578125</ele>
        <time>2008-05-18T09:23:10Z</time>
      </trkpt>
      <trkpt lat="45.525734424591064" lon="8.99829626083374">
        <ele>154.428955078125</ele>
        <time>2008-05-18T09:23:11Z</time>
      </trkpt>
      <trkpt lat="45.525562763214111" lon="8.998446464538574">
        <ele>154.428955078125</ele>
        <time>2008-05-18T09:23:14Z</time>
      </trkpt>
      <trkpt lat="45.525197982788086" lon="8.998875617980957">
        <ele>154.428955078125</ele>
        <time>2008-05-18T09:23:21Z</time>
      </trkpt>
      <trkpt lat="45.525069236755371" lon="8.999068737030029">
        <ele>154.428955078125</ele>
        <time>2008-05-18T09:23:25Z</time>
      </trkpt>
      <trkpt lat="45.525047779083252" lon="8.999068737030029">
        <ele>154.428955078125</ele>
        <time>2008-05-18T09:23:33Z</time>
      </trkpt>
      <trkpt lat="45.525047779083252" lon="8.999090194702148">
        <ele>154.428955078125</ele>
        <time>2008-05-18T09:23:34Z</time>
      </trkpt>
    </trkseg>
  </trk>

  <trk>
    <name>ACTIVE LOG</name>
    <trkseg>
      <trkpt lat="45.525026321411133" lon="8.999133110046387">
        <ele>152.50634765625</ele>
        <time>2008-05-18T08:04:09Z</time>
      </trkpt>
      <trkpt lat="45.525026321411133" lon="8.999133110046387">
        <ele>156.8321533203125</ele>
        <time>2008-05-18T08:05:17Z</time>
      </trkpt>
      <trkpt lat="45.525176525115967" lon="8.998939990997315">
        <ele>157.3128662109375</ele>
        <time>2008-05-18T08:05:25Z</time>
      </trkpt>
      <trkpt lat="45.525412559509277" lon="8.998639583587647">
        <ele>157.3128662109375</ele>
        <time>2008-05-18T08:05:32Z</time>
      </trkpt>
      <trkpt lat="45.52558422088623" lon="8.998425006866455">
        <ele>157.3128662109375</ele>
        <time>2008-05-18T08:05:36Z</time>
      </trkpt>
      <trkpt lat="45.52584171295166" lon="8.998317718505859">
        <ele>157.3128662109375</ele>
        <time>2008-05-18T08:05:41Z</time>
      </trkpt>
      <trkpt lat="45.526120662689209" lon="8.998489379882813">
        <ele>156.3515625</ele>
        <time>2008-05-18T08:05:46Z</time>
      </trkpt>
      <trkpt lat="45.526185035705566" lon="8.998789787292481">
        <ele>156.3515625</ele>
        <time>2008-05-18T08:05:50Z</time>
      </trkpt>
      <trkpt lat="45.526120662689209" lon="8.999111652374268">
        <ele>155.8709716796875</ele>
        <time>2008-05-18T08:05:54Z</time>
      </trkpt>
      <trkpt lat="45.526034832000732" lon="8.999240398406982">
        <ele>155.8709716796875</ele>
        <time>2008-05-18T08:05:56Z</time>
      </trkpt>
      <trkpt lat="45.525455474853516" lon="8.999905586242676">
        <ele>155.3902587890625</ele>
        <time>2008-05-18T08:06:08Z</time>
      </trkpt>
      <trkpt lat="45.525155067443848" lon="8.999948501586914">
        <ele>155.3902587890625</ele>
        <time>2008-05-18T08:06:13Z</time>
      </trkpt>
      <trkpt lat="45.524961948394775" lon="8.999755382537842">
        <ele>155.3902587890625</ele>
        <time>2008-05-18T08:06:17Z</time>
      </trkpt>
      <trkpt lat="45.524640083312988" lon="8.999240398406982">
        <ele>154.9095458984375</ele>
        <time>2008-05-18T08:06:25Z</time>
      </trkpt>
      <trkpt lat="45.524446964263916" lon="8.999283313751221">
        <ele>154.9095458984375</ele>
        <time>2008-05-18T08:06:29Z</time>
      </trkpt>
      <trkpt lat="45.523953437805176" lon="9.000034332275391">
        <ele>154.428955078125</ele>
        <time>2008-05-18T08:06:39Z</time>
      </trkpt>
      <trkpt lat="45.523416996002197" lon="9.000785350799561">
        <ele>151.064208984375</ele>
        <time>2008-05-18T08:06:48Z</time>
      </trkpt>
      <trkpt lat="45.523266792297363" lon="9.000957012176514">
        <ele>150.10302734375</ele>
        <time>2008-05-18T08:06:50Z</time>
      </trkpt>
      <trkpt lat="45.522944927215576" lon="9.000999927520752">
        <ele>150.10302734375</ele>
        <time>2008-05-18T08:06:54Z</time>
      </trkpt>
      <trkpt lat="45.522730350494385" lon="9.000828266143799">
        <ele>148.6610107421875</ele>
        <time>2008-05-18T08:06:57Z</time>
      </trkpt>
      <trkpt lat="45.521957874298096" lon="8.999969959259033">
        <ele>148.180419921875</ele>
        <time>2008-05-18T08:07:08Z</time>
      </trkpt>
      <trkpt lat="45.521571636199951" lon="8.99956226348877">
        <ele>151.544921875</ele>
        <time>2008-05-18T08:07:15Z</time>
      </trkpt>
      <trkpt lat="45.521378517150879" lon="8.999326229095459">
        <ele>151.544921875</ele>
        <time>2008-05-18T08:07:19Z</time>
      </trkpt>
      <trkpt lat="45.521206855773926" lon="8.998789787292481">
        <ele>152.0257568359375</ele>
        <time>2008-05-18T08:07:25Z</time>
      </trkpt>
      <trkpt lat="45.520906448364258" lon="8.997652530670166">
        <ele>153.4676513671875</ele>
        <time>2008-05-18T08:07:37Z</time>
      </trkpt>
      <trkpt lat="45.520756244659424" lon="8.997116088867188">
        <ele>153.9483642578125</ele>
        <time>2008-05-18T08:07:43Z</time>
      </trkpt>
      <trkpt lat="45.520799160003662" lon="8.996665477752686">
        <ele>154.428955078125</ele>
        <time>2008-05-18T08:07:48Z</time>
      </trkpt>
      <trkpt lat="45.520927906036377" lon="8.996450901031494">
        <ele>154.428955078125</ele>
        <time>2008-05-18T08:07:51Z</time>
      </trkpt>
      <trkpt lat="45.521571636199951" lon="8.995978832244873">
        <ele>154.9095458984375</ele>
        <time>2008-05-18T08:08:02Z</time>
      </trkpt>
      <trkpt lat="45.522215366363525" lon="8.995506763458252">
        <ele>155.8709716796875</ele>
        <time>2008-05-18T08:08:13Z</time>
      </trkpt>
      <trkpt lat="45.522429943084717" lon="8.995356559753418">
        <ele>155.8709716796875</ele>
        <time>2008-05-18T08:08:17Z</time>
      </trkpt>
      <trkpt lat="45.522558689117432" lon="8.995120525360107">
        <ele>155.8709716796875</ele>
        <time>2008-05-18T08:08:21Z</time>
      </trkpt>
      <trkpt lat="45.522429943084717" lon="8.994841575622559">
        <ele>155.8709716796875</ele>
        <time>2008-05-18T08:08:26Z</time>
      </trkpt>
      <trkpt lat="45.522408485412598" lon="8.994777202606201">
        <ele>155.8709716796875</ele>
        <time>2008-05-18T08:08:27Z</time>
      </trkpt>
      <trkpt lat="45.522086620330811" lon="8.994154930114746">
        <ele>155.8709716796875</ele>
        <time>2008-05-18T08:08:37Z</time>
      </trkpt>
      <trkpt lat="45.52159309387207" lon="8.993253707885742">
        <ele>156.3515625</ele>
        <time>2008-05-18T08:08:51Z</time>
      </trkpt>
      <trkpt lat="45.521228313446045" lon="8.992738723754883">
        <ele>156.3515625</ele>
        <time>2008-05-18T08:09:01Z</time>
      </trkpt>
      <trkpt lat="45.520777702331543" lon="8.992266654968262">
        <ele>155.3902587890625</ele>
        <time>2008-05-18T08:09:12Z</time>
      </trkpt>
      <trkpt lat="45.520391464233398" lon="8.991644382476807">
        <ele>154.9095458984375</ele>
        <time>2008-05-18T08:09:24Z</time>
      </trkpt>
      <trkpt lat="45.520176887512207" lon="8.990914821624756">
        <ele>155.3902587890625</ele>
        <time>2008-05-18T08:09:34Z</time>
      </trkpt>
      <trkpt lat="45.519940853118896" lon="8.990206718444824">
        <ele>155.3902587890625</ele>
        <time>2008-05-18T08:09:44Z</time>
      </trkpt>
      <trkpt lat="45.519618988037109" lon="8.989648818969727">
        <ele>154.9095458984375</ele>
        <time>2008-05-18T08:09:53Z</time>
      </trkpt>
      <trkpt lat="45.519254207611084" lon="8.989112377166748">
        <ele>155.3902587890625</ele>
        <time>2008-05-18T08:10:03Z</time>
      </trkpt>
      <trkpt lat="45.518996715545654" lon="8.988704681396484">
        <ele>154.9095458984375</ele>
        <time>2008-05-18T08:10:11Z</time>
      </trkpt>
      <trkpt lat="45.518739223480225" lon="8.988168239593506">
        <ele>154.428955078125</ele>
        <time>2008-05-18T08:10:21Z</time>
      </trkpt>
      <trkpt lat="45.518567562103271" lon="8.987524509429932">
        <ele>153.9483642578125</ele>
        <time>2008-05-18T08:10:31Z</time>
      </trkpt>
      <trkpt lat="45.518267154693604" lon="8.986794948577881">
        <ele>153.9483642578125</ele>
        <time>2008-05-18T08:10:44Z</time>
      </trkpt>
      <trkpt lat="45.518181324005127" lon="8.986537456512451">
        <ele>153.9483642578125</ele>
        <time>2008-05-18T08:10:49Z</time>
      </trkpt>
      <trkpt lat="45.518245697021484" lon="8.986408710479736">
        <ele>153.9483642578125</ele>
        <time>2008-05-18T08:10:52Z</time>
      </trkpt>
      <trkpt lat="45.518374443054199" lon="8.986151218414307">
        <ele>153.9483642578125</ele>
        <time>2008-05-18T08:10:57Z</time>
      </trkpt>
      <trkpt lat="45.518374443054199" lon="8.986086845397949">
        <ele>153.9483642578125</ele>
        <time>2008-05-18T08:10:58Z</time>
      </trkpt>
      <trkpt lat="45.518374443054199" lon="8.98582935333252">
        <ele>154.9095458984375</ele>
        <time>2008-05-18T08:11:03Z</time>
      </trkpt>
      <trkpt lat="45.518481731414795" lon="8.985593318939209">
        <ele>154.9095458984375</ele>
        <time>2008-05-18T08:11:08Z</time>
      </trkpt>
      <trkpt lat="45.518417358398437" lon="8.985528945922852">
        <ele>154.9095458984375</ele>
        <time>2008-05-18T08:11:10Z</time>
      </trkpt>
      <trkpt lat="45.518245697021484" lon="8.985378742218018">
        <ele>154.428955078125</ele>
        <time>2008-05-18T08:11:14Z</time>
      </trkpt>
      <trkpt lat="45.517795085906982" lon="8.984735012054443">
        <ele>153.9483642578125</ele>
        <time>2008-05-18T08:11:24Z</time>
      </trkpt>
      <trkpt lat="45.517323017120361" lon="8.984048366546631">
        <ele>152.9869384765625</ele>
        <time>2008-05-18T08:11:34Z</time>
      </trkpt>
      <trkpt lat="45.517044067382813" lon="8.983683586120606">
        <ele>152.9869384765625</ele>
        <time>2008-05-18T08:11:40Z</time>
      </trkpt>
      <trkpt lat="45.517001152038574" lon="8.983340263366699">
        <ele>152.9869384765625</ele>
        <time>2008-05-18T08:11:44Z</time>
      </trkpt>
      <trkpt lat="45.517086982727051" lon="8.983104228973389">
        <ele>153.4676513671875</ele>
        <time>2008-05-18T08:11:47Z</time>
      </trkpt>
      <trkpt lat="45.517494678497314" lon="8.982524871826172">
        <ele>153.4676513671875</ele>
        <time>2008-05-18T08:11:56Z</time>
      </trkpt>
      <trkpt lat="45.518009662628174" lon="8.981881141662598">
        <ele>153.4676513671875</ele>
        <time>2008-05-18T08:12:06Z</time>
      </trkpt>
      <trkpt lat="45.518224239349365" lon="8.981902599334717">
        <ele>152.9869384765625</ele>
        <time>2008-05-18T08:12:10Z</time>
      </trkpt>
      <trkpt lat="45.51835298538208" lon="8.982095718383789">
        <ele>153.4676513671875</ele>
        <time>2008-05-18T08:12:13Z</time>
      </trkpt>
      <trkpt lat="45.518589019775391" lon="8.982224464416504">
        <ele>155.3902587890625</ele>
        <time>2008-05-18T08:12:18Z</time>
      </trkpt>
      <trkpt lat="45.519146919250488" lon="8.981645107269287">
        <ele>154.9095458984375</ele>
        <time>2008-05-18T08:12:28Z</time>
      </trkpt>
      <trkpt lat="45.519683361053467" lon="8.981173038482666">
        <ele>154.9095458984375</ele>
        <time>2008-05-18T08:12:38Z</time>
      </trkpt>
      <trkpt lat="45.519833564758301" lon="8.981215953826904">
        <ele>154.428955078125</ele>
        <time>2008-05-18T08:12:42Z</time>
      </trkpt>
      <trkpt lat="45.519897937774658" lon="8.981301784515381">
        <ele>153.9483642578125</ele>
        <time>2008-05-18T08:12:44Z</time>
      </trkpt>
      <trkpt lat="45.52011251449585" lon="8.981387615203857">
        <ele>153.9483642578125</ele>
        <time>2008-05-18T08:12:48Z</time>
      </trkpt>
      <trkpt lat="45.520155429840088" lon="8.981366157531738">
        <ele>154.428955078125</ele>
        <time>2008-05-18T08:12:49Z</time>
      </trkpt>
      <trkpt lat="45.520563125610352" lon="8.981022834777832">
        <ele>154.9095458984375</ele>
        <time>2008-05-18T08:12:57Z</time>
      </trkpt>
      <trkpt lat="45.520820617675781" lon="8.980808258056641">
        <ele>154.9095458984375</ele>
        <time>2008-05-18T08:13:02Z</time>
      </trkpt>
      <trkpt lat="45.521013736724854" lon="8.980979919433594">
        <ele>154.9095458984375</ele>
        <time>2008-05-18T08:13:09Z</time>
      </trkpt>
      <trkpt lat="45.521163940429688" lon="8.981151580810547">
        <ele>153.9483642578125</ele>
        <time>2008-05-18T08:13:16Z</time>
      </trkpt>
      <trkpt lat="45.521421432495117" lon="8.981237411499023">
        <ele>153.4676513671875</ele>
        <time>2008-05-18T08:13:25Z</time>
      </trkpt>
      <trkpt lat="45.521764755249023" lon="8.981194496154785">
        <ele>152.9869384765625</ele>
        <time>2008-05-18T08:13:34Z</time>
      </trkpt>
      <trkpt lat="45.522215366363525" lon="8.981258869171143">
        <ele>152.9869384765625</ele>
        <time>2008-05-18T08:13:45Z</time>
      </trkpt>
      <trkpt lat="45.522966384887695" lon="8.981773853302002">
        <ele>152.9869384765625</ele>
        <time>2008-05-18T08:13:54Z</time>
      </trkpt>
      <trkpt lat="45.523180961608887" lon="8.982009887695313">
        <ele>153.4676513671875</ele>
        <time>2008-05-18T08:14:00Z</time>
      </trkpt>
      <trkpt lat="45.523459911346436" lon="8.982481956481934">
        <ele>152.50634765625</ele>
        <time>2008-05-18T08:14:09Z</time>
      </trkpt>
      <trkpt lat="45.523481369018555" lon="8.982546329498291">
        <ele>152.50634765625</ele>
        <time>2008-05-18T08:14:10Z</time>
      </trkpt>
      <trkpt lat="45.52361011505127" lon="8.982675075531006">
        <ele>152.50634765625</ele>
        <time>2008-05-18T08:14:14Z</time>
      </trkpt>
      <trkpt lat="45.523910522460938" lon="8.98256778717041">
        <ele>150.5836181640625</ele>
        <time>2008-05-18T08:14:22Z</time>
      </trkpt>
      <trkpt lat="45.524060726165771" lon="8.982846736907959">
        <ele>151.064208984375</ele>
        <time>2008-05-18T08:14:28Z</time>
      </trkpt>
      <trkpt lat="45.52410364151001" lon="8.982975482940674">
        <ele>150.5836181640625</ele>
        <time>2008-05-18T08:14:31Z</time>
      </trkpt>
      <trkpt lat="45.524232387542725" lon="8.98306131362915">
        <ele>151.064208984375</ele>
        <time>2008-05-18T08:14:35Z</time>
      </trkpt>
      <trkpt lat="45.524640083312988" lon="8.982760906219482">
        <ele>151.064208984375</ele>
        <time>2008-05-18T08:14:43Z</time>
      </trkpt>
      <trkpt lat="45.525369644165039" lon="8.982245922088623">
        <ele>151.544921875</ele>
        <time>2008-05-18T08:14:59Z</time>
      </trkpt>
      <trkpt lat="45.525670051574707" lon="8.982031345367432">
        <ele>151.064208984375</ele>
        <time>2008-05-18T08:15:06Z</time>
      </trkpt>
      <trkpt lat="45.525798797607422" lon="8.981945514678955">
        <ele>151.064208984375</ele>
        <time>2008-05-18T08:15:09Z</time>
      </trkpt>
      <trkpt lat="45.525863170623779" lon="8.981730937957764">
        <ele>152.0257568359375</ele>
        <time>2008-05-18T08:15:13Z</time>
      </trkpt>
      <trkpt lat="45.52584171295166" lon="8.981666564941406">
        <ele>152.50634765625</ele>
        <time>2008-05-18T08:15:14Z</time>
      </trkpt>
      <trkpt lat="45.52558422088623" lon="8.980979919433594">
        <ele>152.9869384765625</ele>
        <time>2008-05-18T08:15:24Z</time>
      </trkpt>
      <trkpt lat="45.525283813476562" lon="8.980271816253662">
        <ele>153.9483642578125</ele>
        <time>2008-05-18T08:15:34Z</time>
      </trkpt>
      <trkpt lat="45.525026321411133" lon="8.979520797729492">
        <ele>151.544921875</ele>
        <time>2008-05-18T08:15:45Z</time>
      </trkpt>
      <trkpt lat="45.524618625640869" lon="8.978512287139893">
        <ele>152.50634765625</ele>
        <time>2008-05-18T08:16:00Z</time>
      </trkpt>
      <trkpt lat="45.524489879608154" lon="8.978104591369629">
        <ele>152.9869384765625</ele>
        <time>2008-05-18T08:16:06Z</time>
      </trkpt>
      <trkpt lat="45.524511337280273" lon="8.977890014648438">
        <ele>152.9869384765625</ele>
        <time>2008-05-18T08:16:11Z</time>
      </trkpt>
      <trkpt lat="45.524532794952393" lon="8.977847099304199">
        <ele>153.4676513671875</ele>
        <time>2008-05-18T08:16:12Z</time>
      </trkpt>
      <trkpt lat="45.524768829345703" lon="8.977546691894531">
        <ele>153.9483642578125</ele>
        <time>2008-05-18T08:16:21Z</time>
      </trkpt>
      <trkpt lat="45.525197982788086" lon="8.977181911468506">
        <ele>155.8709716796875</ele>
        <time>2008-05-18T08:16:32Z</time>
      </trkpt>
      <trkpt lat="45.525691509246826" lon="8.976817131042481">
        <ele>158.274169921875</ele>
        <time>2008-05-18T08:16:43Z</time>
      </trkpt>
      <trkpt lat="45.526227951049805" lon="8.976387977600098">
        <ele>158.7547607421875</ele>
        <time>2008-05-18T08:16:56Z</time>
      </trkpt>
      <trkpt lat="45.526635646820068" lon="8.975915908813477">
        <ele>158.7547607421875</ele>
        <time>2008-05-18T08:17:09Z</time>
      </trkpt>
      <trkpt lat="45.526978969573975" lon="8.975486755371094">
        <ele>159.7161865234375</ele>
        <time>2008-05-18T08:17:20Z</time>
      </trkpt>
      <trkpt lat="45.526893138885498" lon="8.97533655166626">
        <ele>158.7547607421875</ele>
        <time>2008-05-18T08:17:26Z</time>
      </trkpt>
      <trkpt lat="45.526678562164307" lon="8.975036144256592">
        <ele>158.7547607421875</ele>
        <time>2008-05-18T08:17:32Z</time>
      </trkpt>
      <trkpt lat="45.5263352394104" lon="8.974499702453613">
        <ele>158.7547607421875</ele>
        <time>2008-05-18T08:17:43Z</time>
      </trkpt>
      <trkpt lat="45.52609920501709" lon="8.974649906158447">
        <ele>158.274169921875</ele>
        <time>2008-05-18T08:17:51Z</time>
      </trkpt>
      <trkpt lat="45.525648593902588" lon="8.975014686584473">
        <ele>157.7935791015625</ele>
        <time>2008-05-18T08:18:04Z</time>
      </trkpt>
      <trkpt lat="45.525262355804443" lon="8.97533655166626">
        <ele>158.7547607421875</ele>
        <time>2008-05-18T08:18:16Z</time>
      </trkpt>
      <trkpt lat="45.524811744689941" lon="8.975765705108643">
        <ele>160.1968994140625</ele>
        <time>2008-05-18T08:18:28Z</time>
      </trkpt>
      <trkpt lat="45.524275302886963" lon="8.976237773895264">
        <ele>159.7161865234375</ele>
        <time>2008-05-18T08:18:41Z</time>
      </trkpt>
      <trkpt lat="45.523824691772461" lon="8.976602554321289">
        <ele>158.7547607421875</ele>
        <time>2008-05-18T08:18:52Z</time>
      </trkpt>
      <trkpt lat="45.523395538330078" lon="8.976988792419434">
        <ele>158.274169921875</ele>
        <time>2008-05-18T08:19:03Z</time>
      </trkpt>
      <trkpt lat="45.5228590965271" lon="8.977460861206055">
        <ele>158.7547607421875</ele>
        <time>2008-05-18T08:19:16Z</time>
      </trkpt>
      <trkpt lat="45.522129535675049" lon="8.97808313369751">
        <ele>159.7161865234375</ele>
        <time>2008-05-18T08:19:34Z</time>
      </trkpt>
      <trkpt lat="45.52135705947876" lon="8.978726863861084">
        <ele>157.3128662109375</ele>
        <time>2008-05-18T08:19:53Z</time>
      </trkpt>
      <trkpt lat="45.520777702331543" lon="8.979306221008301">
        <ele>157.3128662109375</ele>
        <time>2008-05-18T08:20:07Z</time>
      </trkpt>
      <trkpt lat="45.52009105682373" lon="8.979842662811279">
        <ele>156.3515625</ele>
        <time>2008-05-18T08:20:20Z</time>
      </trkpt>
      <trkpt lat="45.519447326660156" lon="8.980464935302734">
        <ele>159.2354736328125</ele>
        <time>2008-05-18T08:20:32Z</time>
      </trkpt>
      <trkpt lat="45.518674850463867" lon="8.981344699859619">
        <ele>159.2354736328125</ele>
        <time>2008-05-18T08:20:47Z</time>
      </trkpt>
      <trkpt lat="45.518224239349365" lon="8.981859683990479">
        <ele>158.7547607421875</ele>
        <time>2008-05-18T08:20:56Z</time>
      </trkpt>
      <trkpt lat="45.518052577972412" lon="8.981709480285645">
        <ele>158.7547607421875</ele>
        <time>2008-05-18T08:21:02Z</time>
      </trkpt>
      <trkpt lat="45.51785945892334" lon="8.981301784515381">
        <ele>156.8321533203125</ele>
        <time>2008-05-18T08:21:09Z</time>
      </trkpt>
      <trkpt lat="45.517494678497314" lon="8.980550765991211">
        <ele>156.8321533203125</ele>
        <time>2008-05-18T08:21:20Z</time>
      </trkpt>
      <trkpt lat="45.51710844039917" lon="8.979671001434326">
        <ele>156.3515625</ele>
        <time>2008-05-18T08:21:33Z</time>
      </trkpt>
      <trkpt lat="45.516743659973145" lon="8.978898525238037">
        <ele>155.3902587890625</ele>
        <time>2008-05-18T08:21:45Z</time>
      </trkpt>
      <trkpt lat="45.516314506530762" lon="8.977975845336914">
        <ele>153.4676513671875</ele>
        <time>2008-05-18T08:21:58Z</time>
      </trkpt>
      <trkpt lat="45.515756607055664" lon="8.976709842681885">
        <ele>151.064208984375</ele>
        <time>2008-05-18T08:22:16Z</time>
      </trkpt>
      <trkpt lat="45.515327453613281" lon="8.975808620452881">
        <ele>150.5836181640625</ele>
        <time>2008-05-18T08:22:30Z</time>
      </trkpt>
      <trkpt lat="45.514898300170898" lon="8.974800109863281">
        <ele>150.5836181640625</ele>
        <time>2008-05-18T08:22:45Z</time>
      </trkpt>
      <trkpt lat="45.514404773712158" lon="8.973684310913086">
        <ele>150.5836181640625</ele>
        <time>2008-05-18T08:23:02Z</time>
      </trkpt>
      <trkpt lat="45.514082908630371" lon="8.972890377044678">
        <ele>150.5836181640625</ele>
        <time>2008-05-18T08:23:14Z</time>
      </trkpt>
      <trkpt lat="45.513718128204346" lon="8.972053527832031">
        <ele>151.064208984375</ele>
        <time>2008-05-18T08:23:27Z</time>
      </trkpt>
      <trkpt lat="45.513632297515869" lon="8.971860408782959">
        <ele>151.064208984375</ele>
        <time>2008-05-18T08:23:30Z</time>
      </trkpt>
      <trkpt lat="45.513675212860107" lon="8.971710205078125">
        <ele>152.0257568359375</ele>
        <time>2008-05-18T08:23:34Z</time>
      </trkpt>
      <trkpt lat="45.514447689056396" lon="8.971667289733887">
        <ele>152.50634765625</ele>
        <time>2008-05-18T08:23:57Z</time>
      </trkpt>
      <trkpt lat="45.514962673187256" lon="8.971624374389648">
        <ele>152.9869384765625</ele>
        <time>2008-05-18T08:24:08Z</time>
      </trkpt>
      <trkpt lat="45.515477657318115" lon="8.971388339996338">
        <ele>152.50634765625</ele>
        <time>2008-05-18T08:24:18Z</time>
      </trkpt>
      <trkpt lat="45.516142845153809" lon="8.970787525177002">
        <ele>153.4676513671875</ele>
        <time>2008-05-18T08:24:33Z</time>
      </trkpt>
      <trkpt lat="45.516722202301025" lon="8.970186710357666">
        <ele>154.428955078125</ele>
        <time>2008-05-18T08:24:46Z</time>
      </trkpt>
      <trkpt lat="45.517237186431885" lon="8.969650268554688">
        <ele>154.428955078125</ele>
        <time>2008-05-18T08:24:58Z</time>
      </trkpt>
      <trkpt lat="45.517301559448242" lon="8.969478607177734">
        <ele>155.3902587890625</ele>
        <time>2008-05-18T08:25:01Z</time>
      </trkpt>
      <trkpt lat="45.517215728759766" lon="8.969285488128662">
        <ele>155.3902587890625</ele>
        <time>2008-05-18T08:25:04Z</time>
      </trkpt>
      <trkpt lat="45.51710844039917" lon="8.969049453735352">
        <ele>154.9095458984375</ele>
        <time>2008-05-18T08:25:08Z</time>
      </trkpt>
      <trkpt lat="45.517022609710693" lon="8.968791961669922">
        <ele>154.9095458984375</ele>
        <time>2008-05-18T08:25:12Z</time>
      </trkpt>
      <trkpt lat="45.516765117645264" lon="8.968212604522705">
        <ele>153.9483642578125</ele>
        <time>2008-05-18T08:25:21Z</time>
      </trkpt>
      <trkpt lat="45.516357421875" lon="8.967268466949463">
        <ele>155.3902587890625</ele>
        <time>2008-05-18T08:25:35Z</time>
      </trkpt>
      <trkpt lat="45.516121387481689" lon="8.966667652130127">
        <ele>155.8709716796875</ele>
        <time>2008-05-18T08:25:46Z</time>
      </trkpt>
      <trkpt lat="45.515799522399902" lon="8.966023921966553">
        <ele>155.3902587890625</ele>
        <time>2008-05-18T08:25:58Z</time>
      </trkpt>
      <trkpt lat="45.515477657318115" lon="8.965401649475098">
        <ele>155.3902587890625</ele>
        <time>2008-05-18T08:26:10Z</time>
      </trkpt>
      <trkpt lat="45.515241622924805" lon="8.965551853179932">
        <ele>155.8709716796875</ele>
        <time>2008-05-18T08:26:17Z</time>
      </trkpt>
      <trkpt lat="45.51485538482666" lon="8.965938091278076">
        <ele>155.3902587890625</ele>
        <time>2008-05-18T08:26:28Z</time>
      </trkpt>
      <trkpt lat="45.514426231384277" lon="8.966324329376221">
        <ele>156.3515625</ele>
        <time>2008-05-18T08:26:40Z</time>
      </trkpt>
      <trkpt lat="45.514168739318848" lon="8.966538906097412">
        <ele>157.7935791015625</ele>
        <time>2008-05-18T08:26:49Z</time>
      </trkpt>
      <trkpt lat="45.513932704925537" lon="8.966732025146484">
        <ele>156.8321533203125</ele>
        <time>2008-05-18T08:26:56Z</time>
      </trkpt>
      <trkpt lat="45.513396263122559" lon="8.967225551605225">
        <ele>153.4676513671875</ele>
        <time>2008-05-18T08:27:11Z</time>
      </trkpt>
      <trkpt lat="45.513074398040771" lon="8.967611789703369">
        <ele>153.4676513671875</ele>
        <time>2008-05-18T08:27:22Z</time>
      </trkpt>
      <trkpt lat="45.513052940368652" lon="8.967654705047607">
        <ele>153.9483642578125</ele>
        <time>2008-05-18T08:27:23Z</time>
      </trkpt>
      <trkpt lat="45.51260232925415" lon="8.968105316162109">
        <ele>153.4676513671875</ele>
        <time>2008-05-18T08:27:37Z</time>
      </trkpt>
      <trkpt lat="45.512216091156006" lon="8.968405723571777">
        <ele>154.9095458984375</ele>
        <time>2008-05-18T08:27:49Z</time>
      </trkpt>
      <trkpt lat="45.512237548828125" lon="8.968513011932373">
        <ele>154.9095458984375</ele>
        <time>2008-05-18T08:27:54Z</time>
      </trkpt>
      <trkpt lat="45.51236629486084" lon="8.968770503997803">
        <ele>153.9483642578125</ele>
        <time>2008-05-18T08:28:01Z</time>
      </trkpt>
      <trkpt lat="45.512645244598389" lon="8.9693284034729">
        <ele>153.9483642578125</ele>
        <time>2008-05-18T08:28:12Z</time>
      </trkpt>
      <trkpt lat="45.512902736663818" lon="8.969929218292236">
        <ele>153.4676513671875</ele>
        <time>2008-05-18T08:28:23Z</time>
      </trkpt>
      <trkpt lat="45.513203144073486" lon="8.970615863800049">
        <ele>153.4676513671875</ele>
        <time>2008-05-18T08:28:35Z</time>
      </trkpt>
      <trkpt lat="45.513546466827393" lon="8.971431255340576">
        <ele>152.9869384765625</ele>
        <time>2008-05-18T08:28:50Z</time>
      </trkpt>
      <trkpt lat="45.513653755187988" lon="8.971774578094482">
        <ele>151.064208984375</ele>
        <time>2008-05-18T08:28:57Z</time>
      </trkpt>
      <trkpt lat="45.513267517089844" lon="8.971860408782959">
        <ele>148.6610107421875</ele>
        <time>2008-05-18T08:29:07Z</time>
      </trkpt>
      <trkpt lat="45.512816905975342" lon="8.971860408782959">
        <ele>149.622314453125</ele>
        <time>2008-05-18T08:29:17Z</time>
      </trkpt>
      <trkpt lat="45.512387752532959" lon="8.971903324127197">
        <ele>150.10302734375</ele>
        <time>2008-05-18T08:29:25Z</time>
      </trkpt>
      <trkpt lat="45.512237548828125" lon="8.971967697143555">
        <ele>151.064208984375</ele>
        <time>2008-05-18T08:29:28Z</time>
      </trkpt>
      <trkpt lat="45.512173175811768" lon="8.972010612487793">
        <ele>151.064208984375</ele>
        <time>2008-05-18T08:29:30Z</time>
      </trkpt>
      <trkpt lat="45.512151718139648" lon="8.972225189208984">
        <ele>151.064208984375</ele>
        <time>2008-05-18T08:29:34Z</time>
      </trkpt>
      <trkpt lat="45.512430667877197" lon="8.972933292388916">
        <ele>151.544921875</ele>
        <time>2008-05-18T08:29:47Z</time>
      </trkpt>
      <trkpt lat="45.512452125549316" lon="8.972997665405273">
        <ele>151.544921875</ele>
        <time>2008-05-18T08:29:48Z</time>
      </trkpt>
      <trkpt lat="45.512430667877197" lon="8.973276615142822">
        <ele>152.0257568359375</ele>
        <time>2008-05-18T08:29:53Z</time>
      </trkpt>
      <trkpt lat="45.512344837188721" lon="8.973362445831299">
        <ele>151.064208984375</ele>
        <time>2008-05-18T08:29:55Z</time>
      </trkpt>
      <trkpt lat="45.511915683746338" lon="8.973641395568848">
        <ele>150.5836181640625</ele>
        <time>2008-05-18T08:30:03Z</time>
      </trkpt>
      <trkpt lat="45.5118727684021" lon="8.973855972290039">
        <ele>150.5836181640625</ele>
        <time>2008-05-18T08:30:07Z</time>
      </trkpt>
      <trkpt lat="45.511894226074219" lon="8.973898887634277">
        <ele>150.5836181640625</ele>
        <time>2008-05-18T08:30:08Z</time>
      </trkpt>
      <trkpt lat="45.512151718139648" lon="8.974714279174805">
        <ele>150.5836181640625</ele>
        <time>2008-05-18T08:30:22Z</time>
      </trkpt>
      <trkpt lat="45.512409210205078" lon="8.975529670715332">
        <ele>150.10302734375</ele>
        <time>2008-05-18T08:30:36Z</time>
      </trkpt>
      <trkpt lat="45.512666702270508" lon="8.97632360458374">
        <ele>149.622314453125</ele>
        <time>2008-05-18T08:30:50Z</time>
      </trkpt>
      <trkpt lat="45.513052940368652" lon="8.977396488189697">
        <ele>149.1416015625</ele>
        <time>2008-05-18T08:31:09Z</time>
      </trkpt>
      <trkpt lat="45.513160228729248" lon="8.97782564163208">
        <ele>148.6610107421875</ele>
        <time>2008-05-18T08:31:18Z</time>
      </trkpt>
      <trkpt lat="45.513095855712891" lon="8.977890014648438">
        <ele>148.180419921875</ele>
        <time>2008-05-18T08:31:22Z</time>
      </trkpt>
      <trkpt lat="45.512731075286865" lon="8.978211879730225">
        <ele>149.622314453125</ele>
        <time>2008-05-18T08:31:33Z</time>
      </trkpt>
      <trkpt lat="45.51236629486084" lon="8.978533744812012">
        <ele>150.5836181640625</ele>
        <time>2008-05-18T08:31:44Z</time>
      </trkpt>
      <trkpt lat="45.512044429779053" lon="8.978812694549561">
        <ele>150.10302734375</ele>
        <time>2008-05-18T08:31:54Z</time>
      </trkpt>
      <trkpt lat="45.511722564697266" lon="8.979113101959229">
        <ele>150.5836181640625</ele>
        <time>2008-05-18T08:32:05Z</time>
      </trkpt>
      <trkpt lat="45.511465072631836" lon="8.97932767868042">
        <ele>150.5836181640625</ele>
        <time>2008-05-18T08:32:14Z</time>
      </trkpt>
      <trkpt lat="45.511271953582764" lon="8.979499340057373">
        <ele>149.622314453125</ele>
        <time>2008-05-18T08:32:21Z</time>
      </trkpt>
      <trkpt lat="45.511465072631836" lon="8.980121612548828">
        <ele>150.5836181640625</ele>
        <time>2008-05-18T08:32:35Z</time>
      </trkpt>
      <trkpt lat="45.511636734008789" lon="8.98057222366333">
        <ele>150.5836181640625</ele>
        <time>2008-05-18T08:32:44Z</time>
      </trkpt>
      <trkpt lat="45.512065887451172" lon="8.981430530548096">
        <ele>151.064208984375</ele>
        <time>2008-05-18T08:33:01Z</time>
      </trkpt>
      <trkpt lat="45.512323379516602" lon="8.981966972351074">
        <ele>151.544921875</ele>
        <time>2008-05-18T08:33:11Z</time>
      </trkpt>
      <trkpt lat="45.512645244598389" lon="8.982653617858887">
        <ele>151.064208984375</ele>
        <time>2008-05-18T08:33:25Z</time>
      </trkpt>
      <trkpt lat="45.512688159942627" lon="8.983104228973389">
        <ele>151.544921875</ele>
        <time>2008-05-18T08:33:34Z</time>
      </trkpt>
      <trkpt lat="45.512838363647461" lon="8.98381233215332">
        <ele>151.064208984375</ele>
        <time>2008-05-18T08:33:48Z</time>
      </trkpt>
      <trkpt lat="45.513052940368652" lon="8.984541893005371">
        <ele>150.5836181640625</ele>
        <time>2008-05-18T08:34:02Z</time>
      </trkpt>
      <trkpt lat="45.513396263122559" lon="8.985464572906494">
        <ele>150.5836181640625</ele>
        <time>2008-05-18T08:34:21Z</time>
      </trkpt>
      <trkpt lat="45.51361083984375" lon="8.985979557037354">
        <ele>150.10302734375</ele>
        <time>2008-05-18T08:34:32Z</time>
      </trkpt>
      <trkpt lat="45.514168739318848" lon="8.986301422119141">
        <ele>149.622314453125</ele>
        <time>2008-05-18T08:34:46Z</time>
      </trkpt>
      <trkpt lat="45.514082908630371" lon="8.986515998840332">
        <ele>151.064208984375</ele>
        <time>2008-05-18T08:34:50Z</time>
      </trkpt>
      <trkpt lat="45.513675212860107" lon="8.986902236938477">
        <ele>152.0257568359375</ele>
        <time>2008-05-18T08:35:00Z</time>
      </trkpt>
      <trkpt lat="45.512838363647461" lon="8.987631797790527">
        <ele>151.544921875</ele>
        <time>2008-05-18T08:35:18Z</time>
      </trkpt>
      <trkpt lat="45.512216091156006" lon="8.988168239593506">
        <ele>149.1416015625</ele>
        <time>2008-05-18T08:35:29Z</time>
      </trkpt>
      <trkpt lat="45.511808395385742" lon="8.98857593536377">
        <ele>149.1416015625</ele>
        <time>2008-05-18T08:35:37Z</time>
      </trkpt>
      <trkpt lat="45.511679649353027" lon="8.988876342773438">
        <ele>149.622314453125</ele>
        <time>2008-05-18T08:35:42Z</time>
      </trkpt>
      <trkpt lat="45.511786937713623" lon="8.989112377166748">
        <ele>149.622314453125</ele>
        <time>2008-05-18T08:35:46Z</time>
      </trkpt>
      <trkpt lat="45.512065887451172" lon="8.989734649658203">
        <ele>149.622314453125</ele>
        <time>2008-05-18T08:35:56Z</time>
      </trkpt>
      <trkpt lat="45.512301921844482" lon="8.990271091461182">
        <ele>149.622314453125</ele>
        <time>2008-05-18T08:36:05Z</time>
      </trkpt>
      <trkpt lat="45.512516498565674" lon="8.990786075592041">
        <ele>150.10302734375</ele>
        <time>2008-05-18T08:36:15Z</time>
      </trkpt>
      <trkpt lat="45.512731075286865" lon="8.991343975067139">
        <ele>150.10302734375</ele>
        <time>2008-05-18T08:36:26Z</time>
      </trkpt>
      <trkpt lat="45.512988567352295" lon="8.991987705230713">
        <ele>150.10302734375</ele>
        <time>2008-05-18T08:36:37Z</time>
      </trkpt>
      <trkpt lat="45.513052940368652" lon="8.992159366607666">
        <ele>150.10302734375</ele>
        <time>2008-05-18T08:36:40Z</time>
      </trkpt>
      <trkpt lat="45.513310432434082" lon="8.9923095703125">
        <ele>149.622314453125</ele>
        <time>2008-05-18T08:36:47Z</time>
      </trkpt>
      <trkpt lat="45.513482093811035" lon="8.992502689361572">
        <ele>149.622314453125</ele>
        <time>2008-05-18T08:36:53Z</time>
      </trkpt>
      <trkpt lat="45.513632297515869" lon="8.992910385131836">
        <ele>149.1416015625</ele>
        <time>2008-05-18T08:37:02Z</time>
      </trkpt>
      <trkpt lat="45.513803958892822" lon="8.993875980377197">
        <ele>149.1416015625</ele>
        <time>2008-05-18T08:37:19Z</time>
      </trkpt>
      <trkpt lat="45.513932704925537" lon="8.994541168212891">
        <ele>148.6610107421875</ele>
        <time>2008-05-18T08:37:32Z</time>
      </trkpt>
      <trkpt lat="45.514233112335205" lon="8.994991779327393">
        <ele>148.6610107421875</ele>
        <time>2008-05-18T08:37:46Z</time>
      </trkpt>
      <trkpt lat="45.514962673187256" lon="8.994584083557129">
        <ele>148.6610107421875</ele>
        <time>2008-05-18T08:37:55Z</time>
      </trkpt>
      <trkpt lat="45.515735149383545" lon="8.994498252868652">
        <ele>148.6610107421875</ele>
        <time>2008-05-18T08:38:14Z</time>
      </trkpt>
      <trkpt lat="45.516142845153809" lon="8.994283676147461">
        <ele>149.1416015625</ele>
        <time>2008-05-18T08:38:24Z</time>
      </trkpt>
      <trkpt lat="45.516743659973145" lon="8.99406909942627">
        <ele>149.622314453125</ele>
        <time>2008-05-18T08:38:39Z</time>
      </trkpt>
      <trkpt lat="45.517022609710693" lon="8.993897438049316">
        <ele>149.622314453125</ele>
        <time>2008-05-18T08:38:48Z</time>
      </trkpt>
      <trkpt lat="45.517086982727051" lon="8.993961811065674">
        <ele>149.622314453125</ele>
        <time>2008-05-18T08:38:50Z</time>
      </trkpt>
      <trkpt lat="45.517301559448242" lon="8.99381160736084">
        <ele>150.10302734375</ele>
        <time>2008-05-18T08:38:58Z</time>
      </trkpt>
      <trkpt lat="45.517644882202148" lon="8.993468284606934">
        <ele>151.064208984375</ele>
        <time>2008-05-18T08:39:08Z</time>
      </trkpt>
      <trkpt lat="45.517880916595459" lon="8.993189334869385">
        <ele>151.544921875</ele>
        <time>2008-05-18T08:39:15Z</time>
      </trkpt>
      <trkpt lat="45.518031120300293" lon="8.993275165557861">
        <ele>151.544921875</ele>
        <time>2008-05-18T08:39:20Z</time>
      </trkpt>
      <trkpt lat="45.518310070037842" lon="8.993725776672363">
        <ele>152.9869384765625</ele>
        <time>2008-05-18T08:39:32Z</time>
      </trkpt>
      <trkpt lat="45.518653392791748" lon="8.994219303131104">
        <ele>153.4676513671875</ele>
        <time>2008-05-18T08:39:46Z</time>
      </trkpt>
      <trkpt lat="45.518889427185059" lon="8.994519710540772">
        <ele>153.4676513671875</ele>
        <time>2008-05-18T08:39:55Z</time>
      </trkpt>
      <trkpt lat="45.519168376922607" lon="8.994948863983154">
        <ele>152.50634765625</ele>
        <time>2008-05-18T08:40:05Z</time>
      </trkpt>
      <trkpt lat="45.519382953643799" lon="8.994927406311035">
        <ele>152.50634765625</ele>
        <time>2008-05-18T08:40:10Z</time>
      </trkpt>
      <trkpt lat="45.519554615020752" lon="8.994884490966797">
        <ele>152.50634765625</ele>
        <time>2008-05-18T08:40:14Z</time>
      </trkpt>
      <trkpt lat="45.519683361053467" lon="8.995013236999512">
        <ele>152.50634765625</ele>
        <time>2008-05-18T08:40:18Z</time>
      </trkpt>
      <trkpt lat="45.52011251449585" lon="8.995721340179443">
        <ele>152.0257568359375</ele>
        <time>2008-05-18T08:40:34Z</time>
      </trkpt>
      <trkpt lat="45.520176887512207" lon="8.99580717086792">
        <ele>152.0257568359375</ele>
        <time>2008-05-18T08:40:36Z</time>
      </trkpt>
      <trkpt lat="45.520284175872803" lon="8.995978832244873">
        <ele>152.50634765625</ele>
        <time>2008-05-18T08:40:40Z</time>
      </trkpt>
      <trkpt lat="45.520412921905518" lon="8.996279239654541">
        <ele>152.50634765625</ele>
        <time>2008-05-18T08:40:46Z</time>
      </trkpt>
      <trkpt lat="45.520455837249756" lon="8.996601104736328">
        <ele>152.9869384765625</ele>
        <time>2008-05-18T08:40:51Z</time>
      </trkpt>
      <trkpt lat="45.520520210266113" lon="8.996837139129639">
        <ele>152.9869384765625</ele>
        <time>2008-05-18T08:40:55Z</time>
      </trkpt>
      <trkpt lat="45.520584583282471" lon="8.996922969818115">
        <ele>153.4676513671875</ele>
        <time>2008-05-18T08:40:57Z</time>
      </trkpt>
      <trkpt lat="45.520756244659424" lon="8.997459411621094">
        <ele>153.9483642578125</ele>
        <time>2008-05-18T08:41:05Z</time>
      </trkpt>
      <trkpt lat="45.520992279052734" lon="8.99829626083374">
        <ele>153.9483642578125</ele>
        <time>2008-05-18T08:41:15Z</time>
      </trkpt>
      <trkpt lat="45.521271228790283" lon="8.999218940734863">
        <ele>153.9483642578125</ele>
        <time>2008-05-18T08:41:26Z</time>
      </trkpt>
      <trkpt lat="45.521550178527832" lon="8.999691009521484">
        <ele>153.9483642578125</ele>
        <time>2008-05-18T08:41:33Z</time>
      </trkpt>
      <trkpt lat="45.521957874298096" lon="9.000141620635986">
        <ele>150.5836181640625</ele>
        <time>2008-05-18T08:41:40Z</time>
      </trkpt>
      <trkpt lat="45.522558689117432" lon="9.000763893127441">
        <ele>146.2578125</ele>
        <time>2008-05-18T08:41:48Z</time>
      </trkpt>
      <trkpt lat="45.52283763885498" lon="9.001085758209229">
        <ele>148.180419921875</ele>
        <time>2008-05-18T08:41:53Z</time>
      </trkpt>
      <trkpt lat="45.522923469543457" lon="9.001193046569824">
        <ele>148.6610107421875</ele>
        <time>2008-05-18T08:41:55Z</time>
      </trkpt>
      <trkpt lat="45.522923469543457" lon="9.001493453979492">
        <ele>149.1416015625</ele>
        <time>2008-05-18T08:41:59Z</time>
      </trkpt>
      <trkpt lat="45.522730350494385" lon="9.001686573028565">
        <ele>149.622314453125</ele>
        <time>2008-05-18T08:42:03Z</time>
      </trkpt>
      <trkpt lat="45.522322654724121" lon="9.001986980438232">
        <ele>152.0257568359375</ele>
        <time>2008-05-18T08:42:12Z</time>
      </trkpt>
      <trkpt lat="45.522258281707764" lon="9.001922607421875">
        <ele>152.0257568359375</ele>
        <time>2008-05-18T08:42:16Z</time>
      </trkpt>
      <trkpt lat="45.52234411239624" lon="9.001858234405518">
        <ele>152.50634765625</ele>
        <time>2008-05-18T08:42:20Z</time>
      </trkpt>
      <trkpt lat="45.522537231445313" lon="9.001643657684326">
        <ele>152.50634765625</ele>
        <time>2008-05-18T08:42:24Z</time>
      </trkpt>
      <trkpt lat="45.522558689117432" lon="9.001386165618897">
        <ele>151.064208984375</ele>
        <time>2008-05-18T08:42:28Z</time>
      </trkpt>
      <trkpt lat="45.522515773773193" lon="9.001343250274658">
        <ele>151.064208984375</ele>
        <time>2008-05-18T08:42:29Z</time>
      </trkpt>
      <trkpt lat="45.522472858428955" lon="9.000957012176514">
        <ele>152.0257568359375</ele>
        <time>2008-05-18T08:42:34Z</time>
      </trkpt>
      <trkpt lat="45.522558689117432" lon="9.00080680847168">
        <ele>152.0257568359375</ele>
        <time>2008-05-18T08:42:36Z</time>
      </trkpt>
      <trkpt lat="45.522923469543457" lon="9.000205993652344">
        <ele>151.544921875</ele>
        <time>2008-05-18T08:42:45Z</time>
      </trkpt>
      <trkpt lat="45.523309707641602" lon="8.999862670898438">
        <ele>152.0257568359375</ele>
        <time>2008-05-18T08:42:53Z</time>
      </trkpt>
      <trkpt lat="45.523374080657959" lon="8.999841213226318">
        <ele>152.0257568359375</ele>
        <time>2008-05-18T08:42:54Z</time>
      </trkpt>
      <trkpt lat="45.523996353149414" lon="8.999519348144531">
        <ele>153.9483642578125</ele>
        <time>2008-05-18T08:43:06Z</time>
      </trkpt>
      <trkpt lat="45.52410364151001" lon="8.999433517456055">
        <ele>153.9483642578125</ele>
        <time>2008-05-18T08:43:08Z</time>
      </trkpt>
      <trkpt lat="45.52459716796875" lon="8.998939990997315">
        <ele>153.4676513671875</ele>
        <time>2008-05-18T08:43:19Z</time>
      </trkpt>
      <trkpt lat="45.524682998657227" lon="8.998854160308838">
        <ele>153.4676513671875</ele>
        <time>2008-05-18T08:43:21Z</time>
      </trkpt>
      <trkpt lat="45.524919033050537" lon="8.998661041259766">
        <ele>153.9483642578125</ele>
        <time>2008-05-18T08:43:26Z</time>
      </trkpt>
      <trkpt lat="45.525155067443848" lon="8.998339176177979">
        <ele>154.428955078125</ele>
        <time>2008-05-18T08:43:32Z</time>
      </trkpt>
      <trkpt lat="45.525519847869873" lon="8.997888565063477">
        <ele>154.428955078125</ele>
        <time>2008-05-18T08:43:41Z</time>
      </trkpt>
      <trkpt lat="45.525734424591064" lon="8.997867107391357">
        <ele>154.428955078125</ele>
        <time>2008-05-18T08:43:46Z</time>
      </trkpt>
      <trkpt lat="45.525820255279541" lon="8.998124599456787">
        <ele>154.428955078125</ele>
        <time>2008-05-18T08:43:50Z</time>
      </trkpt>
      <trkpt lat="45.525734424591064" lon="8.998253345489502">
        <ele>154.9095458984375</ele>
        <time>2008-05-18T08:43:53Z</time>
      </trkpt>
      <trkpt lat="45.525326728820801" lon="8.998703956604004">
        <ele>154.9095458984375</ele>
        <time>2008-05-18T08:44:02Z</time>
      </trkpt>
      <trkpt lat="45.525026321411133" lon="8.999068737030029">
        <ele>155.3902587890625</ele>
        <time>2008-05-18T08:44:09Z</time>
      </trkpt>
      <trkpt lat="45.524919033050537" lon="8.999412059783936">
        <ele>155.8709716796875</ele>
        <time>2008-05-18T08:44:14Z</time>
      </trkpt>
      <trkpt lat="45.524897575378418" lon="8.99954080581665">
        <ele>155.8709716796875</ele>
        <time>2008-05-18T08:44:16Z</time>
      </trkpt>
      <trkpt lat="45.524768829345703" lon="8.999454975128174">
        <ele>155.3902587890625</ele>
        <time>2008-05-18T08:44:20Z</time>
      </trkpt>
      <trkpt lat="45.524575710296631" lon="8.999218940734863">
        <ele>153.9483642578125</ele>
        <time>2008-05-18T08:44:25Z</time>
      </trkpt>
      <trkpt lat="45.524425506591797" lon="8.999326229095459">
        <ele>153.9483642578125</ele>
        <time>2008-05-18T08:44:28Z</time>
      </trkpt>
      <trkpt lat="45.524017810821533" lon="9.000012874603272">
        <ele>154.428955078125</ele>
        <time>2008-05-18T08:44:38Z</time>
      </trkpt>
      <trkpt lat="45.523545742034912" lon="9.000678062438965">
        <ele>152.9869384765625</ele>
        <time>2008-05-18T08:44:48Z</time>
      </trkpt>
      <trkpt lat="45.523266792297363" lon="9.001021385192871">
        <ele>151.064208984375</ele>
        <time>2008-05-18T08:44:53Z</time>
      </trkpt>
      <trkpt lat="45.522944927215576" lon="9.00104284286499">
        <ele>150.5836181640625</ele>
        <time>2008-05-18T08:44:57Z</time>
      </trkpt>
      <trkpt lat="45.522751808166504" lon="9.000892639160156">
        <ele>149.1416015625</ele>
        <time>2008-05-18T08:45:00Z</time>
      </trkpt>
      <trkpt lat="45.522129535675049" lon="9.000205993652344">
        <ele>145.777099609375</ele>
        <time>2008-05-18T08:45:09Z</time>
      </trkpt>
      <trkpt lat="45.521700382232666" lon="8.999755382537842">
        <ele>150.5836181640625</ele>
        <time>2008-05-18T08:45:16Z</time>
      </trkpt>
      <trkpt lat="45.521378517150879" lon="8.999369144439697">
        <ele>152.0257568359375</ele>
        <time>2008-05-18T08:45:23Z</time>
      </trkpt>
      <trkpt lat="45.521249771118164" lon="8.998939990997315">
        <ele>152.9869384765625</ele>
        <time>2008-05-18T08:45:28Z</time>
      </trkpt>
      <trkpt lat="45.520992279052734" lon="8.998038768768311">
        <ele>153.4676513671875</ele>
        <time>2008-05-18T08:45:38Z</time>
      </trkpt>
      <trkpt lat="45.520756244659424" lon="8.997094631195068">
        <ele>154.428955078125</ele>
        <time>2008-05-18T08:45:49Z</time>
      </trkpt>
      <trkpt lat="45.520734786987305" lon="8.997008800506592">
        <ele>154.428955078125</ele>
        <time>2008-05-18T08:45:50Z</time>
      </trkpt>
      <trkpt lat="45.520820617675781" lon="8.996601104736328">
        <ele>154.428955078125</ele>
        <time>2008-05-18T08:45:55Z</time>
      </trkpt>
      <trkpt lat="45.521013736724854" lon="8.996365070343018">
        <ele>153.9483642578125</ele>
        <time>2008-05-18T08:45:59Z</time>
      </trkpt>
      <trkpt lat="45.521678924560547" lon="8.995893001556397">
        <ele>154.428955078125</ele>
        <time>2008-05-18T08:46:11Z</time>
      </trkpt>
      <trkpt lat="45.521764755249023" lon="8.995785713195801">
        <ele>154.428955078125</ele>
        <time>2008-05-18T08:46:13Z</time>
      </trkpt>
      <trkpt lat="45.52234411239624" lon="8.995378017425537">
        <ele>154.428955078125</ele>
        <time>2008-05-18T08:46:24Z</time>
      </trkpt>
      <trkpt lat="45.522451400756836" lon="8.995292186737061">
        <ele>154.428955078125</ele>
        <time>2008-05-18T08:46:26Z</time>
      </trkpt>
      <trkpt lat="45.522558689117432" lon="8.995099067687988">
        <ele>154.428955078125</ele>
        <time>2008-05-18T08:46:30Z</time>
      </trkpt>
      <trkpt lat="45.522472858428955" lon="8.994863033294678">
        <ele>154.428955078125</ele>
        <time>2008-05-18T08:46:34Z</time>
      </trkpt>
      <trkpt lat="45.522000789642334" lon="8.994026184082031">
        <ele>155.3902587890625</ele>
        <time>2008-05-18T08:46:46Z</time>
      </trkpt>
      <trkpt lat="45.521550178527832" lon="8.993167877197266">
        <ele>154.428955078125</ele>
        <time>2008-05-18T08:46:59Z</time>
      </trkpt>
      <trkpt lat="45.521121025085449" lon="8.992652893066406">
        <ele>155.3902587890625</ele>
        <time>2008-05-18T08:47:09Z</time>
      </trkpt>
      <trkpt lat="45.52060604095459" lon="8.99205207824707">
        <ele>156.3515625</ele>
        <time>2008-05-18T08:47:22Z</time>
      </trkpt>
      <trkpt lat="45.520305633544922" lon="8.991429805755615">
        <ele>156.8321533203125</ele>
        <time>2008-05-18T08:47:33Z</time>
      </trkpt>
      <trkpt lat="45.519940853118896" lon="8.990335464477539">
        <ele>157.7935791015625</ele>
        <time>2008-05-18T08:47:50Z</time>
      </trkpt>
      <trkpt lat="45.519897937774658" lon="8.990120887756348">
        <ele>157.7935791015625</ele>
        <time>2008-05-18T08:47:53Z</time>
      </trkpt>
      <trkpt lat="45.51959753036499" lon="8.989605903625488">
        <ele>157.3128662109375</ele>
        <time>2008-05-18T08:48:02Z</time>
      </trkpt>
      <trkpt lat="45.519254207611084" lon="8.98906946182251">
        <ele>157.3128662109375</ele>
        <time>2008-05-18T08:48:12Z</time>
      </trkpt>
      <trkpt lat="45.518953800201416" lon="8.988597393035889">
        <ele>157.7935791015625</ele>
        <time>2008-05-18T08:48:21Z</time>
      </trkpt>
      <trkpt lat="45.518803596496582" lon="8.988232612609863">
        <ele>157.7935791015625</ele>
        <time>2008-05-18T08:48:27Z</time>
      </trkpt>
      <trkpt lat="45.518631935119629" lon="8.987545967102051">
        <ele>157.3128662109375</ele>
        <time>2008-05-18T08:48:38Z</time>
      </trkpt>
      <trkpt lat="45.51835298538208" lon="8.986880779266357">
        <ele>156.8321533203125</ele>
        <time>2008-05-18T08:48:50Z</time>
      </trkpt>
      <trkpt lat="45.518202781677246" lon="8.986451625823975">
        <ele>156.8321533203125</ele>
        <time>2008-05-18T08:48:58Z</time>
      </trkpt>
      <trkpt lat="45.518288612365723" lon="8.986301422119141">
        <ele>157.3128662109375</ele>
        <time>2008-05-18T08:49:02Z</time>
      </trkpt>
      <trkpt lat="45.518331527709961" lon="8.98606538772583">
        <ele>157.7935791015625</ele>
        <time>2008-05-18T08:49:06Z</time>
      </trkpt>
      <trkpt lat="45.518310070037842" lon="8.985872268676758">
        <ele>158.274169921875</ele>
        <time>2008-05-18T08:49:10Z</time>
      </trkpt>
      <trkpt lat="45.518310070037842" lon="8.985850811004639">
        <ele>158.274169921875</ele>
        <time>2008-05-18T08:49:11Z</time>
      </trkpt>
      <trkpt lat="45.518438816070557" lon="8.985722064971924">
        <ele>158.274169921875</ele>
        <time>2008-05-18T08:49:15Z</time>
      </trkpt>
      <trkpt lat="45.518417358398437" lon="8.985528945922852">
        <ele>159.7161865234375</ele>
        <time>2008-05-18T08:49:19Z</time>
      </trkpt>
      <trkpt lat="45.518331527709961" lon="8.985464572906494">
        <ele>159.2354736328125</ele>
        <time>2008-05-18T08:49:21Z</time>
      </trkpt>
      <trkpt lat="45.518245697021484" lon="8.985378742218018">
        <ele>159.2354736328125</ele>
        <time>2008-05-18T08:49:23Z</time>
      </trkpt>
      <trkpt lat="45.517838001251221" lon="8.98482084274292">
        <ele>158.274169921875</ele>
        <time>2008-05-18T08:49:33Z</time>
      </trkpt>
      <trkpt lat="45.517473220825195" lon="8.984241485595703">
        <ele>156.8321533203125</ele>
        <time>2008-05-18T08:49:43Z</time>
      </trkpt>
      <trkpt lat="45.517151355743408" lon="8.98381233215332">
        <ele>155.8709716796875</ele>
        <time>2008-05-18T08:49:51Z</time>
      </trkpt>
      <trkpt lat="45.517065525054932" lon="8.983726501464844">
        <ele>155.8709716796875</ele>
        <time>2008-05-18T08:49:53Z</time>
      </trkpt>
      <trkpt lat="45.516979694366455" lon="8.983426094055176">
        <ele>155.8709716796875</ele>
        <time>2008-05-18T08:49:57Z</time>
      </trkpt>
      <trkpt lat="45.517065525054932" lon="8.98308277130127">
        <ele>155.8709716796875</ele>
        <time>2008-05-18T08:50:01Z</time>
      </trkpt>
      <trkpt lat="45.517151355743408" lon="8.982932567596436">
        <ele>156.3515625</ele>
        <time>2008-05-18T08:50:03Z</time>
      </trkpt>
      <trkpt lat="45.517988204956055" lon="8.981945514678955">
        <ele>157.3128662109375</ele>
        <time>2008-05-18T08:50:20Z</time>
      </trkpt>
      <trkpt lat="45.518031120300293" lon="8.981881141662598">
        <ele>156.8321533203125</ele>
        <time>2008-05-18T08:50:21Z</time>
      </trkpt>
      <trkpt lat="45.518267154693604" lon="8.981902599334717">
        <ele>157.3128662109375</ele>
        <time>2008-05-18T08:50:25Z</time>
      </trkpt>
      <trkpt lat="45.51835298538208" lon="8.982052803039551">
        <ele>156.8321533203125</ele>
        <time>2008-05-18T08:50:27Z</time>
      </trkpt>
      <trkpt lat="45.518503189086914" lon="8.982245922088623">
        <ele>156.8321533203125</ele>
        <time>2008-05-18T08:50:31Z</time>
      </trkpt>
      <trkpt lat="45.518889427185059" lon="8.981988430023193">
        <ele>156.8321533203125</ele>
        <time>2008-05-18T08:50:38Z</time>
      </trkpt>
      <trkpt lat="45.519468784332275" lon="8.981387615203857">
        <ele>156.3515625</ele>
        <time>2008-05-18T08:50:50Z</time>
      </trkpt>
      <trkpt lat="45.519704818725586" lon="8.981151580810547">
        <ele>158.7547607421875</ele>
        <time>2008-05-18T08:50:55Z</time>
      </trkpt>
      <trkpt lat="45.519919395446777" lon="8.981344699859619">
        <ele>157.7935791015625</ele>
        <time>2008-05-18T08:51:01Z</time>
      </trkpt>
      <trkpt lat="45.52011251449585" lon="8.981409072875977">
        <ele>157.3128662109375</ele>
        <time>2008-05-18T08:51:05Z</time>
      </trkpt>
      <trkpt lat="45.520133972167969" lon="8.981387615203857">
        <ele>157.3128662109375</ele>
        <time>2008-05-18T08:51:06Z</time>
      </trkpt>
      <trkpt lat="45.520648956298828" lon="8.980937004089356">
        <ele>156.3515625</ele>
        <time>2008-05-18T08:51:17Z</time>
      </trkpt>
      <trkpt lat="45.5208420753479" lon="8.980808258056641">
        <ele>156.3515625</ele>
        <time>2008-05-18T08:51:21Z</time>
      </trkpt>
      <trkpt lat="45.520927906036377" lon="8.980808258056641">
        <ele>156.3515625</ele>
        <time>2008-05-18T08:51:23Z</time>
      </trkpt>
      <trkpt lat="45.521056652069092" lon="8.981044292449951">
        <ele>155.3902587890625</ele>
        <time>2008-05-18T08:51:28Z</time>
      </trkpt>
      <trkpt lat="45.521206855773926" lon="8.981130123138428">
        <ele>155.3902587890625</ele>
        <time>2008-05-18T08:51:33Z</time>
      </trkpt>
      <trkpt lat="45.521421432495117" lon="8.981001377105713">
        <ele>155.3902587890625</ele>
        <time>2008-05-18T08:51:38Z</time>
      </trkpt>
      <trkpt lat="45.521571636199951" lon="8.980915546417236">
        <ele>155.3902587890625</ele>
        <time>2008-05-18T08:51:41Z</time>
      </trkpt>
      <trkpt lat="45.521807670593262" lon="8.98082971572876">
        <ele>155.3902587890625</ele>
        <time>2008-05-18T08:51:46Z</time>
      </trkpt>
      <trkpt lat="45.522623062133789" lon="8.980915546417236">
        <ele>153.4676513671875</ele>
        <time>2008-05-18T08:52:06Z</time>
      </trkpt>
      <trkpt lat="45.522708892822266" lon="8.981044292449951">
        <ele>153.4676513671875</ele>
        <time>2008-05-18T08:52:10Z</time>
      </trkpt>
      <trkpt lat="45.523009300231934" lon="8.9813232421875">
        <ele>153.4676513671875</ele>
        <time>2008-05-18T08:52:16Z</time>
      </trkpt>
      <trkpt lat="45.523159503936768" lon="8.981451988220215">
        <ele>153.4676513671875</ele>
        <time>2008-05-18T08:52:19Z</time>
      </trkpt>
      <trkpt lat="45.523395538330078" lon="8.981881141662598">
        <ele>153.9483642578125</ele>
        <time>2008-05-18T08:52:27Z</time>
      </trkpt>
      <trkpt lat="45.52361011505127" lon="8.982353210449219">
        <ele>154.9095458984375</ele>
        <time>2008-05-18T08:52:35Z</time>
      </trkpt>
      <trkpt lat="45.523717403411865" lon="8.982353210449219">
        <ele>154.9095458984375</ele>
        <time>2008-05-18T08:52:38Z</time>
      </trkpt>
      <trkpt lat="45.523781776428223" lon="8.982288837432861">
        <ele>155.3902587890625</ele>
        <time>2008-05-18T08:52:40Z</time>
      </trkpt>
      <trkpt lat="45.52384614944458" lon="8.982288837432861">
        <ele>155.3902587890625</ele>
        <time>2008-05-18T08:52:42Z</time>
      </trkpt>
      <trkpt lat="45.523931980133057" lon="8.982481956481934">
        <ele>155.3902587890625</ele>
        <time>2008-05-18T08:52:46Z</time>
      </trkpt>
      <trkpt lat="45.524060726165771" lon="8.982653617858887">
        <ele>155.3902587890625</ele>
        <time>2008-05-18T08:52:50Z</time>
      </trkpt>
      <trkpt lat="45.524361133575439" lon="8.983018398284912">
        <ele>154.9095458984375</ele>
        <time>2008-05-18T08:52:59Z</time>
      </trkpt>
      <trkpt lat="45.524446964263916" lon="8.983018398284912">
        <ele>154.428955078125</ele>
        <time>2008-05-18T08:53:01Z</time>
      </trkpt>
      <trkpt lat="45.52459716796875" lon="8.982911109924316">
        <ele>154.428955078125</ele>
        <time>2008-05-18T08:53:04Z</time>
      </trkpt>
      <trkpt lat="45.525004863739014" lon="8.982589244842529">
        <ele>153.9483642578125</ele>
        <time>2008-05-18T08:53:14Z</time>
      </trkpt>
      <trkpt lat="45.525455474853516" lon="8.982203006744385">
        <ele>154.428955078125</ele>
        <time>2008-05-18T08:53:25Z</time>
      </trkpt>
      <trkpt lat="45.525863170623779" lon="8.981859683990479">
        <ele>154.9095458984375</ele>
        <time>2008-05-18T08:53:36Z</time>
      </trkpt>
      <trkpt lat="45.525798797607422" lon="8.981623649597168">
        <ele>154.9095458984375</ele>
        <time>2008-05-18T08:53:40Z</time>
      </trkpt>
      <trkpt lat="45.525541305541992" lon="8.980958461761475">
        <ele>155.3902587890625</ele>
        <time>2008-05-18T08:53:50Z</time>
      </trkpt>
      <trkpt lat="45.525240898132324" lon="8.980207443237305">
        <ele>155.8709716796875</ele>
        <time>2008-05-18T08:54:01Z</time>
      </trkpt>
      <trkpt lat="45.524897575378418" lon="8.979220390319824">
        <ele>159.7161865234375</ele>
        <time>2008-05-18T08:54:15Z</time>
      </trkpt>
      <trkpt lat="45.524575710296631" lon="8.978362083435059">
        <ele>158.7547607421875</ele>
        <time>2008-05-18T08:54:28Z</time>
      </trkpt>
      <trkpt lat="45.524446964263916" lon="8.978040218353272">
        <ele>158.274169921875</ele>
        <time>2008-05-18T08:54:33Z</time>
      </trkpt>
      <trkpt lat="45.524489879608154" lon="8.977847099304199">
        <ele>158.274169921875</ele>
        <time>2008-05-18T08:54:37Z</time>
      </trkpt>
      <trkpt lat="45.524747371673584" lon="8.977632522583008">
        <ele>157.3128662109375</ele>
        <time>2008-05-18T08:54:44Z</time>
      </trkpt>
      <trkpt lat="45.525391101837158" lon="8.977096080780029">
        <ele>157.3128662109375</ele>
        <time>2008-05-18T08:54:59Z</time>
      </trkpt>
      <trkpt lat="45.525991916656494" lon="8.976624011993408">
        <ele>157.3128662109375</ele>
        <time>2008-05-18T08:55:13Z</time>
      </trkpt>
      <trkpt lat="45.526077747344971" lon="8.976559638977051">
        <ele>157.3128662109375</ele>
        <time>2008-05-18T08:55:15Z</time>
      </trkpt>
      <trkpt lat="45.526399612426758" lon="8.976216316223145">
        <ele>157.3128662109375</ele>
        <time>2008-05-18T08:55:25Z</time>
      </trkpt>
      <trkpt lat="45.526742935180664" lon="8.975787162780762">
        <ele>157.3128662109375</ele>
        <time>2008-05-18T08:55:37Z</time>
      </trkpt>
      <trkpt lat="45.526914596557617" lon="8.97559404373169">
        <ele>157.3128662109375</ele>
        <time>2008-05-18T08:55:43Z</time>
      </trkpt>
      <trkpt lat="45.526914596557617" lon="8.975443840026856">
        <ele>157.7935791015625</ele>
        <time>2008-05-18T08:55:47Z</time>
      </trkpt>
      <trkpt lat="45.526700019836426" lon="8.975143432617188">
        <ele>158.274169921875</ele>
        <time>2008-05-18T08:55:55Z</time>
      </trkpt>
      <trkpt lat="45.526292324066162" lon="8.974521160125732">
        <ele>158.274169921875</ele>
        <time>2008-05-18T08:56:10Z</time>
      </trkpt>
      <trkpt lat="45.526227951049805" lon="8.974478244781494">
        <ele>158.274169921875</ele>
        <time>2008-05-18T08:56:12Z</time>
      </trkpt>
      <trkpt lat="45.526013374328613" lon="8.974692821502686">
        <ele>158.7547607421875</ele>
        <time>2008-05-18T08:56:19Z</time>
      </trkpt>
      <trkpt lat="45.525648593902588" lon="8.975036144256592">
        <ele>158.7547607421875</ele>
        <time>2008-05-18T08:56:30Z</time>
      </trkpt>
      <trkpt lat="45.52534818649292" lon="8.975315093994141">
        <ele>160.677490234375</ele>
        <time>2008-05-18T08:56:39Z</time>
      </trkpt>
      <trkpt lat="45.524919033050537" lon="8.975701332092285">
        <ele>161.158203125</ele>
        <time>2008-05-18T08:56:50Z</time>
      </trkpt>
      <trkpt lat="45.524554252624512" lon="8.976044654846191">
        <ele>160.677490234375</ele>
        <time>2008-05-18T08:57:00Z</time>
      </trkpt>
      <trkpt lat="45.524168014526367" lon="8.976366519927979">
        <ele>158.7547607421875</ele>
        <time>2008-05-18T08:57:10Z</time>
      </trkpt>
      <trkpt lat="45.523781776428223" lon="8.976709842681885">
        <ele>157.7935791015625</ele>
        <time>2008-05-18T08:57:20Z</time>
      </trkpt>
      <trkpt lat="45.523331165313721" lon="8.977096080780029">
        <ele>158.274169921875</ele>
        <time>2008-05-18T08:57:30Z</time>
      </trkpt>
      <trkpt lat="45.52283763885498" lon="8.977546691894531">
        <ele>157.3128662109375</ele>
        <time>2008-05-18T08:57:41Z</time>
      </trkpt>
      <trkpt lat="45.522322654724121" lon="8.978018760681152">
        <ele>158.274169921875</ele>
        <time>2008-05-18T08:57:53Z</time>
      </trkpt>
      <trkpt lat="45.521743297576904" lon="8.978512287139893">
        <ele>155.8709716796875</ele>
        <time>2008-05-18T08:58:06Z</time>
      </trkpt>
      <trkpt lat="45.521228313446045" lon="8.978877067565918">
        <ele>152.9869384765625</ele>
        <time>2008-05-18T08:58:19Z</time>
      </trkpt>
      <trkpt lat="45.520777702331543" lon="8.979263305664063">
        <ele>152.9869384765625</ele>
        <time>2008-05-18T08:58:31Z</time>
      </trkpt>
      <trkpt lat="45.520412921905518" lon="8.97958517074585">
        <ele>152.9869384765625</ele>
        <time>2008-05-18T08:58:39Z</time>
      </trkpt>
      <trkpt lat="45.519769191741943" lon="8.980014324188232">
        <ele>152.9869384765625</ele>
        <time>2008-05-18T08:58:52Z</time>
      </trkpt>
      <trkpt lat="45.519275665283203" lon="8.980507850646973">
        <ele>153.9483642578125</ele>
        <time>2008-05-18T08:59:03Z</time>
      </trkpt>
      <trkpt lat="45.518674850463867" lon="8.981237411499023">
        <ele>152.9869384765625</ele>
        <time>2008-05-18T08:59:17Z</time>
      </trkpt>
      <trkpt lat="45.518267154693604" lon="8.981709480285645">
        <ele>153.9483642578125</ele>
        <time>2008-05-18T08:59:26Z</time>
      </trkpt>
      <trkpt lat="45.518074035644531" lon="8.981623649597168">
        <ele>153.4676513671875</ele>
        <time>2008-05-18T08:59:32Z</time>
      </trkpt>
      <trkpt lat="45.51785945892334" lon="8.981173038482666">
        <ele>153.4676513671875</ele>
        <time>2008-05-18T08:59:40Z</time>
      </trkpt>
      <trkpt lat="45.517580509185791" lon="8.980550765991211">
        <ele>154.428955078125</ele>
        <time>2008-05-18T08:59:51Z</time>
      </trkpt>
      <trkpt lat="45.51710844039917" lon="8.97958517074585">
        <ele>155.3902587890625</ele>
        <time>2008-05-18T09:00:09Z</time>
      </trkpt>
      <trkpt lat="45.516700744628906" lon="8.978726863861084">
        <ele>154.9095458984375</ele>
        <time>2008-05-18T09:00:25Z</time>
      </trkpt>
      <trkpt lat="45.516271591186523" lon="8.977868556976318">
        <ele>155.3902587890625</ele>
        <time>2008-05-18T09:00:39Z</time>
      </trkpt>
      <trkpt lat="45.51586389541626" lon="8.976924419403076">
        <ele>155.3902587890625</ele>
        <time>2008-05-18T09:00:54Z</time>
      </trkpt>
      <trkpt lat="45.515563488006592" lon="8.976280689239502">
        <ele>156.8321533203125</ele>
        <time>2008-05-18T09:01:05Z</time>
      </trkpt>
      <trkpt lat="45.515499114990234" lon="8.976173400878906">
        <ele>156.3515625</ele>
        <time>2008-05-18T09:01:07Z</time>
      </trkpt>
      <trkpt lat="45.515177249908447" lon="8.975400924682617">
        <ele>157.3128662109375</ele>
        <time>2008-05-18T09:01:20Z</time>
      </trkpt>
      <trkpt lat="45.514876842498779" lon="8.974735736846924">
        <ele>158.7547607421875</ele>
        <time>2008-05-18T09:01:32Z</time>
      </trkpt>
      <trkpt lat="45.514469146728516" lon="8.973855972290039">
        <ele>156.3515625</ele>
        <time>2008-05-18T09:01:47Z</time>
      </trkpt>
      <trkpt lat="45.514082908630371" lon="8.972890377044678">
        <ele>155.3902587890625</ele>
        <time>2008-05-18T09:02:02Z</time>
      </trkpt>
      <trkpt lat="45.513782501220703" lon="8.97207498550415">
        <ele>154.9095458984375</ele>
        <time>2008-05-18T09:02:15Z</time>
      </trkpt>
      <trkpt lat="45.513632297515869" lon="8.971796035766602">
        <ele>153.9483642578125</ele>
        <time>2008-05-18T09:02:20Z</time>
      </trkpt>
      <trkpt lat="45.513696670532227" lon="8.971624374389648">
        <ele>153.9483642578125</ele>
        <time>2008-05-18T09:02:24Z</time>
      </trkpt>
      <trkpt lat="45.513975620269775" lon="8.971538543701172">
        <ele>153.4676513671875</ele>
        <time>2008-05-18T09:02:31Z</time>
      </trkpt>
      <trkpt lat="45.514233112335205" lon="8.971538543701172">
        <ele>153.9483642578125</ele>
        <time>2008-05-18T09:02:37Z</time>
      </trkpt>
      <trkpt lat="45.514447689056396" lon="8.971495628356934">
        <ele>154.9095458984375</ele>
        <time>2008-05-18T09:02:42Z</time>
      </trkpt>
      <trkpt lat="45.51459789276123" lon="8.971452713012695">
        <ele>155.3902587890625</ele>
        <time>2008-05-18T09:02:45Z</time>
      </trkpt>
      <trkpt lat="45.514812469482422" lon="8.971431255340576">
        <ele>154.428955078125</ele>
        <time>2008-05-18T09:02:50Z</time>
      </trkpt>
      <trkpt lat="45.51485538482666" lon="8.971431255340576">
        <ele>154.428955078125</ele>
        <time>2008-05-18T09:02:51Z</time>
      </trkpt>
      <trkpt lat="45.515177249908447" lon="8.971366882324219">
        <ele>153.9483642578125</ele>
        <time>2008-05-18T09:02:57Z</time>
      </trkpt>
      <trkpt lat="45.515477657318115" lon="8.971173763275147">
        <ele>154.9095458984375</ele>
        <time>2008-05-18T09:03:04Z</time>
      </trkpt>
      <trkpt lat="45.515627861022949" lon="8.971045017242432">
        <ele>154.428955078125</ele>
        <time>2008-05-18T09:03:08Z</time>
      </trkpt>
      <trkpt lat="45.516185760498047" lon="8.970680236816406">
        <ele>149.1416015625</ele>
        <time>2008-05-18T09:03:22Z</time>
      </trkpt>
      <trkpt lat="45.516700744628906" lon="8.970165252685547">
        <ele>148.6610107421875</ele>
        <time>2008-05-18T09:03:35Z</time>
      </trkpt>
      <trkpt lat="45.517172813415527" lon="8.969693183898926">
        <ele>146.7384033203125</ele>
        <time>2008-05-18T09:03:47Z</time>
      </trkpt>
      <trkpt lat="45.517301559448242" lon="8.96958589553833">
        <ele>146.2578125</ele>
        <time>2008-05-18T09:03:50Z</time>
      </trkpt>
      <trkpt lat="45.517280101776123" lon="8.969306945800781">
        <ele>146.7384033203125</ele>
        <time>2008-05-18T09:03:55Z</time>
      </trkpt>
      <trkpt lat="45.517215728759766" lon="8.969135284423828">
        <ele>147.69970703125</ele>
        <time>2008-05-18T09:03:58Z</time>
      </trkpt>
      <trkpt lat="45.517151355743408" lon="8.969027996063232">
        <ele>148.180419921875</ele>
        <time>2008-05-18T09:04:00Z</time>
      </trkpt>
      <trkpt lat="45.517065525054932" lon="8.968791961669922">
        <ele>149.1416015625</ele>
        <time>2008-05-18T09:04:04Z</time>
      </trkpt>
      <trkpt lat="45.516786575317383" lon="8.968191146850586">
        <ele>150.10302734375</ele>
        <time>2008-05-18T09:04:14Z</time>
      </trkpt>
      <trkpt lat="45.516357421875" lon="8.967139720916748">
        <ele>151.064208984375</ele>
        <time>2008-05-18T09:04:31Z</time>
      </trkpt>
      <trkpt lat="45.516078472137451" lon="8.966495990753174">
        <ele>152.0257568359375</ele>
        <time>2008-05-18T09:04:43Z</time>
      </trkpt>
      <trkpt lat="45.515756607055664" lon="8.965916633605957">
        <ele>151.064208984375</ele>
        <time>2008-05-18T09:04:54Z</time>
      </trkpt>
      <trkpt lat="45.515477657318115" lon="8.965380191802979">
        <ele>151.544921875</ele>
        <time>2008-05-18T09:05:06Z</time>
      </trkpt>
      <trkpt lat="45.515305995941162" lon="8.965466022491455">
        <ele>152.50634765625</ele>
        <time>2008-05-18T09:05:12Z</time>
      </trkpt>
      <trkpt lat="45.514876842498779" lon="8.965895175933838">
        <ele>151.544921875</ele>
        <time>2008-05-18T09:05:24Z</time>
      </trkpt>
      <trkpt lat="45.514576435089111" lon="8.966174125671387">
        <ele>150.5836181640625</ele>
        <time>2008-05-18T09:05:34Z</time>
      </trkpt>
      <trkpt lat="45.514297485351563" lon="8.966410160064697">
        <ele>151.064208984375</ele>
        <time>2008-05-18T09:05:44Z</time>
      </trkpt>
      <trkpt lat="45.513932704925537" lon="8.966753482818604">
        <ele>150.10302734375</ele>
        <time>2008-05-18T09:05:56Z</time>
      </trkpt>
      <trkpt lat="45.513546466827393" lon="8.96709680557251">
        <ele>151.544921875</ele>
        <time>2008-05-18T09:06:08Z</time>
      </trkpt>
      <trkpt lat="45.513224601745605" lon="8.967461585998535">
        <ele>149.622314453125</ele>
        <time>2008-05-18T09:06:20Z</time>
      </trkpt>
      <trkpt lat="45.513010025024414" lon="8.967783451080322">
        <ele>149.1416015625</ele>
        <time>2008-05-18T09:06:28Z</time>
      </trkpt>
      <trkpt lat="45.51260232925415" lon="8.968169689178467">
        <ele>150.10302734375</ele>
        <time>2008-05-18T09:06:41Z</time>
      </trkpt>
      <trkpt lat="45.512216091156006" lon="8.968491554260254">
        <ele>150.10302734375</ele>
        <time>2008-05-18T09:06:53Z</time>
      </trkpt>
      <trkpt lat="45.512323379516602" lon="8.968706130981445">
        <ele>151.064208984375</ele>
        <time>2008-05-18T09:06:59Z</time>
      </trkpt>
      <trkpt lat="45.512473583221436" lon="8.969027996063232">
        <ele>151.064208984375</ele>
        <time>2008-05-18T09:07:07Z</time>
      </trkpt>
      <trkpt lat="45.512645244598389" lon="8.969414234161377">
        <ele>151.064208984375</ele>
        <time>2008-05-18T09:07:16Z</time>
      </trkpt>
      <trkpt lat="45.51285982131958" lon="8.96984338760376">
        <ele>150.5836181640625</ele>
        <time>2008-05-18T09:07:27Z</time>
      </trkpt>
      <trkpt lat="45.513074398040771" lon="8.9703369140625">
        <ele>151.064208984375</ele>
        <time>2008-05-18T09:07:39Z</time>
      </trkpt>
      <trkpt lat="45.513224601745605" lon="8.970680236816406">
        <ele>151.544921875</ele>
        <time>2008-05-18T09:07:47Z</time>
      </trkpt>
      <trkpt lat="45.513439178466797" lon="8.971259593963623">
        <ele>151.544921875</ele>
        <time>2008-05-18T09:08:00Z</time>
      </trkpt>
      <trkpt lat="45.513632297515869" lon="8.971710205078125">
        <ele>152.0257568359375</ele>
        <time>2008-05-18T09:08:11Z</time>
      </trkpt>
      <trkpt lat="45.513632297515869" lon="8.971817493438721">
        <ele>151.064208984375</ele>
        <time>2008-05-18T09:08:15Z</time>
      </trkpt>
      <trkpt lat="45.513439178466797" lon="8.97183895111084">
        <ele>149.622314453125</ele>
        <time>2008-05-18T09:08:21Z</time>
      </trkpt>
      <trkpt lat="45.513224601745605" lon="8.971796035766602">
        <ele>148.6610107421875</ele>
        <time>2008-05-18T09:08:26Z</time>
      </trkpt>
      <trkpt lat="45.512795448303223" lon="8.971753120422363">
        <ele>148.180419921875</ele>
        <time>2008-05-18T09:08:37Z</time>
      </trkpt>
      <trkpt lat="45.512409210205078" lon="8.971774578094482">
        <ele>148.180419921875</ele>
        <time>2008-05-18T09:08:48Z</time>
      </trkpt>
      <trkpt lat="45.512216091156006" lon="8.97183895111084">
        <ele>148.6610107421875</ele>
        <time>2008-05-18T09:08:53Z</time>
      </trkpt>
      <trkpt lat="45.51210880279541" lon="8.97207498550415">
        <ele>149.1416015625</ele>
        <time>2008-05-18T09:08:58Z</time>
      </trkpt>
      <trkpt lat="45.51210880279541" lon="8.972182273864746">
        <ele>149.1416015625</ele>
        <time>2008-05-18T09:09:00Z</time>
      </trkpt>
      <trkpt lat="45.512344837188721" lon="8.972761631011963">
        <ele>149.1416015625</ele>
        <time>2008-05-18T09:09:10Z</time>
      </trkpt>
      <trkpt lat="45.512409210205078" lon="8.972997665405273">
        <ele>148.6610107421875</ele>
        <time>2008-05-18T09:09:14Z</time>
      </trkpt>
      <trkpt lat="45.512344837188721" lon="8.973233699798584">
        <ele>148.6610107421875</ele>
        <time>2008-05-18T09:09:18Z</time>
      </trkpt>
      <trkpt lat="45.511894226074219" lon="8.97357702255249">
        <ele>149.1416015625</ele>
        <time>2008-05-18T09:09:27Z</time>
      </trkpt>
      <trkpt lat="45.511765480041504" lon="8.973748683929443">
        <ele>148.6610107421875</ele>
        <time>2008-05-18T09:09:31Z</time>
      </trkpt>
      <trkpt lat="45.511808395385742" lon="8.973855972290039">
        <ele>149.1416015625</ele>
        <time>2008-05-18T09:09:33Z</time>
      </trkpt>
      <trkpt lat="45.511980056762695" lon="8.974306583404541">
        <ele>149.622314453125</ele>
        <time>2008-05-18T09:09:41Z</time>
      </trkpt>
      <trkpt lat="45.512237548828125" lon="8.97507905960083">
        <ele>149.622314453125</ele>
        <time>2008-05-18T09:09:54Z</time>
      </trkpt>
      <trkpt lat="45.512452125549316" lon="8.975722789764404">
        <ele>149.622314453125</ele>
        <time>2008-05-18T09:10:06Z</time>
      </trkpt>
      <trkpt lat="45.51260232925415" lon="8.976194858551025">
        <ele>149.622314453125</ele>
        <time>2008-05-18T09:10:16Z</time>
      </trkpt>
      <trkpt lat="45.512795448303223" lon="8.976795673370361">
        <ele>149.1416015625</ele>
        <time>2008-05-18T09:10:27Z</time>
      </trkpt>
      <trkpt lat="45.512988567352295" lon="8.97733211517334">
        <ele>149.622314453125</ele>
        <time>2008-05-18T09:10:37Z</time>
      </trkpt>
      <trkpt lat="45.513138771057129" lon="8.977804183959961">
        <ele>149.1416015625</ele>
        <time>2008-05-18T09:10:47Z</time>
      </trkpt>
      <trkpt lat="45.513052940368652" lon="8.977911472320557">
        <ele>149.1416015625</ele>
        <time>2008-05-18T09:10:52Z</time>
      </trkpt>
      <trkpt lat="45.512645244598389" lon="8.978276252746582">
        <ele>149.1416015625</ele>
        <time>2008-05-18T09:11:04Z</time>
      </trkpt>
      <trkpt lat="45.512280464172363" lon="8.97857666015625">
        <ele>149.1416015625</ele>
        <time>2008-05-18T09:11:15Z</time>
      </trkpt>
      <trkpt lat="45.5118727684021" lon="8.978941440582275">
        <ele>148.6610107421875</ele>
        <time>2008-05-18T09:11:27Z</time>
      </trkpt>
      <trkpt lat="45.511507987976074" lon="8.979284763336182">
        <ele>148.180419921875</ele>
        <time>2008-05-18T09:11:38Z</time>
      </trkpt>
      <trkpt lat="45.51135778427124" lon="8.979413509368897">
        <ele>148.180419921875</ele>
        <time>2008-05-18T09:11:43Z</time>
      </trkpt>
      <trkpt lat="45.511400699615479" lon="8.97958517074585">
        <ele>147.69970703125</ele>
        <time>2008-05-18T09:11:49Z</time>
      </trkpt>
      <trkpt lat="45.511572360992432" lon="8.979885578155518">
        <ele>148.6610107421875</ele>
        <time>2008-05-18T09:11:56Z</time>
      </trkpt>
      <trkpt lat="45.511636734008789" lon="8.980100154876709">
        <ele>148.180419921875</ele>
        <time>2008-05-18T09:12:00Z</time>
      </trkpt>
      <trkpt lat="45.511808395385742" lon="8.980550765991211">
        <ele>147.69970703125</ele>
        <time>2008-05-18T09:12:09Z</time>
      </trkpt>
      <trkpt lat="45.511958599090576" lon="8.980872631072998">
        <ele>148.180419921875</ele>
        <time>2008-05-18T09:12:16Z</time>
      </trkpt>
      <trkpt lat="45.512151718139648" lon="8.981344699859619">
        <ele>148.180419921875</ele>
        <time>2008-05-18T09:12:25Z</time>
      </trkpt>
      <trkpt lat="45.51236629486084" lon="8.981838226318359">
        <ele>148.180419921875</ele>
        <time>2008-05-18T09:12:34Z</time>
      </trkpt>
      <trkpt lat="45.512580871582031" lon="8.9823317527771">
        <ele>148.180419921875</ele>
        <time>2008-05-18T09:12:44Z</time>
      </trkpt>
      <trkpt lat="45.512709617614746" lon="8.982782363891602">
        <ele>150.10302734375</ele>
        <time>2008-05-18T09:12:53Z</time>
      </trkpt>
      <trkpt lat="45.512773990631104" lon="8.983232975006104">
        <ele>150.10302734375</ele>
        <time>2008-05-18T09:13:02Z</time>
      </trkpt>
      <trkpt lat="45.512945652008057" lon="8.983705043792725">
        <ele>149.622314453125</ele>
        <time>2008-05-18T09:13:11Z</time>
      </trkpt>
      <trkpt lat="45.513095855712891" lon="8.984198570251465">
        <ele>149.622314453125</ele>
        <time>2008-05-18T09:13:20Z</time>
      </trkpt>
      <trkpt lat="45.513331890106201" lon="8.984735012054443">
        <ele>150.10302734375</ele>
        <time>2008-05-18T09:13:30Z</time>
      </trkpt>
      <trkpt lat="45.513546466827393" lon="8.985228538513184">
        <ele>150.10302734375</ele>
        <time>2008-05-18T09:13:40Z</time>
      </trkpt>
      <trkpt lat="45.513825416564941" lon="8.985679149627686">
        <ele>150.10302734375</ele>
        <time>2008-05-18T09:13:52Z</time>
      </trkpt>
      <trkpt lat="45.514018535614014" lon="8.985915184020996">
        <ele>150.10302734375</ele>
        <time>2008-05-18T09:14:01Z</time>
      </trkpt>
      <trkpt lat="45.514168739318848" lon="8.986237049102783">
        <ele>149.622314453125</ele>
        <time>2008-05-18T09:14:09Z</time>
      </trkpt>
      <trkpt lat="45.514211654663086" lon="8.986344337463379">
        <ele>149.622314453125</ele>
        <time>2008-05-18T09:14:12Z</time>
      </trkpt>
      <trkpt lat="45.51410436630249" lon="8.986515998840332">
        <ele>150.10302734375</ele>
        <time>2008-05-18T09:14:16Z</time>
      </trkpt>
      <trkpt lat="45.513632297515869" lon="8.986966609954834">
        <ele>149.1416015625</ele>
        <time>2008-05-18T09:14:27Z</time>
      </trkpt>
      <trkpt lat="45.51311731338501" lon="8.987374305725098">
        <ele>148.6610107421875</ele>
        <time>2008-05-18T09:14:38Z</time>
      </trkpt>
      <trkpt lat="45.512580871582031" lon="8.987846374511719">
        <ele>149.1416015625</ele>
        <time>2008-05-18T09:14:48Z</time>
      </trkpt>
      <trkpt lat="45.512044429779053" lon="8.988339900970459">
        <ele>148.6610107421875</ele>
        <time>2008-05-18T09:14:58Z</time>
      </trkpt>
      <trkpt lat="45.511722564697266" lon="8.988640308380127">
        <ele>148.6610107421875</ele>
        <time>2008-05-18T09:15:04Z</time>
      </trkpt>
      <trkpt lat="45.511701107025146" lon="8.988919258117676">
        <ele>149.1416015625</ele>
        <time>2008-05-18T09:15:08Z</time>
      </trkpt>
      <trkpt lat="45.511722564697266" lon="8.988983631134033">
        <ele>149.1416015625</ele>
        <time>2008-05-18T09:15:09Z</time>
      </trkpt>
      <trkpt lat="45.512022972106934" lon="8.989627361297607">
        <ele>150.10302734375</ele>
        <time>2008-05-18T09:15:20Z</time>
      </trkpt>
      <trkpt lat="45.512280464172363" lon="8.990206718444824">
        <ele>149.622314453125</ele>
        <time>2008-05-18T09:15:30Z</time>
      </trkpt>
      <trkpt lat="45.512452125549316" lon="8.990635871887207">
        <ele>150.10302734375</ele>
        <time>2008-05-18T09:15:39Z</time>
      </trkpt>
      <trkpt lat="45.51260232925415" lon="8.991043567657471">
        <ele>150.10302734375</ele>
        <time>2008-05-18T09:15:47Z</time>
      </trkpt>
      <trkpt lat="45.512816905975342" lon="8.99155855178833">
        <ele>149.622314453125</ele>
        <time>2008-05-18T09:15:57Z</time>
      </trkpt>
      <trkpt lat="45.513031482696533" lon="8.992094993591309">
        <ele>149.622314453125</ele>
        <time>2008-05-18T09:16:07Z</time>
      </trkpt>
      <trkpt lat="45.513138771057129" lon="8.992180824279785">
        <ele>149.622314453125</ele>
        <time>2008-05-18T09:16:10Z</time>
      </trkpt>
      <trkpt lat="45.513374805450439" lon="8.992266654968262">
        <ele>148.6610107421875</ele>
        <time>2008-05-18T09:16:17Z</time>
      </trkpt>
      <trkpt lat="45.513696670532227" lon="8.992910385131836">
        <ele>149.622314453125</ele>
        <time>2008-05-18T09:16:31Z</time>
      </trkpt>
      <trkpt lat="45.513825416564941" lon="8.99355411529541">
        <ele>149.622314453125</ele>
        <time>2008-05-18T09:16:43Z</time>
      </trkpt>
      <trkpt lat="45.513911247253418" lon="8.99430513381958">
        <ele>150.10302734375</ele>
        <time>2008-05-18T09:16:57Z</time>
      </trkpt>
      <trkpt lat="45.513911247253418" lon="8.994369506835938">
        <ele>150.10302734375</ele>
        <time>2008-05-18T09:16:58Z</time>
      </trkpt>
      <trkpt lat="45.514082908630371" lon="8.994390964508057">
        <ele>149.622314453125</ele>
        <time>2008-05-18T09:17:04Z</time>
      </trkpt>
      <trkpt lat="45.514340400695801" lon="8.994369506835938">
        <ele>149.622314453125</ele>
        <time>2008-05-18T09:17:11Z</time>
      </trkpt>
      <trkpt lat="45.515155792236328" lon="8.994412422180176">
        <ele>148.6610107421875</ele>
        <time>2008-05-18T09:17:29Z</time>
      </trkpt>
      <trkpt lat="45.515241622924805" lon="8.994455337524414">
        <ele>147.69970703125</ele>
        <time>2008-05-18T09:17:32Z</time>
      </trkpt>
      <trkpt lat="45.51537036895752" lon="8.994498252868652">
        <ele>145.777099609375</ele>
        <time>2008-05-18T09:17:36Z</time>
      </trkpt>
      <trkpt lat="45.515456199645996" lon="8.994541168212891">
        <ele>145.29638671875</ele>
        <time>2008-05-18T09:17:38Z</time>
      </trkpt>
      <trkpt lat="45.515542030334473" lon="8.99456262588501">
        <ele>144.8157958984375</ele>
        <time>2008-05-18T09:17:40Z</time>
      </trkpt>
      <trkpt lat="45.515649318695068" lon="8.99456262588501">
        <ele>144.8157958984375</ele>
        <time>2008-05-18T09:17:42Z</time>
      </trkpt>
      <trkpt lat="45.516293048858643" lon="8.994348049163818">
        <ele>144.8157958984375</ele>
        <time>2008-05-18T09:17:54Z</time>
      </trkpt>
      <trkpt lat="45.516808032989502" lon="8.994112014770508">
        <ele>146.7384033203125</ele>
        <time>2008-05-18T09:18:05Z</time>
      </trkpt>
      <trkpt lat="45.517451763153076" lon="8.993682861328125">
        <ele>145.777099609375</ele>
        <time>2008-05-18T09:18:21Z</time>
      </trkpt>
      <trkpt lat="45.517795085906982" lon="8.993382453918457">
        <ele>145.29638671875</ele>
        <time>2008-05-18T09:18:31Z</time>
      </trkpt>
      <trkpt lat="45.518052577972412" lon="8.993124961853027">
        <ele>146.2578125</ele>
        <time>2008-05-18T09:18:39Z</time>
      </trkpt>
      <trkpt lat="45.518202781677246" lon="8.993339538574219">
        <ele>146.7384033203125</ele>
        <time>2008-05-18T09:18:45Z</time>
      </trkpt>
      <trkpt lat="45.518417358398437" lon="8.993747234344482">
        <ele>147.69970703125</ele>
        <time>2008-05-18T09:18:55Z</time>
      </trkpt>
      <trkpt lat="45.518653392791748" lon="8.99406909942627">
        <ele>147.69970703125</ele>
        <time>2008-05-18T09:19:03Z</time>
      </trkpt>
      <trkpt lat="45.518825054168701" lon="8.994176387786865">
        <ele>148.6610107421875</ele>
        <time>2008-05-18T09:19:08Z</time>
      </trkpt>
      <trkpt lat="45.518932342529297" lon="8.994348049163818">
        <ele>149.622314453125</ele>
        <time>2008-05-18T09:19:12Z</time>
      </trkpt>
      <trkpt lat="45.519168376922607" lon="8.994841575622559">
        <ele>149.622314453125</ele>
        <time>2008-05-18T09:19:22Z</time>
      </trkpt>
      <trkpt lat="45.519404411315918" lon="8.994927406311035">
        <ele>150.10302734375</ele>
        <time>2008-05-18T09:19:28Z</time>
      </trkpt>
      <trkpt lat="45.519490242004395" lon="8.994905948638916">
        <ele>150.5836181640625</ele>
        <time>2008-05-18T09:19:30Z</time>
      </trkpt>
      <trkpt lat="45.51959753036499" lon="8.994863033294678">
        <ele>150.5836181640625</ele>
        <time>2008-05-18T09:19:33Z</time>
      </trkpt>
      <trkpt lat="45.519812107086182" lon="8.99505615234375">
        <ele>151.064208984375</ele>
        <time>2008-05-18T09:19:39Z</time>
      </trkpt>
      <trkpt lat="45.520026683807373" lon="8.995463848114014">
        <ele>151.064208984375</ele>
        <time>2008-05-18T09:19:48Z</time>
      </trkpt>
      <trkpt lat="45.520284175872803" lon="8.995914459228516">
        <ele>151.544921875</ele>
        <time>2008-05-18T09:19:58Z</time>
      </trkpt>
      <trkpt lat="45.520391464233398" lon="8.996107578277588">
        <ele>151.544921875</ele>
        <time>2008-05-18T09:20:02Z</time>
      </trkpt>
      <trkpt lat="45.520455837249756" lon="8.996279239654541">
        <ele>151.544921875</ele>
        <time>2008-05-18T09:20:05Z</time>
      </trkpt>
      <trkpt lat="45.520477294921875" lon="8.996601104736328">
        <ele>152.0257568359375</ele>
        <time>2008-05-18T09:20:10Z</time>
      </trkpt>
      <trkpt lat="45.52060604095459" lon="8.996880054473877">
        <ele>152.50634765625</ele>
        <time>2008-05-18T09:20:15Z</time>
      </trkpt>
      <trkpt lat="45.520691871643066" lon="8.997073173522949">
        <ele>152.50634765625</ele>
        <time>2008-05-18T09:20:18Z</time>
      </trkpt>
      <trkpt lat="45.520884990692139" lon="8.997802734375">
        <ele>152.0257568359375</ele>
        <time>2008-05-18T09:20:28Z</time>
      </trkpt>
      <trkpt lat="45.521056652069092" lon="8.998467922210693">
        <ele>151.544921875</ele>
        <time>2008-05-18T09:20:36Z</time>
      </trkpt>
      <trkpt lat="45.521292686462402" lon="8.999261856079102">
        <ele>151.064208984375</ele>
        <time>2008-05-18T09:20:46Z</time>
      </trkpt>
      <trkpt lat="45.521399974822998" lon="8.999476432800293">
        <ele>151.064208984375</ele>
        <time>2008-05-18T09:20:49Z</time>
      </trkpt>
      <trkpt lat="45.521872043609619" lon="9.000034332275391">
        <ele>148.6610107421875</ele>
        <time>2008-05-18T09:20:59Z</time>
      </trkpt>
      <trkpt lat="45.522387027740479" lon="9.000592231750488">
        <ele>144.335205078125</ele>
        <time>2008-05-18T09:21:07Z</time>
      </trkpt>
      <trkpt lat="45.522816181182861" lon="9.00104284286499">
        <ele>144.8157958984375</ele>
        <time>2008-05-18T09:21:14Z</time>
      </trkpt>
      <trkpt lat="45.5228590965271" lon="9.001107215881348">
        <ele>145.29638671875</ele>
        <time>2008-05-18T09:21:15Z</time>
      </trkpt>
      <trkpt lat="45.522944927215576" lon="9.001429080963135">
        <ele>146.2578125</ele>
        <time>2008-05-18T09:21:20Z</time>
      </trkpt>
      <trkpt lat="45.522794723510742" lon="9.001643657684326">
        <ele>147.218994140625</ele>
        <time>2008-05-18T09:21:24Z</time>
      </trkpt>
      <trkpt lat="45.52234411239624" lon="9.001965522766113">
        <ele>149.1416015625</ele>
        <time>2008-05-18T09:21:33Z</time>
      </trkpt>
      <trkpt lat="45.522236824035645" lon="9.001922607421875">
        <ele>149.622314453125</ele>
        <time>2008-05-18T09:21:36Z</time>
      </trkpt>
      <trkpt lat="45.522258281707764" lon="9.001901149749756">
        <ele>149.622314453125</ele>
        <time>2008-05-18T09:21:37Z</time>
      </trkpt>
      <trkpt lat="45.522580146789551" lon="9.00155782699585">
        <ele>150.10302734375</ele>
        <time>2008-05-18T09:21:46Z</time>
      </trkpt>
      <trkpt lat="45.522623062133789" lon="9.001364707946777">
        <ele>150.10302734375</ele>
        <time>2008-05-18T09:21:49Z</time>
      </trkpt>
      <trkpt lat="45.522515773773193" lon="9.001128673553467">
        <ele>150.5836181640625</ele>
        <time>2008-05-18T09:21:53Z</time>
      </trkpt>
      <trkpt lat="45.522494316101074" lon="9.000871181488037">
        <ele>151.064208984375</ele>
        <time>2008-05-18T09:21:57Z</time>
      </trkpt>
      <trkpt lat="45.522558689117432" lon="9.000742435455322">
        <ele>151.064208984375</ele>
        <time>2008-05-18T09:21:59Z</time>
      </trkpt>
      <trkpt lat="45.5228590965271" lon="9.000270366668701">
        <ele>151.544921875</ele>
        <time>2008-05-18T09:22:07Z</time>
      </trkpt>
      <trkpt lat="45.522923469543457" lon="9.000141620635986">
        <ele>152.0257568359375</ele>
        <time>2008-05-18T09:22:09Z</time>
      </trkpt>
      <trkpt lat="45.523138046264648" lon="8.999905586242676">
        <ele>151.544921875</ele>
        <time>2008-05-18T09:22:14Z</time>
      </trkpt>
      <trkpt lat="45.523717403411865" lon="8.999648094177246">
        <ele>151.544921875</ele>
        <time>2008-05-18T09:22:25Z</time>
      </trkpt>
      <trkpt lat="45.524210929870605" lon="8.99930477142334">
        <ele>151.544921875</ele>
        <time>2008-05-18T09:22:35Z</time>
      </trkpt>
      <trkpt lat="45.524682998657227" lon="8.998832702636719">
        <ele>152.50634765625</ele>
        <time>2008-05-18T09:22:45Z</time>
      </trkpt>
      <trkpt lat="45.524725914001465" lon="8.998789787292481">
        <ele>152.50634765625</ele>
        <time>2008-05-18T09:22:46Z</time>
      </trkpt>
      <trkpt lat="45.525112152099609" lon="8.998467922210693">
        <ele>153.4676513671875</ele>
        <time>2008-05-18T09:22:54Z</time>
      </trkpt>
      <trkpt lat="45.525369644165039" lon="8.998146057128906">
        <ele>153.4676513671875</ele>
        <time>2008-05-18T09:22:58Z</time>
      </trkpt>
      <trkpt lat="45.525476932525635" lon="8.997974395751953">
        <ele>153.4676513671875</ele>
        <time>2008-05-18T09:23:00Z</time>
      </trkpt>
      <trkpt lat="45.525712966918945" lon="8.997867107391357">
        <ele>153.4676513671875</ele>
        <time>2008-05-18T09:23:04Z</time>
      </trkpt>
      <trkpt lat="45.525820255279541" lon="8.99806022644043">
        <ele>153.4676513671875</ele>
        <time>2008-05-18T09:23:07Z</time>
      </trkpt>
      <trkpt lat="45.525777339935303" lon="8.998231887817383">
        <ele>153.9483642578125</ele>
        <time>2008-05-18T09:23:10Z</time>
      </trkpt>
      <trkpt lat="45.525734424591064" lon="8.99829626083374">
        <ele>154.428955078125</ele>
        <time>2008-05-18T09:23:11Z</time>
      </trkpt>
      <trkpt lat="45.525562763214111" lon="8.998446464538574">
        <ele>154.428955078125</ele>
        <time>2008-05-18T09:23:14Z</time>
      </trkpt>
      <trkpt lat="45.525197982788086" lon="8.998875617980957">
        <ele>154.428955078125</ele>
        <time>2008-05-18T09:23:21Z</time>
      </trkpt>
      <trkpt lat="45.525069236755371" lon="8.999068737030029">
        <ele>154.428955078125</ele>
        <time>2008-05-18T09:23:25Z</time>
      </trkpt>
      <trkpt lat="45.525047779083252" lon="8.999068737030029">
        <ele>154.428955078125</ele>
        <time>2008-05-18T09:23:33Z</time>
      </trkpt>
      <trkpt lat="45.525047779083252" lon="8.999090194702148">
        <ele>154.428955078125</ele>
        <time>2008-05-18T09:23:34Z</time>
      </trkpt>
    </trkseg>
  </trk>

</gpx>
